<?xml version='1.0' encoding='UTF-8'?><gpx version="1.1" creator="JPX - https://github.com/jenetics/jpx" xmlns="http://www.topografix.com/GPX/1/1"><trk><trkseg><trkpt lat="43.8485178" lon="11.1946277"><ele>195.99999999999997</ele><time>2026-03-25T16:51:55.285Z</time></trkpt><trkpt lat="43.8485518" lon="11.1947405"><ele>196.0</ele><time>2026-03-25T16:52:10.29Z</time></trkpt><trkpt lat="43.8486044" lon="11.1947962"><ele>196.0</ele><time>2026-03-25T16:52:13.287Z</time></trkpt><trkpt lat="43.8486762" lon="11.1948121"><ele>196.0</ele><time>2026-03-25T16:52:15.292Z</time></trkpt><trkpt lat="43.8487453" lon="11.1947993"><ele>195.99999999999997</ele><time>2026-03-25T16:52:17.287Z</time></trkpt><trkpt lat="43.8488222" lon="11.1947679"><ele>196.0</ele><time>2026-03-25T16:52:21.296Z</time></trkpt><trkpt lat="43.8489002" lon="11.1947127"><ele>195.99999999999997</ele><time>2026-03-25T16:52:24.29Z</time></trkpt><trkpt lat="43.8489558" lon="11.1946348"><ele>196.0</ele><time>2026-03-25T16:52:28.288Z</time></trkpt><trkpt lat="43.8490209" lon="11.1945509"><ele>196.0</ele><time>2026-03-25T16:52:31.293Z</time></trkpt><trkpt lat="43.8490792" lon="11.1945103"><ele>196.0</ele><time>2026-03-25T16:52:33.293Z</time></trkpt><trkpt lat="43.8491404" lon="11.1944838"><ele>195.99999999999997</ele><time>2026-03-25T16:52:35.309Z</time></trkpt><trkpt lat="43.8492231" lon="11.1944263"><ele>196.0</ele><time>2026-03-25T16:52:38.295Z</time></trkpt><trkpt lat="43.8492983" lon="11.1943991"><ele>199.49999999999997</ele><time>2026-03-25T16:52:41.289Z</time></trkpt><trkpt lat="43.8493924" lon="11.1944224"><ele>203.0</ele><time>2026-03-25T16:52:43.29Z</time></trkpt><trkpt lat="43.8494669" lon="11.1944302"><ele>206.5</ele><time>2026-03-25T16:52:45.302Z</time></trkpt><trkpt lat="43.8495288" lon="11.1944123"><ele>210.0</ele><time>2026-03-25T16:52:47.29Z</time></trkpt><trkpt lat="43.8496112" lon="11.1944357"><ele>213.49999999999997</ele><time>2026-03-25T16:52:50.286Z</time></trkpt><trkpt lat="43.849684" lon="11.1944688"><ele>217.0</ele><time>2026-03-25T16:52:52.293Z</time></trkpt><trkpt lat="43.8497557" lon="11.1944815"><ele>216.99999999999997</ele><time>2026-03-25T16:52:54.285Z</time></trkpt><trkpt lat="43.8498295" lon="11.194497"><ele>217.0</ele><time>2026-03-25T16:52:56.283Z</time></trkpt><trkpt lat="43.8499091" lon="11.1945048"><ele>217.0</ele><time>2026-03-25T16:52:58.291Z</time></trkpt><trkpt lat="43.8499887" lon="11.1945057"><ele>217.0</ele><time>2026-03-25T16:53:00.291Z</time></trkpt><trkpt lat="43.8500701" lon="11.1945255"><ele>216.99999999999997</ele><time>2026-03-25T16:53:02.293Z</time></trkpt><trkpt lat="43.8501337" lon="11.1944934"><ele>217.0</ele><time>2026-03-25T16:53:04.291Z</time></trkpt><trkpt lat="43.8502035" lon="11.1944347"><ele>219.16666666666666</ele><time>2026-03-25T16:53:06.296Z</time></trkpt><trkpt lat="43.8502587" lon="11.1943455"><ele>221.33333333333331</ele><time>2026-03-25T16:53:09.299Z</time></trkpt><trkpt lat="43.8502667" lon="11.1942425"><ele>223.5</ele><time>2026-03-25T16:53:12.289Z</time></trkpt><trkpt lat="43.850304" lon="11.1941456"><ele>225.66666666666669</ele><time>2026-03-25T16:53:14.321Z</time></trkpt><trkpt lat="43.8503305" lon="11.1940256"><ele>227.83333333333334</ele><time>2026-03-25T16:53:16.285Z</time></trkpt><trkpt lat="43.8503996" lon="11.193967"><ele>230.0</ele><time>2026-03-25T16:53:20.3Z</time></trkpt><trkpt lat="43.8504618" lon="11.1939385"><ele>230.00000000000003</ele><time>2026-03-25T16:53:22.293Z</time></trkpt><trkpt lat="43.8505526" lon="11.193958"><ele>230.0</ele><time>2026-03-25T16:53:25.296Z</time></trkpt><trkpt lat="43.8506155" lon="11.1939946"><ele>230.0</ele><time>2026-03-25T16:53:27.302Z</time></trkpt><trkpt lat="43.8506918" lon="11.1940148"><ele>230.0</ele><time>2026-03-25T16:53:30.29Z</time></trkpt><trkpt lat="43.8507721" lon="11.1939789"><ele>230.00000000000003</ele><time>2026-03-25T16:53:33.3Z</time></trkpt><trkpt lat="43.8508663" lon="11.193998"><ele>230.0</ele><time>2026-03-25T16:53:35.293Z</time></trkpt><trkpt lat="43.8509303" lon="11.1939995"><ele>231.4</ele><time>2026-03-25T16:53:37.291Z</time></trkpt><trkpt lat="43.8510275" lon="11.1940186"><ele>232.8</ele><time>2026-03-25T16:53:39.306Z</time></trkpt><trkpt lat="43.8511003" lon="11.1940396"><ele>234.2</ele><time>2026-03-25T16:53:40.288Z</time></trkpt><trkpt lat="43.8511822" lon="11.1940598"><ele>235.6</ele><time>2026-03-25T16:53:41.293Z</time></trkpt><trkpt lat="43.8512735" lon="11.1940961"><ele>237.0</ele><time>2026-03-25T16:53:42.286Z</time></trkpt><trkpt lat="43.851377" lon="11.1941429"><ele>237.0</ele><time>2026-03-25T16:53:43.286Z</time></trkpt><trkpt lat="43.851487" lon="11.1941925"><ele>237.0</ele><time>2026-03-25T16:53:44.292Z</time></trkpt><trkpt lat="43.8515882" lon="11.1942375"><ele>237.0</ele><time>2026-03-25T16:53:45.292Z</time></trkpt><trkpt lat="43.851676" lon="11.1942841"><ele>237.0</ele><time>2026-03-25T16:53:46.305Z</time></trkpt><trkpt lat="43.8517583" lon="11.1943242"><ele>237.0</ele><time>2026-03-25T16:53:47.291Z</time></trkpt><trkpt lat="43.8518284" lon="11.1943675"><ele>238.6</ele><time>2026-03-25T16:53:48.288Z</time></trkpt><trkpt lat="43.8518937" lon="11.1944087"><ele>240.2</ele><time>2026-03-25T16:53:49.288Z</time></trkpt><trkpt lat="43.8519518" lon="11.1944465"><ele>241.8</ele><time>2026-03-25T16:53:50.284Z</time></trkpt><trkpt lat="43.8520628" lon="11.1945341"><ele>243.4</ele><time>2026-03-25T16:53:52.312Z</time></trkpt><trkpt lat="43.8521563" lon="11.1946166"><ele>245.0</ele><time>2026-03-25T16:53:54.316Z</time></trkpt><trkpt lat="43.8522338" lon="11.1946892"><ele>245.0</ele><time>2026-03-25T16:53:56.305Z</time></trkpt><trkpt lat="43.8523174" lon="11.1947579"><ele>245.0</ele><time>2026-03-25T16:53:57.311Z</time></trkpt><trkpt lat="43.8524184" lon="11.194814"><ele>245.0</ele><time>2026-03-25T16:53:59.306Z</time></trkpt><trkpt lat="43.8525209" lon="11.1948923"><ele>245.0</ele><time>2026-03-25T16:54:01.3Z</time></trkpt><trkpt lat="43.8526058" lon="11.1949618"><ele>245.0</ele><time>2026-03-25T16:54:03.288Z</time></trkpt><trkpt lat="43.8527274" lon="11.1950017"><ele>249.00000000000003</ele><time>2026-03-25T16:54:05.307Z</time></trkpt><trkpt lat="43.8528355" lon="11.1950436"><ele>253.0</ele><time>2026-03-25T16:54:07.369Z</time></trkpt><trkpt lat="43.8529111" lon="11.1950738"><ele>257.0</ele><time>2026-03-25T16:54:09.308Z</time></trkpt><trkpt lat="43.8529776" lon="11.1950642"><ele>261.0</ele><time>2026-03-25T16:54:11.302Z</time></trkpt><trkpt lat="43.8530578" lon="11.1950605"><ele>265.0</ele><time>2026-03-25T16:54:13.309Z</time></trkpt><trkpt lat="43.853168" lon="11.1950527"><ele>269.0</ele><time>2026-03-25T16:54:15.294Z</time></trkpt><trkpt lat="43.8532354" lon="11.1950322"><ele>269.0</ele><time>2026-03-25T16:54:16.304Z</time></trkpt><trkpt lat="43.8533038" lon="11.19501"><ele>269.0</ele><time>2026-03-25T16:54:17.308Z</time></trkpt><trkpt lat="43.8533727" lon="11.1949917"><ele>269.0</ele><time>2026-03-25T16:54:18.307Z</time></trkpt><trkpt lat="43.8534383" lon="11.1949839"><ele>269.0</ele><time>2026-03-25T16:54:19.304Z</time></trkpt><trkpt lat="43.8535014" lon="11.1950278"><ele>269.0</ele><time>2026-03-25T16:54:20.378Z</time></trkpt><trkpt lat="43.8535632" lon="11.1950985"><ele>269.0</ele><time>2026-03-25T16:54:21.362Z</time></trkpt><trkpt lat="43.8536341" lon="11.1951576"><ele>269.0</ele><time>2026-03-25T16:54:22.362Z</time></trkpt><trkpt lat="43.8537103" lon="11.1952171"><ele>271.75</ele><time>2026-03-25T16:54:23.3Z</time></trkpt><trkpt lat="43.8537941" lon="11.1952832"><ele>274.5</ele><time>2026-03-25T16:54:24.311Z</time></trkpt><trkpt lat="43.8538922" lon="11.1953305"><ele>277.25</ele><time>2026-03-25T16:54:25.305Z</time></trkpt><trkpt lat="43.8541034" lon="11.1953832"><ele>280.0</ele><time>2026-03-25T16:54:27.034Z</time></trkpt><trkpt lat="43.8542086" lon="11.1954031"><ele>281.4</ele><time>2026-03-25T16:54:27.956Z</time></trkpt><trkpt lat="43.8543125" lon="11.19543"><ele>282.8</ele><time>2026-03-25T16:54:28.955Z</time></trkpt><trkpt lat="43.8544051" lon="11.1954567"><ele>284.2</ele><time>2026-03-25T16:54:29.968Z</time></trkpt><trkpt lat="43.8544913" lon="11.1955008"><ele>285.6</ele><time>2026-03-25T16:54:31.03Z</time></trkpt><trkpt lat="43.8545622" lon="11.1955523"><ele>287.0</ele><time>2026-03-25T16:54:32.028Z</time></trkpt><trkpt lat="43.8546371" lon="11.1956254"><ele>289.2</ele><time>2026-03-25T16:54:32.974Z</time></trkpt><trkpt lat="43.8547125" lon="11.1957057"><ele>291.4</ele><time>2026-03-25T16:54:33.983Z</time></trkpt><trkpt lat="43.8547845" lon="11.1957618"><ele>293.6</ele><time>2026-03-25T16:54:34.976Z</time></trkpt><trkpt lat="43.8548695" lon="11.1958076"><ele>295.8</ele><time>2026-03-25T16:54:36.031Z</time></trkpt><trkpt lat="43.8549741" lon="11.1958382"><ele>298.0</ele><time>2026-03-25T16:54:37.05Z</time></trkpt><trkpt lat="43.8550907" lon="11.1958642"><ele>298.8333333333333</ele><time>2026-03-25T16:54:37.984Z</time></trkpt><trkpt lat="43.8551903" lon="11.1958854"><ele>299.66666666666663</ele><time>2026-03-25T16:54:38.983Z</time></trkpt><trkpt lat="43.8552741" lon="11.1958868"><ele>300.5</ele><time>2026-03-25T16:54:39.993Z</time></trkpt><trkpt lat="43.8553583" lon="11.1958729"><ele>301.3333333333333</ele><time>2026-03-25T16:54:41.028Z</time></trkpt><trkpt lat="43.8554303" lon="11.1958426"><ele>302.1666666666667</ele><time>2026-03-25T16:54:42.033Z</time></trkpt><trkpt lat="43.8554929" lon="11.1958289"><ele>303.0</ele><time>2026-03-25T16:54:42.979Z</time></trkpt><trkpt lat="43.8555569" lon="11.1958033"><ele>303.0</ele><time>2026-03-25T16:54:43.987Z</time></trkpt><trkpt lat="43.8556222" lon="11.1957914"><ele>303.0</ele><time>2026-03-25T16:54:44.995Z</time></trkpt><trkpt lat="43.8557424" lon="11.1957783"><ele>303.0</ele><time>2026-03-25T16:54:46.97Z</time></trkpt><trkpt lat="43.8558656" lon="11.1958221"><ele>303.0</ele><time>2026-03-25T16:54:48.977Z</time></trkpt><trkpt lat="43.8559357" lon="11.1958635"><ele>303.0</ele><time>2026-03-25T16:54:49.976Z</time></trkpt><trkpt lat="43.8559988" lon="11.1958969"><ele>302.2857142857143</ele><time>2026-03-25T16:54:50.979Z</time></trkpt><trkpt lat="43.8560563" lon="11.1959465"><ele>301.57142857142856</ele><time>2026-03-25T16:54:51.987Z</time></trkpt><trkpt lat="43.8561176" lon="11.1960017"><ele>300.85714285714283</ele><time>2026-03-25T16:54:52.957Z</time></trkpt><trkpt lat="43.8561731" lon="11.196076"><ele>300.1428571428571</ele><time>2026-03-25T16:54:53.999Z</time></trkpt><trkpt lat="43.8562298" lon="11.1961548"><ele>299.4285714285714</ele><time>2026-03-25T16:54:55.025Z</time></trkpt><trkpt lat="43.8562821" lon="11.1962238"><ele>298.7142857142857</ele><time>2026-03-25T16:54:55.975Z</time></trkpt><trkpt lat="43.8563343" lon="11.1962987"><ele>298.0</ele><time>2026-03-25T16:54:56.981Z</time></trkpt><trkpt lat="43.8563802" lon="11.1963663"><ele>298.0</ele><time>2026-03-25T16:54:57.98Z</time></trkpt><trkpt lat="43.8564239" lon="11.1964362"><ele>298.0</ele><time>2026-03-25T16:54:58.973Z</time></trkpt><trkpt lat="43.8565002" lon="11.1965645"><ele>298.0</ele><time>2026-03-25T16:55:00.969Z</time></trkpt><trkpt lat="43.8565341" lon="11.1966406"><ele>298.0</ele><time>2026-03-25T16:55:01.979Z</time></trkpt><trkpt lat="43.856564" lon="11.1967176"><ele>298.0</ele><time>2026-03-25T16:55:02.988Z</time></trkpt><trkpt lat="43.856583" lon="11.1968019"><ele>298.0</ele><time>2026-03-25T16:55:03.988Z</time></trkpt><trkpt lat="43.8566184" lon="11.1969391"><ele>299.5</ele><time>2026-03-25T16:55:06.032Z</time></trkpt><trkpt lat="43.8566342" lon="11.1970943"><ele>301.0</ele><time>2026-03-25T16:55:07.988Z</time></trkpt><trkpt lat="43.8566361" lon="11.1971887"><ele>302.5</ele><time>2026-03-25T16:55:08.982Z</time></trkpt><trkpt lat="43.8566232" lon="11.1973365"><ele>304.0</ele><time>2026-03-25T16:55:10.986Z</time></trkpt><trkpt lat="43.8566174" lon="11.1974283"><ele>305.5</ele><time>2026-03-25T16:55:11.985Z</time></trkpt><trkpt lat="43.8566146" lon="11.1975262"><ele>307.0</ele><time>2026-03-25T16:55:12.979Z</time></trkpt><trkpt lat="43.8566172" lon="11.1976209"><ele>307.3333333333333</ele><time>2026-03-25T16:55:13.986Z</time></trkpt><trkpt lat="43.8566334" lon="11.1977968"><ele>307.66666666666663</ele><time>2026-03-25T16:55:15.981Z</time></trkpt><trkpt lat="43.856642" lon="11.1978942"><ele>308.0</ele><time>2026-03-25T16:55:16.973Z</time></trkpt><trkpt lat="43.8566477" lon="11.1979827"><ele>308.3333333333333</ele><time>2026-03-25T16:55:17.976Z</time></trkpt><trkpt lat="43.8566566" lon="11.1980734"><ele>308.6666666666667</ele><time>2026-03-25T16:55:18.985Z</time></trkpt><trkpt lat="43.8566617" lon="11.1981651"><ele>309.0</ele><time>2026-03-25T16:55:19.986Z</time></trkpt><trkpt lat="43.8566633" lon="11.1982537"><ele>309.3333333333333</ele><time>2026-03-25T16:55:20.98Z</time></trkpt><trkpt lat="43.8566647" lon="11.1983891"><ele>309.6666666666667</ele><time>2026-03-25T16:55:22.975Z</time></trkpt><trkpt lat="43.8566466" lon="11.1985092"><ele>310.0</ele><time>2026-03-25T16:55:24.978Z</time></trkpt><trkpt lat="43.8566394" lon="11.1986063"><ele>310.33333333333337</ele><time>2026-03-25T16:55:26.976Z</time></trkpt><trkpt lat="43.8566307" lon="11.1986932"><ele>310.6666666666667</ele><time>2026-03-25T16:55:28.979Z</time></trkpt><trkpt lat="43.8566375" lon="11.1987856"><ele>311.0</ele><time>2026-03-25T16:55:30.971Z</time></trkpt><trkpt lat="43.8566555" lon="11.1988894"><ele>311.83333333333337</ele><time>2026-03-25T16:55:32.98Z</time></trkpt><trkpt lat="43.856673" lon="11.1990077"><ele>312.6666666666667</ele><time>2026-03-25T16:55:35.029Z</time></trkpt><trkpt lat="43.8566867" lon="11.1991206"><ele>313.5</ele><time>2026-03-25T16:55:37.025Z</time></trkpt><trkpt lat="43.8566724" lon="11.1992291"><ele>314.3333333333333</ele><time>2026-03-25T16:55:39.986Z</time></trkpt><trkpt lat="43.8566641" lon="11.1993181"><ele>315.16666666666663</ele><time>2026-03-25T16:55:41.982Z</time></trkpt><trkpt lat="43.8566698" lon="11.1994213"><ele>316.0</ele><time>2026-03-25T16:55:43.976Z</time></trkpt><trkpt lat="43.8566772" lon="11.199531"><ele>316.0</ele><time>2026-03-25T16:55:45.986Z</time></trkpt><trkpt lat="43.8566999" lon="11.1996642"><ele>316.0</ele><time>2026-03-25T16:55:47.974Z</time></trkpt><trkpt lat="43.8567266" lon="11.1997507"><ele>316.0</ele><time>2026-03-25T16:55:48.959Z</time></trkpt><trkpt lat="43.8567639" lon="11.1998222"><ele>316.0</ele><time>2026-03-25T16:55:49.972Z</time></trkpt><trkpt lat="43.8568242" lon="11.1999663"><ele>316.0</ele><time>2026-03-25T16:55:51.979Z</time></trkpt><trkpt lat="43.8568786" lon="11.2001152"><ele>313.16666666666663</ele><time>2026-03-25T16:55:53.99Z</time></trkpt><trkpt lat="43.8569133" lon="11.2002529"><ele>310.3333333333333</ele><time>2026-03-25T16:55:55.981Z</time></trkpt><trkpt lat="43.8569664" lon="11.2003786"><ele>307.5</ele><time>2026-03-25T16:55:57.973Z</time></trkpt><trkpt lat="43.8570022" lon="11.2004577"><ele>304.6666666666667</ele><time>2026-03-25T16:55:58.987Z</time></trkpt><trkpt lat="43.8570485" lon="11.2005665"><ele>301.83333333333337</ele><time>2026-03-25T16:56:00.969Z</time></trkpt><trkpt lat="43.8570648" lon="11.2006722"><ele>299.0</ele><time>2026-03-25T16:56:02.966Z</time></trkpt><trkpt lat="43.8570726" lon="11.2007822"><ele>299.0</ele><time>2026-03-25T16:56:04.972Z</time></trkpt><trkpt lat="43.8570711" lon="11.2008721"><ele>299.0</ele><time>2026-03-25T16:56:06.974Z</time></trkpt><trkpt lat="43.8570831" lon="11.2009581"><ele>299.0</ele><time>2026-03-25T16:56:08.989Z</time></trkpt><trkpt lat="43.8571137" lon="11.2010725"><ele>299.0</ele><time>2026-03-25T16:56:11.981Z</time></trkpt><trkpt lat="43.8571158" lon="11.2011633"><ele>299.0</ele><time>2026-03-25T16:56:13.982Z</time></trkpt><trkpt lat="43.8571192" lon="11.2012783"><ele>299.0</ele><time>2026-03-25T16:56:16.974Z</time></trkpt><trkpt lat="43.8571379" lon="11.2013944"><ele>299.0</ele><time>2026-03-25T16:56:19.972Z</time></trkpt><trkpt lat="43.8571532" lon="11.2014866"><ele>299.0</ele><time>2026-03-25T16:56:21.974Z</time></trkpt><trkpt lat="43.8571713" lon="11.2015899"><ele>299.0</ele><time>2026-03-25T16:56:24.982Z</time></trkpt><trkpt lat="43.8571941" lon="11.2016715"><ele>299.0</ele><time>2026-03-25T16:56:26.987Z</time></trkpt><trkpt lat="43.8572176" lon="11.2017824"><ele>299.0</ele><time>2026-03-25T16:56:29.986Z</time></trkpt><trkpt lat="43.8572241" lon="11.2018906"><ele>299.0</ele><time>2026-03-25T16:56:32.985Z</time></trkpt><trkpt lat="43.8572385" lon="11.2019926"><ele>299.0</ele><time>2026-03-25T16:56:35.988Z</time></trkpt><trkpt lat="43.8572549" lon="11.2020823"><ele>298.83333333333337</ele><time>2026-03-25T16:56:37.983Z</time></trkpt><trkpt lat="43.8572802" lon="11.2021922"><ele>298.6666666666667</ele><time>2026-03-25T16:56:40.966Z</time></trkpt><trkpt lat="43.8573355" lon="11.2022897"><ele>298.5</ele><time>2026-03-25T16:56:43.985Z</time></trkpt><trkpt lat="43.8573811" lon="11.2023742"><ele>298.3333333333333</ele><time>2026-03-25T16:56:46.985Z</time></trkpt><trkpt lat="43.8574153" lon="11.2024589"><ele>298.16666666666663</ele><time>2026-03-25T16:56:49.983Z</time></trkpt><trkpt lat="43.8574371" lon="11.2025734"><ele>298.0</ele><time>2026-03-25T16:56:53.981Z</time></trkpt><trkpt lat="43.8574583" lon="11.2026775"><ele>297.7142857142857</ele><time>2026-03-25T16:56:56.982Z</time></trkpt><trkpt lat="43.857475" lon="11.2027801"><ele>297.4285714285714</ele><time>2026-03-25T16:56:59.988Z</time></trkpt><trkpt lat="43.8574917" lon="11.2028729"><ele>297.1428571428571</ele><time>2026-03-25T16:57:02.977Z</time></trkpt><trkpt lat="43.8574836" lon="11.2029839"><ele>296.85714285714283</ele><time>2026-03-25T16:57:05.972Z</time></trkpt><trkpt lat="43.8574708" lon="11.2030706"><ele>296.57142857142856</ele><time>2026-03-25T16:57:07.978Z</time></trkpt><trkpt lat="43.8574865" lon="11.2031736"><ele>296.2857142857143</ele><time>2026-03-25T16:57:10.983Z</time></trkpt><trkpt lat="43.8574741" lon="11.2032735"><ele>296.0</ele><time>2026-03-25T16:57:22.983Z</time></trkpt><trkpt lat="43.8574614" lon="11.2034105"><ele>295.6666666666667</ele><time>2026-03-25T16:57:26.971Z</time></trkpt><trkpt lat="43.8574486" lon="11.2034981"><ele>295.33333333333337</ele><time>2026-03-25T16:57:32.98Z</time></trkpt><trkpt lat="43.8574435" lon="11.2035982"><ele>295.0</ele><time>2026-03-25T16:57:34.977Z</time></trkpt><trkpt lat="43.8573854" lon="11.2037093"><ele>294.6666666666667</ele><time>2026-03-25T16:57:39.978Z</time></trkpt><trkpt lat="43.8573262" lon="11.2037664"><ele>294.3333333333333</ele><time>2026-03-25T16:57:41.966Z</time></trkpt><trkpt lat="43.8572606" lon="11.2037842"><ele>294.0</ele><time>2026-03-25T16:57:44.97Z</time></trkpt><trkpt lat="43.8572046" lon="11.2038759"><ele>294.0</ele><time>2026-03-25T16:58:04.985Z</time></trkpt><trkpt lat="43.8572681" lon="11.2038764"><ele>294.0</ele><time>2026-03-25T16:58:12.976Z</time></trkpt><trkpt lat="43.8573258" lon="11.2039181"><ele>294.0</ele><time>2026-03-25T16:58:17.976Z</time></trkpt><trkpt lat="43.8573779" lon="11.2039752"><ele>294.0</ele><time>2026-03-25T16:58:22.99Z</time></trkpt><trkpt lat="43.8574362" lon="11.2040476"><ele>294.0</ele><time>2026-03-25T16:58:25.988Z</time></trkpt><trkpt lat="43.8574931" lon="11.2041136"><ele>294.0</ele><time>2026-03-25T16:58:28.982Z</time></trkpt><trkpt lat="43.857561" lon="11.2041673"><ele>294.0</ele><time>2026-03-25T16:58:31.982Z</time></trkpt><trkpt lat="43.857631" lon="11.2042376"><ele>293.6666666666667</ele><time>2026-03-25T16:58:34.988Z</time></trkpt><trkpt lat="43.8576977" lon="11.2042988"><ele>293.3333333333333</ele><time>2026-03-25T16:58:37.978Z</time></trkpt><trkpt lat="43.8577532" lon="11.2043565"><ele>293.0</ele><time>2026-03-25T16:58:40.991Z</time></trkpt><trkpt lat="43.8578154" lon="11.2044226"><ele>292.66666666666663</ele><time>2026-03-25T16:58:44.961Z</time></trkpt><trkpt lat="43.8578512" lon="11.2045122"><ele>292.3333333333333</ele><time>2026-03-25T16:58:49.973Z</time></trkpt><trkpt lat="43.8578838" lon="11.2045998"><ele>292.0</ele><time>2026-03-25T16:58:59.965Z</time></trkpt><trkpt lat="43.857887" lon="11.2047428"><ele>294.8333333333333</ele><time>2026-03-25T16:59:58.986Z</time></trkpt><trkpt lat="43.8579114" lon="11.2048458"><ele>297.66666666666663</ele><time>2026-03-25T17:00:10.982Z</time></trkpt><trkpt lat="43.857958" lon="11.2049267"><ele>300.5</ele><time>2026-03-25T17:00:15.97Z</time></trkpt><trkpt lat="43.858007" lon="11.2050005"><ele>303.3333333333333</ele><time>2026-03-25T17:00:18.983Z</time></trkpt><trkpt lat="43.8580757" lon="11.2050785"><ele>306.1666666666667</ele><time>2026-03-25T17:00:21.982Z</time></trkpt><trkpt lat="43.8581501" lon="11.2051629"><ele>309.0</ele><time>2026-03-25T17:00:24.979Z</time></trkpt><trkpt lat="43.8582126" lon="11.2052193"><ele>309.0</ele><time>2026-03-25T17:00:26.978Z</time></trkpt><trkpt lat="43.8582598" lon="11.2052815"><ele>309.0</ele><time>2026-03-25T17:00:28.987Z</time></trkpt><trkpt lat="43.8583048" lon="11.2053852"><ele>309.0</ele><time>2026-03-25T17:00:31.983Z</time></trkpt><trkpt lat="43.8583576" lon="11.2054738"><ele>309.0</ele><time>2026-03-25T17:00:34.959Z</time></trkpt><trkpt lat="43.8583928" lon="11.2055497"><ele>309.0</ele><time>2026-03-25T17:00:36.977Z</time></trkpt><trkpt lat="43.8584313" lon="11.2056431"><ele>309.0</ele><time>2026-03-25T17:00:38.977Z</time></trkpt><trkpt lat="43.8584844" lon="11.2057868"><ele>308.59999999999997</ele><time>2026-03-25T17:00:40.976Z</time></trkpt><trkpt lat="43.8585293" lon="11.2059479"><ele>308.2</ele><time>2026-03-25T17:00:42.975Z</time></trkpt><trkpt lat="43.8585648" lon="11.2060788"><ele>307.79999999999995</ele><time>2026-03-25T17:00:44.981Z</time></trkpt><trkpt lat="43.8586048" lon="11.2062141"><ele>307.4</ele><time>2026-03-25T17:00:46.98Z</time></trkpt><trkpt lat="43.858631" lon="11.2063276"><ele>307.0</ele><time>2026-03-25T17:00:48.979Z</time></trkpt><trkpt lat="43.8586457" lon="11.2064464"><ele>307.0</ele><time>2026-03-25T17:00:50.991Z</time></trkpt><trkpt lat="43.8586544" lon="11.2065608"><ele>307.0</ele><time>2026-03-25T17:00:52.959Z</time></trkpt><trkpt lat="43.8586792" lon="11.2066775"><ele>307.0</ele><time>2026-03-25T17:00:54.987Z</time></trkpt><trkpt lat="43.8587081" lon="11.206797"><ele>307.0</ele><time>2026-03-25T17:00:56.957Z</time></trkpt><trkpt lat="43.8587367" lon="11.2069263"><ele>307.0</ele><time>2026-03-25T17:00:58.974Z</time></trkpt><trkpt lat="43.8587565" lon="11.2070484"><ele>307.0</ele><time>2026-03-25T17:01:00.981Z</time></trkpt><trkpt lat="43.858781" lon="11.2071762"><ele>307.0</ele><time>2026-03-25T17:01:02.976Z</time></trkpt><trkpt lat="43.8588008" lon="11.2072956"><ele>307.0</ele><time>2026-03-25T17:01:04.975Z</time></trkpt><trkpt lat="43.8588302" lon="11.207415"><ele>307.0</ele><time>2026-03-25T17:01:06.98Z</time></trkpt><trkpt lat="43.8588621" lon="11.2075531"><ele>307.0</ele><time>2026-03-25T17:01:08.982Z</time></trkpt><trkpt lat="43.858884" lon="11.2076826"><ele>307.0</ele><time>2026-03-25T17:01:10.974Z</time></trkpt><trkpt lat="43.8589053" lon="11.2077792"><ele>307.85714285714283</ele><time>2026-03-25T17:01:12.974Z</time></trkpt><trkpt lat="43.8589139" lon="11.2078773"><ele>308.7142857142857</ele><time>2026-03-25T17:01:14.972Z</time></trkpt><trkpt lat="43.8589302" lon="11.2079717"><ele>309.57142857142856</ele><time>2026-03-25T17:01:16.983Z</time></trkpt><trkpt lat="43.8589478" lon="11.2080605"><ele>310.42857142857144</ele><time>2026-03-25T17:01:18.988Z</time></trkpt><trkpt lat="43.8589693" lon="11.2081504"><ele>311.2857142857143</ele><time>2026-03-25T17:01:20.994Z</time></trkpt><trkpt lat="43.8589929" lon="11.2082431"><ele>312.1428571428571</ele><time>2026-03-25T17:01:22.989Z</time></trkpt><trkpt lat="43.8590212" lon="11.20833"><ele>313.0</ele><time>2026-03-25T17:01:24.994Z</time></trkpt><trkpt lat="43.8590365" lon="11.2084606"><ele>314.66666666666663</ele><time>2026-03-25T17:01:27.986Z</time></trkpt><trkpt lat="43.8590483" lon="11.2085791"><ele>316.3333333333333</ele><time>2026-03-25T17:01:30.963Z</time></trkpt><trkpt lat="43.8590595" lon="11.2086771"><ele>318.0</ele><time>2026-03-25T17:01:32.962Z</time></trkpt><trkpt lat="43.8590724" lon="11.2087895"><ele>319.6666666666667</ele><time>2026-03-25T17:01:34.951Z</time></trkpt><trkpt lat="43.859078" lon="11.2088977"><ele>321.33333333333337</ele><time>2026-03-25T17:01:36.969Z</time></trkpt><trkpt lat="43.8590716" lon="11.2090219"><ele>323.0</ele><time>2026-03-25T17:01:38.961Z</time></trkpt><trkpt lat="43.8590675" lon="11.2091345"><ele>323.5</ele><time>2026-03-25T17:01:40.968Z</time></trkpt><trkpt lat="43.8590493" lon="11.2092663"><ele>324.0</ele><time>2026-03-25T17:01:44.016Z</time></trkpt><trkpt lat="43.8590251" lon="11.2093577"><ele>324.5</ele><time>2026-03-25T17:01:45.962Z</time></trkpt><trkpt lat="43.8589946" lon="11.2094463"><ele>325.0</ele><time>2026-03-25T17:01:47.959Z</time></trkpt><trkpt lat="43.8589375" lon="11.2095548"><ele>325.5</ele><time>2026-03-25T17:01:49.968Z</time></trkpt><trkpt lat="43.8588917" lon="11.2096502"><ele>326.0</ele><time>2026-03-25T17:01:52.011Z</time></trkpt><trkpt lat="43.8588585" lon="11.2097441"><ele>325.5714285714286</ele><time>2026-03-25T17:01:54.962Z</time></trkpt><trkpt lat="43.8588654" lon="11.2098312"><ele>325.1428571428571</ele><time>2026-03-25T17:01:57.966Z</time></trkpt><trkpt lat="43.8588669" lon="11.2099493"><ele>324.7142857142857</ele><time>2026-03-25T17:02:00.968Z</time></trkpt><trkpt lat="43.8588613" lon="11.2100368"><ele>324.28571428571433</ele><time>2026-03-25T17:02:02.997Z</time></trkpt><trkpt lat="43.858868" lon="11.2101403"><ele>323.8571428571429</ele><time>2026-03-25T17:02:04.964Z</time></trkpt><trkpt lat="43.8588779" lon="11.2102352"><ele>323.42857142857144</ele><time>2026-03-25T17:02:06.948Z</time></trkpt><trkpt lat="43.8588964" lon="11.2103219"><ele>323.0</ele><time>2026-03-25T17:02:09.962Z</time></trkpt><trkpt lat="43.8589345" lon="11.2104142"><ele>323.0</ele><time>2026-03-25T17:02:13.02Z</time></trkpt><trkpt lat="43.858964" lon="11.2105139"><ele>323.0</ele><time>2026-03-25T17:02:15.966Z</time></trkpt><trkpt lat="43.8589873" lon="11.2106279"><ele>323.0</ele><time>2026-03-25T17:02:19.015Z</time></trkpt><trkpt lat="43.8589968" lon="11.2107309"><ele>323.0</ele><time>2026-03-25T17:02:21.95Z</time></trkpt><trkpt lat="43.859018" lon="11.2108155"><ele>323.0</ele><time>2026-03-25T17:02:24.013Z</time></trkpt><trkpt lat="43.8590018" lon="11.2109221"><ele>323.0</ele><time>2026-03-25T17:02:26.998Z</time></trkpt><trkpt lat="43.8589808" lon="11.2110451"><ele>323.0</ele><time>2026-03-25T17:02:29.963Z</time></trkpt><trkpt lat="43.8589457" lon="11.21117"><ele>323.0</ele><time>2026-03-25T17:02:32.959Z</time></trkpt><trkpt lat="43.8589123" lon="11.2112685"><ele>323.0</ele><time>2026-03-25T17:02:34.96Z</time></trkpt><trkpt lat="43.8588982" lon="11.2113646"><ele>323.0</ele><time>2026-03-25T17:02:36.968Z</time></trkpt><trkpt lat="43.8589185" lon="11.2114586"><ele>323.0</ele><time>2026-03-25T17:02:38.96Z</time></trkpt><trkpt lat="43.8589362" lon="11.2115582"><ele>323.0</ele><time>2026-03-25T17:02:43.031Z</time></trkpt><trkpt lat="43.8589681" lon="11.211642"><ele>323.0</ele><time>2026-03-25T17:02:44.947Z</time></trkpt><trkpt lat="43.8589944" lon="11.2117414"><ele>323.0</ele><time>2026-03-25T17:02:46.99Z</time></trkpt><trkpt lat="43.8590295" lon="11.2118844"><ele>323.0</ele><time>2026-03-25T17:02:48.964Z</time></trkpt><trkpt lat="43.8590527" lon="11.2120395"><ele>323.0</ele><time>2026-03-25T17:02:50.952Z</time></trkpt><trkpt lat="43.8590774" lon="11.2121669"><ele>323.0</ele><time>2026-03-25T17:02:52.961Z</time></trkpt><trkpt lat="43.8591406" lon="11.2122394"><ele>323.0</ele><time>2026-03-25T17:02:56.958Z</time></trkpt><trkpt lat="43.8592049" lon="11.212299"><ele>323.0</ele><time>2026-03-25T17:02:59.962Z</time></trkpt><trkpt lat="43.8592188" lon="11.2124062"><ele>323.0</ele><time>2026-03-25T17:03:02.962Z</time></trkpt><trkpt lat="43.8592607" lon="11.2125118"><ele>323.0</ele><time>2026-03-25T17:03:05.969Z</time></trkpt><trkpt lat="43.859323" lon="11.212596"><ele>323.0</ele><time>2026-03-25T17:03:08.94Z</time></trkpt><trkpt lat="43.85937" lon="11.2126654"><ele>323.0</ele><time>2026-03-25T17:03:10.955Z</time></trkpt><trkpt lat="43.8594183" lon="11.2127551"><ele>323.4</ele><time>2026-03-25T17:03:12.951Z</time></trkpt><trkpt lat="43.8594692" lon="11.2128297"><ele>323.79999999999995</ele><time>2026-03-25T17:03:14.967Z</time></trkpt><trkpt lat="43.8595347" lon="11.2128984"><ele>324.2</ele><time>2026-03-25T17:03:16.975Z</time></trkpt><trkpt lat="43.8596127" lon="11.2130065"><ele>324.6</ele><time>2026-03-25T17:03:18.952Z</time></trkpt><trkpt lat="43.8596942" lon="11.2131097"><ele>325.0</ele><time>2026-03-25T17:03:20.945Z</time></trkpt><trkpt lat="43.8597714" lon="11.213219"><ele>324.8333333333333</ele><time>2026-03-25T17:03:22.96Z</time></trkpt><trkpt lat="43.8598366" lon="11.2133003"><ele>324.66666666666663</ele><time>2026-03-25T17:03:24.957Z</time></trkpt><trkpt lat="43.85991" lon="11.2134032"><ele>324.5</ele><time>2026-03-25T17:03:26.962Z</time></trkpt><trkpt lat="43.8599866" lon="11.2134718"><ele>324.3333333333333</ele><time>2026-03-25T17:03:28.967Z</time></trkpt><trkpt lat="43.8600608" lon="11.2135414"><ele>324.1666666666667</ele><time>2026-03-25T17:03:30.961Z</time></trkpt><trkpt lat="43.8601139" lon="11.2136138"><ele>324.0</ele><time>2026-03-25T17:03:32.94Z</time></trkpt><trkpt lat="43.8601773" lon="11.2136962"><ele>324.0</ele><time>2026-03-25T17:03:34.962Z</time></trkpt><trkpt lat="43.8602561" lon="11.2138099"><ele>324.0</ele><time>2026-03-25T17:03:36.96Z</time></trkpt><trkpt lat="43.8602956" lon="11.2138801"><ele>324.0</ele><time>2026-03-25T17:03:37.953Z</time></trkpt><trkpt lat="43.8603687" lon="11.214001"><ele>324.0</ele><time>2026-03-25T17:03:39.961Z</time></trkpt><trkpt lat="43.8604495" lon="11.214155"><ele>324.0</ele><time>2026-03-25T17:03:41.945Z</time></trkpt><trkpt lat="43.860506" lon="11.2143236"><ele>324.5</ele><time>2026-03-25T17:03:43.961Z</time></trkpt><trkpt lat="43.8605472" lon="11.214425"><ele>325.0</ele><time>2026-03-25T17:03:44.967Z</time></trkpt><trkpt lat="43.8605863" lon="11.214538"><ele>325.5</ele><time>2026-03-25T17:03:45.963Z</time></trkpt><trkpt lat="43.8606181" lon="11.2146601"><ele>326.0</ele><time>2026-03-25T17:03:46.962Z</time></trkpt><trkpt lat="43.86065" lon="11.2147721"><ele>326.5</ele><time>2026-03-25T17:03:47.961Z</time></trkpt><trkpt lat="43.8606795" lon="11.2148749"><ele>327.0</ele><time>2026-03-25T17:03:48.96Z</time></trkpt><trkpt lat="43.8607011" lon="11.2149697"><ele>327.6</ele><time>2026-03-25T17:03:49.962Z</time></trkpt><trkpt lat="43.860744" lon="11.2151215"><ele>328.20000000000005</ele><time>2026-03-25T17:03:51.956Z</time></trkpt><trkpt lat="43.8607846" lon="11.2152739"><ele>328.8</ele><time>2026-03-25T17:03:53.939Z</time></trkpt><trkpt lat="43.8608076" lon="11.2153555"><ele>329.4</ele><time>2026-03-25T17:03:54.96Z</time></trkpt><trkpt lat="43.86083" lon="11.2154468"><ele>330.0</ele><time>2026-03-25T17:03:55.962Z</time></trkpt><trkpt lat="43.8608672" lon="11.2155969"><ele>330.0</ele><time>2026-03-25T17:03:57.966Z</time></trkpt><trkpt lat="43.8609078" lon="11.2157613"><ele>330.0</ele><time>2026-03-25T17:03:59.967Z</time></trkpt><trkpt lat="43.8609364" lon="11.2158552"><ele>330.0</ele><time>2026-03-25T17:04:01.01Z</time></trkpt><trkpt lat="43.8609584" lon="11.2159427"><ele>330.0</ele><time>2026-03-25T17:04:02.019Z</time></trkpt><trkpt lat="43.8610112" lon="11.2160965"><ele>330.0</ele><time>2026-03-25T17:04:03.954Z</time></trkpt><trkpt lat="43.8610654" lon="11.2161991"><ele>330.0</ele><time>2026-03-25T17:04:05.961Z</time></trkpt><trkpt lat="43.8610669" lon="11.2162952"><ele>330.0</ele><time>2026-03-25T17:04:13.965Z</time></trkpt><trkpt lat="43.860989" lon="11.2163303"><ele>330.0</ele><time>2026-03-25T17:04:18.031Z</time></trkpt><trkpt lat="43.8609029" lon="11.2163726"><ele>330.0</ele><time>2026-03-25T17:04:20.962Z</time></trkpt><trkpt lat="43.8608353" lon="11.2164236"><ele>330.0</ele><time>2026-03-25T17:04:23.952Z</time></trkpt><trkpt lat="43.8607862" lon="11.2165077"><ele>330.0</ele><time>2026-03-25T17:06:21.953Z</time></trkpt><trkpt lat="43.8608178" lon="11.2164001"><ele>330.0</ele><time>2026-03-25T17:06:44.953Z</time></trkpt><trkpt lat="43.860907" lon="11.2163781"><ele>330.0</ele><time>2026-03-25T17:06:46.958Z</time></trkpt><trkpt lat="43.8610124" lon="11.2163893"><ele>330.0</ele><time>2026-03-25T17:06:48.959Z</time></trkpt><trkpt lat="43.8611016" lon="11.2163845"><ele>330.0</ele><time>2026-03-25T17:06:51.94Z</time></trkpt><trkpt lat="43.8611784" lon="11.2164075"><ele>330.0</ele><time>2026-03-25T17:06:54.963Z</time></trkpt><trkpt lat="43.8612237" lon="11.2164877"><ele>330.0</ele><time>2026-03-25T17:06:56.954Z</time></trkpt><trkpt lat="43.8612451" lon="11.2166268"><ele>328.2</ele><time>2026-03-25T17:06:58.961Z</time></trkpt><trkpt lat="43.8612593" lon="11.2167921"><ele>326.4</ele><time>2026-03-25T17:07:00.954Z</time></trkpt><trkpt lat="43.8612643" lon="11.2169429"><ele>324.6</ele><time>2026-03-25T17:07:02.961Z</time></trkpt><trkpt lat="43.8612823" lon="11.2170734"><ele>322.8</ele><time>2026-03-25T17:07:04.96Z</time></trkpt><trkpt lat="43.8613009" lon="11.2171806"><ele>321.0</ele><time>2026-03-25T17:07:06.955Z</time></trkpt><trkpt lat="43.8613126" lon="11.2172745"><ele>320.99999999999994</ele><time>2026-03-25T17:07:09.963Z</time></trkpt><trkpt lat="43.8612465" lon="11.2173097"><ele>321.0</ele><time>2026-03-25T17:07:14.95Z</time></trkpt><trkpt lat="43.8611835" lon="11.217276"><ele>321.0</ele><time>2026-03-25T17:07:18.948Z</time></trkpt><trkpt lat="43.8611543" lon="11.2173601"><ele>321.0</ele><time>2026-03-25T17:07:56.963Z</time></trkpt><trkpt lat="43.8610835" lon="11.2173314"><ele>321.0</ele><time>2026-03-25T17:08:01.965Z</time></trkpt><trkpt lat="43.8610762" lon="11.2174501"><ele>320.99999999999994</ele><time>2026-03-25T17:08:51.956Z</time></trkpt><trkpt lat="43.861139" lon="11.2174986"><ele>321.0</ele><time>2026-03-25T17:08:53.961Z</time></trkpt><trkpt lat="43.8612045" lon="11.2176225"><ele>322.20000000000005</ele><time>2026-03-25T17:08:55.969Z</time></trkpt><trkpt lat="43.8612254" lon="11.2177162"><ele>323.40000000000003</ele><time>2026-03-25T17:08:56.964Z</time></trkpt><trkpt lat="43.8612432" lon="11.2178286"><ele>324.6</ele><time>2026-03-25T17:08:57.966Z</time></trkpt><trkpt lat="43.8612532" lon="11.2179575"><ele>325.8</ele><time>2026-03-25T17:08:58.977Z</time></trkpt><trkpt lat="43.8612674" lon="11.2180926"><ele>327.0</ele><time>2026-03-25T17:08:59.964Z</time></trkpt><trkpt lat="43.8612791" lon="11.2182362"><ele>327.8</ele><time>2026-03-25T17:09:00.96Z</time></trkpt><trkpt lat="43.8612871" lon="11.2183923"><ele>328.6</ele><time>2026-03-25T17:09:01.966Z</time></trkpt><trkpt lat="43.8612928" lon="11.2185444"><ele>329.40000000000003</ele><time>2026-03-25T17:09:02.969Z</time></trkpt><trkpt lat="43.861297" lon="11.2186923"><ele>330.20000000000005</ele><time>2026-03-25T17:09:03.951Z</time></trkpt><trkpt lat="43.8613066" lon="11.2188492"><ele>331.0</ele><time>2026-03-25T17:09:04.958Z</time></trkpt><trkpt lat="43.8613231" lon="11.2190118"><ele>332.5</ele><time>2026-03-25T17:09:05.967Z</time></trkpt><trkpt lat="43.8613585" lon="11.2191783"><ele>334.0</ele><time>2026-03-25T17:09:06.964Z</time></trkpt><trkpt lat="43.8614115" lon="11.219338"><ele>335.5</ele><time>2026-03-25T17:09:07.964Z</time></trkpt><trkpt lat="43.8614754" lon="11.219479"><ele>337.0</ele><time>2026-03-25T17:09:09.024Z</time></trkpt><trkpt lat="43.8615544" lon="11.2195976"><ele>337.0</ele><time>2026-03-25T17:09:09.958Z</time></trkpt><trkpt lat="43.8616314" lon="11.2197169"><ele>337.0</ele><time>2026-03-25T17:09:11.036Z</time></trkpt><trkpt lat="43.8617111" lon="11.2198352"><ele>337.0</ele><time>2026-03-25T17:09:11.98Z</time></trkpt><trkpt lat="43.8617864" lon="11.2199612"><ele>337.0</ele><time>2026-03-25T17:09:12.978Z</time></trkpt><trkpt lat="43.8618601" lon="11.2200873"><ele>338.6</ele><time>2026-03-25T17:09:13.968Z</time></trkpt><trkpt lat="43.8619303" lon="11.2202136"><ele>340.20000000000005</ele><time>2026-03-25T17:09:14.974Z</time></trkpt><trkpt lat="43.861993" lon="11.2203358"><ele>341.8</ele><time>2026-03-25T17:09:15.979Z</time></trkpt><trkpt lat="43.8620581" lon="11.2204622"><ele>343.4</ele><time>2026-03-25T17:09:16.98Z</time></trkpt><trkpt lat="43.8621248" lon="11.2205845"><ele>345.0</ele><time>2026-03-25T17:09:18.026Z</time></trkpt><trkpt lat="43.8621934" lon="11.2207103"><ele>347.75</ele><time>2026-03-25T17:09:18.975Z</time></trkpt><trkpt lat="43.8622593" lon="11.2208368"><ele>350.5</ele><time>2026-03-25T17:09:20.026Z</time></trkpt><trkpt lat="43.8623166" lon="11.2209757"><ele>353.25</ele><time>2026-03-25T17:09:20.976Z</time></trkpt><trkpt lat="43.8623667" lon="11.2211182"><ele>356.0</ele><time>2026-03-25T17:09:21.976Z</time></trkpt><trkpt lat="43.8624059" lon="11.2212598"><ele>356.0</ele><time>2026-03-25T17:09:22.978Z</time></trkpt><trkpt lat="43.8624263" lon="11.2214054"><ele>356.0</ele><time>2026-03-25T17:09:23.984Z</time></trkpt><trkpt lat="43.8624493" lon="11.2215501"><ele>356.0</ele><time>2026-03-25T17:09:24.972Z</time></trkpt><trkpt lat="43.8624798" lon="11.2216875"><ele>356.0</ele><time>2026-03-25T17:09:26.03Z</time></trkpt><trkpt lat="43.8625181" lon="11.2218131"><ele>356.0</ele><time>2026-03-25T17:09:26.978Z</time></trkpt><trkpt lat="43.8625609" lon="11.2219242"><ele>357.83333333333337</ele><time>2026-03-25T17:09:27.974Z</time></trkpt><trkpt lat="43.862609" lon="11.2220277"><ele>359.6666666666667</ele><time>2026-03-25T17:09:28.972Z</time></trkpt><trkpt lat="43.8626558" lon="11.2221232"><ele>361.5</ele><time>2026-03-25T17:09:29.983Z</time></trkpt><trkpt lat="43.8627059" lon="11.222221"><ele>363.3333333333333</ele><time>2026-03-25T17:09:30.979Z</time></trkpt><trkpt lat="43.8627543" lon="11.2223231"><ele>365.16666666666663</ele><time>2026-03-25T17:09:31.996Z</time></trkpt><trkpt lat="43.8627986" lon="11.2224212"><ele>367.0</ele><time>2026-03-25T17:09:32.985Z</time></trkpt><trkpt lat="43.8628371" lon="11.222524"><ele>369.16666666666663</ele><time>2026-03-25T17:09:33.986Z</time></trkpt><trkpt lat="43.8628575" lon="11.2226348"><ele>371.3333333333333</ele><time>2026-03-25T17:09:35.032Z</time></trkpt><trkpt lat="43.8628647" lon="11.2227473"><ele>373.5</ele><time>2026-03-25T17:09:36.036Z</time></trkpt><trkpt lat="43.8628738" lon="11.2228595"><ele>375.6666666666667</ele><time>2026-03-25T17:09:36.975Z</time></trkpt><trkpt lat="43.8628861" lon="11.2229658"><ele>377.83333333333337</ele><time>2026-03-25T17:09:37.974Z</time></trkpt><trkpt lat="43.8629012" lon="11.2230736"><ele>380.0</ele><time>2026-03-25T17:09:39Z</time></trkpt><trkpt lat="43.862912" lon="11.2231914"><ele>382.6666666666667</ele><time>2026-03-25T17:09:39.966Z</time></trkpt><trkpt lat="43.8629199" lon="11.2233082"><ele>385.33333333333337</ele><time>2026-03-25T17:09:40.972Z</time></trkpt><trkpt lat="43.862926" lon="11.2234236"><ele>388.0</ele><time>2026-03-25T17:09:41.978Z</time></trkpt><trkpt lat="43.8629329" lon="11.2235423"><ele>390.6666666666667</ele><time>2026-03-25T17:09:43.086Z</time></trkpt><trkpt lat="43.8629409" lon="11.2236569"><ele>393.3333333333333</ele><time>2026-03-25T17:09:44.034Z</time></trkpt><trkpt lat="43.8629567" lon="11.2237756"><ele>396.0</ele><time>2026-03-25T17:09:44.961Z</time></trkpt><trkpt lat="43.8629844" lon="11.2238801"><ele>398.1666666666667</ele><time>2026-03-25T17:09:46.027Z</time></trkpt><trkpt lat="43.8630238" lon="11.2239899"><ele>400.33333333333337</ele><time>2026-03-25T17:09:46.951Z</time></trkpt><trkpt lat="43.8630676" lon="11.2240912"><ele>402.5</ele><time>2026-03-25T17:09:47.973Z</time></trkpt><trkpt lat="43.8631215" lon="11.2241827"><ele>404.6666666666667</ele><time>2026-03-25T17:09:48.968Z</time></trkpt><trkpt lat="43.8631795" lon="11.2242645"><ele>406.83333333333337</ele><time>2026-03-25T17:09:50.034Z</time></trkpt><trkpt lat="43.863239" lon="11.22434"><ele>409.0</ele><time>2026-03-25T17:09:51.032Z</time></trkpt><trkpt lat="43.8633002" lon="11.2244171"><ele>409.0</ele><time>2026-03-25T17:09:51.975Z</time></trkpt><trkpt lat="43.8633672" lon="11.2245008"><ele>409.0</ele><time>2026-03-25T17:09:52.97Z</time></trkpt><trkpt lat="43.8634463" lon="11.2245804"><ele>409.0</ele><time>2026-03-25T17:09:53.983Z</time></trkpt><trkpt lat="43.8635298" lon="11.2246588"><ele>409.0</ele><time>2026-03-25T17:09:55.028Z</time></trkpt><trkpt lat="43.8636132" lon="11.2247382"><ele>409.0</ele><time>2026-03-25T17:09:56.035Z</time></trkpt><trkpt lat="43.8636982" lon="11.2248276"><ele>411.75</ele><time>2026-03-25T17:09:56.978Z</time></trkpt><trkpt lat="43.863796" lon="11.2249175"><ele>414.5</ele><time>2026-03-25T17:09:57.977Z</time></trkpt><trkpt lat="43.8639131" lon="11.2249836"><ele>417.25</ele><time>2026-03-25T17:09:58.99Z</time></trkpt><trkpt lat="43.8640331" lon="11.2250321"><ele>420.0</ele><time>2026-03-25T17:10:00.031Z</time></trkpt><trkpt lat="43.8641579" lon="11.2250662"><ele>424.25</ele><time>2026-03-25T17:10:01.005Z</time></trkpt><trkpt lat="43.8642815" lon="11.2251006"><ele>428.5</ele><time>2026-03-25T17:10:01.967Z</time></trkpt><trkpt lat="43.8643997" lon="11.2251467"><ele>432.75</ele><time>2026-03-25T17:10:02.977Z</time></trkpt><trkpt lat="43.8645114" lon="11.2252009"><ele>437.0</ele><time>2026-03-25T17:10:03.971Z</time></trkpt><trkpt lat="43.8646089" lon="11.2252681"><ele>436.99999999999994</ele><time>2026-03-25T17:10:04.983Z</time></trkpt><trkpt lat="43.8646868" lon="11.2253315"><ele>437.0</ele><time>2026-03-25T17:10:05.961Z</time></trkpt><trkpt lat="43.8647522" lon="11.2254041"><ele>437.0</ele><time>2026-03-25T17:10:06.967Z</time></trkpt><trkpt lat="43.864806" lon="11.2254622"><ele>437.0</ele><time>2026-03-25T17:10:07.971Z</time></trkpt><trkpt lat="43.8648856" lon="11.2255477"><ele>436.99999999999994</ele><time>2026-03-25T17:10:09.964Z</time></trkpt><trkpt lat="43.8649392" lon="11.2254821"><ele>437.0</ele><time>2026-03-25T17:10:12.974Z</time></trkpt><trkpt lat="43.8649537" lon="11.2253839"><ele>436.99999999999994</ele><time>2026-03-25T17:10:15.035Z</time></trkpt><trkpt lat="43.8649655" lon="11.2252977"><ele>437.0</ele><time>2026-03-25T17:10:16.988Z</time></trkpt><trkpt lat="43.8649781" lon="11.2252097"><ele>437.0</ele><time>2026-03-25T17:10:18.961Z</time></trkpt><trkpt lat="43.8650164" lon="11.2251171"><ele>437.0</ele><time>2026-03-25T17:10:20.984Z</time></trkpt><trkpt lat="43.8650834" lon="11.2250405"><ele>436.99999999999994</ele><time>2026-03-25T17:10:22.97Z</time></trkpt><trkpt lat="43.8651504" lon="11.2249643"><ele>437.0</ele><time>2026-03-25T17:10:24.965Z</time></trkpt><trkpt lat="43.8652272" lon="11.224881"><ele>436.57142857142856</ele><time>2026-03-25T17:10:26.967Z</time></trkpt><trkpt lat="43.8652853" lon="11.2248241"><ele>436.14285714285717</ele><time>2026-03-25T17:10:28.99Z</time></trkpt><trkpt lat="43.8653468" lon="11.2247815"><ele>435.7142857142857</ele><time>2026-03-25T17:10:32.974Z</time></trkpt><trkpt lat="43.8654146" lon="11.2248248"><ele>435.2857142857143</ele><time>2026-03-25T17:10:36.969Z</time></trkpt><trkpt lat="43.8653672" lon="11.2249007"><ele>434.8571428571429</ele><time>2026-03-25T17:10:40.973Z</time></trkpt><trkpt lat="43.8653948" lon="11.2250118"><ele>434.42857142857144</ele><time>2026-03-25T17:10:43.975Z</time></trkpt><trkpt lat="43.8654715" lon="11.2250187"><ele>434.0</ele><time>2026-03-25T17:10:46.967Z</time></trkpt><trkpt lat="43.8655132" lon="11.2251053"><ele>437.0</ele><time>2026-03-25T17:10:50.972Z</time></trkpt><trkpt lat="43.8654834" lon="11.2251893"><ele>440.0</ele><time>2026-03-25T17:10:53.984Z</time></trkpt><trkpt lat="43.8654768" lon="11.22529"><ele>443.0</ele><time>2026-03-25T17:10:56.965Z</time></trkpt><trkpt lat="43.8654783" lon="11.2253927"><ele>446.0</ele><time>2026-03-25T17:10:58.97Z</time></trkpt><trkpt lat="43.8654602" lon="11.2254903"><ele>449.0</ele><time>2026-03-25T17:11:00.972Z</time></trkpt><trkpt lat="43.8654391" lon="11.2255893"><ele>452.0</ele><time>2026-03-25T17:11:02.966Z</time></trkpt><trkpt lat="43.8654385" lon="11.2256843"><ele>455.0</ele><time>2026-03-25T17:11:04.971Z</time></trkpt><trkpt lat="43.8654659" lon="11.225803"><ele>457.99999999999994</ele><time>2026-03-25T17:11:07.971Z</time></trkpt><trkpt lat="43.8655024" lon="11.2258749"><ele>461.0</ele><time>2026-03-25T17:11:09.972Z</time></trkpt><trkpt lat="43.8655742" lon="11.225948"><ele>464.0</ele><time>2026-03-25T17:11:12.977Z</time></trkpt><trkpt lat="43.8656415" lon="11.2260045"><ele>467.0</ele><time>2026-03-25T17:11:15.978Z</time></trkpt><trkpt lat="43.865719" lon="11.2259868"><ele>469.99999999999994</ele><time>2026-03-25T17:11:19.036Z</time></trkpt><trkpt lat="43.8657964" lon="11.2259397"><ele>473.0</ele><time>2026-03-25T17:11:22.964Z</time></trkpt><trkpt lat="43.8658717" lon="11.2258861"><ele>477.8571428571429</ele><time>2026-03-25T17:11:26.985Z</time></trkpt><trkpt lat="43.8659479" lon="11.2258941"><ele>482.71428571428567</ele><time>2026-03-25T17:11:28.981Z</time></trkpt><trkpt lat="43.8660159" lon="11.2258927"><ele>487.57142857142856</ele><time>2026-03-25T17:11:30.97Z</time></trkpt><trkpt lat="43.866084" lon="11.2258833"><ele>492.42857142857144</ele><time>2026-03-25T17:11:32.958Z</time></trkpt><trkpt lat="43.8661695" lon="11.2258437"><ele>497.28571428571433</ele><time>2026-03-25T17:11:34.956Z</time></trkpt><trkpt lat="43.8662301" lon="11.2258015"><ele>502.1428571428571</ele><time>2026-03-25T17:11:36.962Z</time></trkpt><trkpt lat="43.8662918" lon="11.2257592"><ele>507.0</ele><time>2026-03-25T17:11:39.032Z</time></trkpt><trkpt lat="43.8663645" lon="11.2257137"><ele>507.0</ele><time>2026-03-25T17:11:41.017Z</time></trkpt><trkpt lat="43.86644" lon="11.2256754"><ele>507.0</ele><time>2026-03-25T17:11:42.942Z</time></trkpt><trkpt lat="43.8665097" lon="11.2256562"><ele>507.0</ele><time>2026-03-25T17:11:44.972Z</time></trkpt><trkpt lat="43.8665842" lon="11.2256537"><ele>507.0</ele><time>2026-03-25T17:11:46.95Z</time></trkpt><trkpt lat="43.8666543" lon="11.2256384"><ele>507.0</ele><time>2026-03-25T17:11:48.965Z</time></trkpt><trkpt lat="43.8667502" lon="11.2256215"><ele>507.0</ele><time>2026-03-25T17:11:51.968Z</time></trkpt><trkpt lat="43.8668338" lon="11.2255941"><ele>506.3333333333333</ele><time>2026-03-25T17:11:54.955Z</time></trkpt><trkpt lat="43.8668979" lon="11.2255909"><ele>505.66666666666663</ele><time>2026-03-25T17:11:56.965Z</time></trkpt><trkpt lat="43.8669716" lon="11.2256046"><ele>505.0</ele><time>2026-03-25T17:11:59.011Z</time></trkpt><trkpt lat="43.867037" lon="11.2256117"><ele>504.3333333333333</ele><time>2026-03-25T17:12:01.014Z</time></trkpt><trkpt lat="43.8671115" lon="11.2256175"><ele>503.66666666666663</ele><time>2026-03-25T17:12:03.953Z</time></trkpt><trkpt lat="43.8671927" lon="11.2256039"><ele>503.0</ele><time>2026-03-25T17:12:06.951Z</time></trkpt><trkpt lat="43.8672871" lon="11.2255901"><ele>502.99999999999994</ele><time>2026-03-25T17:12:09.964Z</time></trkpt><trkpt lat="43.8673652" lon="11.2255583"><ele>503.0</ele><time>2026-03-25T17:12:12.969Z</time></trkpt><trkpt lat="43.8674544" lon="11.2255259"><ele>503.0</ele><time>2026-03-25T17:12:15.964Z</time></trkpt><trkpt lat="43.867548" lon="11.2255092"><ele>503.0</ele><time>2026-03-25T17:12:19.033Z</time></trkpt><trkpt lat="43.867617" lon="11.2255328"><ele>502.99999999999994</ele><time>2026-03-25T17:12:21.031Z</time></trkpt><trkpt lat="43.8676893" lon="11.2255455"><ele>503.0</ele><time>2026-03-25T17:12:22.96Z</time></trkpt><trkpt lat="43.8677613" lon="11.2255465"><ele>505.28571428571433</ele><time>2026-03-25T17:12:24.963Z</time></trkpt><trkpt lat="43.8678254" lon="11.2255372"><ele>507.5714285714286</ele><time>2026-03-25T17:12:28.962Z</time></trkpt><trkpt lat="43.8678891" lon="11.2255459"><ele>509.8571428571429</ele><time>2026-03-25T17:12:32.965Z</time></trkpt><trkpt lat="43.8679511" lon="11.2255652"><ele>512.1428571428571</ele><time>2026-03-25T17:12:35.985Z</time></trkpt><trkpt lat="43.8680182" lon="11.2255829"><ele>514.4285714285713</ele><time>2026-03-25T17:12:40.958Z</time></trkpt><trkpt lat="43.8681025" lon="11.2255984"><ele>516.7142857142857</ele><time>2026-03-25T17:12:55.965Z</time></trkpt><trkpt lat="43.8681713" lon="11.225601"><ele>519.0</ele><time>2026-03-25T17:13:16.98Z</time></trkpt><trkpt lat="43.8682306" lon="11.225652"><ele>524.3333333333334</ele><time>2026-03-25T17:13:20.96Z</time></trkpt><trkpt lat="43.8682988" lon="11.2257034"><ele>529.6666666666666</ele><time>2026-03-25T17:13:24.967Z</time></trkpt><trkpt lat="43.8683728" lon="11.2257549"><ele>535.0</ele><time>2026-03-25T17:13:28.972Z</time></trkpt><trkpt lat="43.8684464" lon="11.2258035"><ele>540.3333333333333</ele><time>2026-03-25T17:13:31.978Z</time></trkpt><trkpt lat="43.8685149" lon="11.2258543"><ele>545.6666666666666</ele><time>2026-03-25T17:13:34.975Z</time></trkpt><trkpt lat="43.8685721" lon="11.225902"><ele>551.0</ele><time>2026-03-25T17:13:37.973Z</time></trkpt><trkpt lat="43.8686522" lon="11.2259245"><ele>551.4</ele><time>2026-03-25T17:13:40.975Z</time></trkpt><trkpt lat="43.8687429" lon="11.2259724"><ele>551.8</ele><time>2026-03-25T17:13:43.972Z</time></trkpt><trkpt lat="43.868797" lon="11.2260268"><ele>552.1999999999999</ele><time>2026-03-25T17:13:45.959Z</time></trkpt><trkpt lat="43.8688537" lon="11.2261007"><ele>552.6</ele><time>2026-03-25T17:13:47.963Z</time></trkpt><trkpt lat="43.8689172" lon="11.2262238"><ele>553.0</ele><time>2026-03-25T17:13:49.964Z</time></trkpt><trkpt lat="43.8689812" lon="11.2263652"><ele>555.6666666666667</ele><time>2026-03-25T17:13:51.969Z</time></trkpt><trkpt lat="43.8690303" lon="11.22649"><ele>558.3333333333334</ele><time>2026-03-25T17:13:53.964Z</time></trkpt><trkpt lat="43.8690398" lon="11.2265864"><ele>561.0</ele><time>2026-03-25T17:13:55.972Z</time></trkpt><trkpt lat="43.8690414" lon="11.2266765"><ele>563.6666666666666</ele><time>2026-03-25T17:13:57.965Z</time></trkpt><trkpt lat="43.8690154" lon="11.2267737"><ele>566.3333333333333</ele><time>2026-03-25T17:13:59.978Z</time></trkpt><trkpt lat="43.8689918" lon="11.226863"><ele>569.0</ele><time>2026-03-25T17:14:01.967Z</time></trkpt><trkpt lat="43.8689632" lon="11.226952"><ele>569.0</ele><time>2026-03-25T17:14:03.965Z</time></trkpt><trkpt lat="43.8689116" lon="11.2270638"><ele>569.0</ele><time>2026-03-25T17:14:06.974Z</time></trkpt><trkpt lat="43.868871" lon="11.2271581"><ele>569.0</ele><time>2026-03-25T17:14:08.977Z</time></trkpt><trkpt lat="43.8688262" lon="11.227241"><ele>569.0</ele><time>2026-03-25T17:14:10.967Z</time></trkpt><trkpt lat="43.8687812" lon="11.2273228"><ele>569.0</ele><time>2026-03-25T17:14:12.961Z</time></trkpt><trkpt lat="43.8687365" lon="11.2274047"><ele>569.0</ele><time>2026-03-25T17:14:14.973Z</time></trkpt><trkpt lat="43.8687049" lon="11.2274989"><ele>571.6666666666666</ele><time>2026-03-25T17:14:16.974Z</time></trkpt><trkpt lat="43.8686766" lon="11.22763"><ele>574.3333333333333</ele><time>2026-03-25T17:14:18.97Z</time></trkpt><trkpt lat="43.868641" lon="11.2277397"><ele>577.0</ele><time>2026-03-25T17:14:20.968Z</time></trkpt><trkpt lat="43.8686128" lon="11.2278284"><ele>579.6666666666666</ele><time>2026-03-25T17:14:22.968Z</time></trkpt><trkpt lat="43.8685909" lon="11.2279168"><ele>582.3333333333334</ele><time>2026-03-25T17:14:24.972Z</time></trkpt><trkpt lat="43.8685823" lon="11.2280095"><ele>585.0</ele><time>2026-03-25T17:14:26.969Z</time></trkpt><trkpt lat="43.8685597" lon="11.2281042"><ele>587.8333333333334</ele><time>2026-03-25T17:14:28.967Z</time></trkpt><trkpt lat="43.8685411" lon="11.2282148"><ele>590.6666666666666</ele><time>2026-03-25T17:14:31.968Z</time></trkpt><trkpt lat="43.8685322" lon="11.228336"><ele>593.5</ele><time>2026-03-25T17:14:34.961Z</time></trkpt><trkpt lat="43.868547" lon="11.2284443"><ele>596.3333333333333</ele><time>2026-03-25T17:14:37.968Z</time></trkpt><trkpt lat="43.8685825" lon="11.2285591"><ele>599.1666666666666</ele><time>2026-03-25T17:14:40.966Z</time></trkpt><trkpt lat="43.8686093" lon="11.2286704"><ele>602.0</ele><time>2026-03-25T17:14:43.978Z</time></trkpt><trkpt lat="43.8686135" lon="11.2287862"><ele>602.0</ele><time>2026-03-25T17:14:46.965Z</time></trkpt><trkpt lat="43.8686074" lon="11.228913"><ele>602.0</ele><time>2026-03-25T17:14:49.967Z</time></trkpt><trkpt lat="43.8686086" lon="11.2290063"><ele>602.0</ele><time>2026-03-25T17:14:51.979Z</time></trkpt><trkpt lat="43.8686278" lon="11.2291051"><ele>602.0</ele><time>2026-03-25T17:14:53.975Z</time></trkpt><trkpt lat="43.8686483" lon="11.2292182"><ele>602.0</ele><time>2026-03-25T17:14:55.972Z</time></trkpt><trkpt lat="43.8686663" lon="11.2293104"><ele>602.0</ele><time>2026-03-25T17:14:57.969Z</time></trkpt><trkpt lat="43.8686893" lon="11.2293974"><ele>606.1666666666666</ele><time>2026-03-25T17:14:59.974Z</time></trkpt><trkpt lat="43.8686909" lon="11.2294969"><ele>610.3333333333333</ele><time>2026-03-25T17:15:01.956Z</time></trkpt><trkpt lat="43.86869" lon="11.2296083"><ele>614.5</ele><time>2026-03-25T17:15:04.973Z</time></trkpt><trkpt lat="43.8687492" lon="11.2296844"><ele>618.6666666666666</ele><time>2026-03-25T17:15:08.968Z</time></trkpt><trkpt lat="43.8688319" lon="11.2297006"><ele>622.8333333333334</ele><time>2026-03-25T17:15:13.972Z</time></trkpt><trkpt lat="43.8688967" lon="11.229687"><ele>627.0</ele><time>2026-03-25T17:15:16.973Z</time></trkpt><trkpt lat="43.868988" lon="11.2296849"><ele>627.0</ele><time>2026-03-25T17:15:19.97Z</time></trkpt><trkpt lat="43.8690508" lon="11.229705"><ele>627.0</ele><time>2026-03-25T17:15:21.979Z</time></trkpt><trkpt lat="43.8691155" lon="11.2297337"><ele>627.0</ele><time>2026-03-25T17:15:23.97Z</time></trkpt><trkpt lat="43.8691858" lon="11.2297609"><ele>627.0</ele><time>2026-03-25T17:15:25.979Z</time></trkpt><trkpt lat="43.8692729" lon="11.2297958"><ele>627.0</ele><time>2026-03-25T17:15:28.967Z</time></trkpt><trkpt lat="43.8693353" lon="11.2298197"><ele>627.0</ele><time>2026-03-25T17:15:30.969Z</time></trkpt><trkpt lat="43.8694143" lon="11.229879"><ele>633.0</ele><time>2026-03-25T17:15:32.972Z</time></trkpt><trkpt lat="43.8695132" lon="11.2299463"><ele>639.0</ele><time>2026-03-25T17:15:34.963Z</time></trkpt><trkpt lat="43.8696147" lon="11.2300232"><ele>645.0</ele><time>2026-03-25T17:15:36.967Z</time></trkpt><trkpt lat="43.8696805" lon="11.2300728"><ele>651.0</ele><time>2026-03-25T17:15:38.97Z</time></trkpt><trkpt lat="43.8697514" lon="11.2301102"><ele>657.0</ele><time>2026-03-25T17:15:40.969Z</time></trkpt><trkpt lat="43.8698397" lon="11.2301462"><ele>657.0</ele><time>2026-03-25T17:15:42.969Z</time></trkpt><trkpt lat="43.8699193" lon="11.2301741"><ele>657.0</ele><time>2026-03-25T17:15:44.974Z</time></trkpt><trkpt lat="43.8700205" lon="11.2302149"><ele>657.0</ele><time>2026-03-25T17:15:46.963Z</time></trkpt><trkpt lat="43.8700961" lon="11.2302516"><ele>657.0</ele><time>2026-03-25T17:15:48.974Z</time></trkpt><trkpt lat="43.8701551" lon="11.2302923"><ele>657.0</ele><time>2026-03-25T17:15:53.97Z</time></trkpt><trkpt lat="43.8702113" lon="11.2303777"><ele>657.0</ele><time>2026-03-25T17:15:57.962Z</time></trkpt><trkpt lat="43.8702769" lon="11.2304384"><ele>657.5</ele><time>2026-03-25T17:16:00.966Z</time></trkpt><trkpt lat="43.8703424" lon="11.2305024"><ele>658.0</ele><time>2026-03-25T17:16:03.977Z</time></trkpt><trkpt lat="43.8704054" lon="11.2305986"><ele>658.5</ele><time>2026-03-25T17:16:06.977Z</time></trkpt><trkpt lat="43.8704673" lon="11.2306562"><ele>659.0</ele><time>2026-03-25T17:16:08.977Z</time></trkpt><trkpt lat="43.870517" lon="11.2307394"><ele>659.5</ele><time>2026-03-25T17:16:11.973Z</time></trkpt><trkpt lat="43.8705541" lon="11.2308141"><ele>660.0</ele><time>2026-03-25T17:16:14.974Z</time></trkpt><trkpt lat="43.8706354" lon="11.2308604"><ele>665.1666666666666</ele><time>2026-03-25T17:16:18.983Z</time></trkpt><trkpt lat="43.8706968" lon="11.2308951"><ele>670.3333333333334</ele><time>2026-03-25T17:16:20.975Z</time></trkpt><trkpt lat="43.8707735" lon="11.2309537"><ele>675.5</ele><time>2026-03-25T17:16:22.974Z</time></trkpt><trkpt lat="43.8708404" lon="11.2309958"><ele>680.6666666666667</ele><time>2026-03-25T17:16:24.974Z</time></trkpt><trkpt lat="43.8709074" lon="11.2310224"><ele>685.8333333333334</ele><time>2026-03-25T17:16:27.973Z</time></trkpt><trkpt lat="43.8709703" lon="11.2309803"><ele>691.0</ele><time>2026-03-25T17:16:29.966Z</time></trkpt><trkpt lat="43.8710455" lon="11.2309298"><ele>693.0</ele><time>2026-03-25T17:16:31.979Z</time></trkpt><trkpt lat="43.8711276" lon="11.2308909"><ele>695.0</ele><time>2026-03-25T17:16:33.968Z</time></trkpt><trkpt lat="43.8711897" lon="11.230862"><ele>697.0</ele><time>2026-03-25T17:16:34.969Z</time></trkpt><trkpt lat="43.8712991" lon="11.2308197"><ele>699.0</ele><time>2026-03-25T17:16:36.972Z</time></trkpt><trkpt lat="43.8714028" lon="11.2308154"><ele>701.0</ele><time>2026-03-25T17:16:38.978Z</time></trkpt><trkpt lat="43.8714945" lon="11.2307893"><ele>701.0</ele><time>2026-03-25T17:16:40.973Z</time></trkpt><trkpt lat="43.8715957" lon="11.2307484"><ele>701.0</ele><time>2026-03-25T17:16:42.98Z</time></trkpt><trkpt lat="43.8717083" lon="11.2307227"><ele>701.0</ele><time>2026-03-25T17:16:44.982Z</time></trkpt><trkpt lat="43.8718012" lon="11.2307124"><ele>701.0</ele><time>2026-03-25T17:16:46.964Z</time></trkpt><trkpt lat="43.8719123" lon="11.2306976"><ele>701.0</ele><time>2026-03-25T17:16:48.976Z</time></trkpt><trkpt lat="43.8720053" lon="11.2307235"><ele>703.5</ele><time>2026-03-25T17:16:50.978Z</time></trkpt><trkpt lat="43.872092" lon="11.2307544"><ele>706.0</ele><time>2026-03-25T17:16:52.974Z</time></trkpt><trkpt lat="43.8721686" lon="11.2307853"><ele>708.5</ele><time>2026-03-25T17:16:54.967Z</time></trkpt><trkpt lat="43.8722464" lon="11.2308083"><ele>711.0</ele><time>2026-03-25T17:16:56.968Z</time></trkpt><trkpt lat="43.8723224" lon="11.230837"><ele>713.5</ele><time>2026-03-25T17:16:58.98Z</time></trkpt><trkpt lat="43.8724108" lon="11.2308444"><ele>716.0</ele><time>2026-03-25T17:17:00.973Z</time></trkpt><trkpt lat="43.8724979" lon="11.2308601"><ele>716.0</ele><time>2026-03-25T17:17:02.977Z</time></trkpt><trkpt lat="43.8725872" lon="11.2308988"><ele>716.0</ele><time>2026-03-25T17:17:04.973Z</time></trkpt><trkpt lat="43.8726826" lon="11.2309303"><ele>716.0</ele><time>2026-03-25T17:17:06.95Z</time></trkpt><trkpt lat="43.8727776" lon="11.2309673"><ele>716.0</ele><time>2026-03-25T17:17:08.981Z</time></trkpt><trkpt lat="43.8728608" lon="11.2310065"><ele>716.0</ele><time>2026-03-25T17:17:10.968Z</time></trkpt><trkpt lat="43.8729507" lon="11.2310312"><ele>715.0</ele><time>2026-03-25T17:17:12.974Z</time></trkpt><trkpt lat="43.8730683" lon="11.2310788"><ele>714.0</ele><time>2026-03-25T17:17:14.976Z</time></trkpt><trkpt lat="43.8731757" lon="11.2311298"><ele>713.0</ele><time>2026-03-25T17:17:16.974Z</time></trkpt><trkpt lat="43.8732673" lon="11.2311675"><ele>712.0</ele><time>2026-03-25T17:17:18.975Z</time></trkpt><trkpt lat="43.8733279" lon="11.2311934"><ele>711.0</ele><time>2026-03-25T17:17:20.966Z</time></trkpt><trkpt lat="43.8734149" lon="11.2312437"><ele>709.8333333333334</ele><time>2026-03-25T17:17:23.96Z</time></trkpt><trkpt lat="43.8734815" lon="11.2312918"><ele>708.6666666666666</ele><time>2026-03-25T17:17:25.97Z</time></trkpt><trkpt lat="43.8735471" lon="11.2313501"><ele>707.5</ele><time>2026-03-25T17:17:27.97Z</time></trkpt><trkpt lat="43.8736267" lon="11.2314127"><ele>706.3333333333333</ele><time>2026-03-25T17:17:29.978Z</time></trkpt><trkpt lat="43.8736954" lon="11.2314715"><ele>705.1666666666666</ele><time>2026-03-25T17:17:31.974Z</time></trkpt><trkpt lat="43.873756" lon="11.2315425"><ele>704.0</ele><time>2026-03-25T17:17:34.969Z</time></trkpt><trkpt lat="43.8738258" lon="11.2315849"><ele>711.0</ele><time>2026-03-25T17:17:36.969Z</time></trkpt><trkpt lat="43.8738934" lon="11.2316121"><ele>718.0</ele><time>2026-03-25T17:17:38.97Z</time></trkpt><trkpt lat="43.8739641" lon="11.2316389"><ele>725.0</ele><time>2026-03-25T17:17:40.961Z</time></trkpt><trkpt lat="43.874049" lon="11.2316788"><ele>732.0</ele><time>2026-03-25T17:17:42.956Z</time></trkpt><trkpt lat="43.8741217" lon="11.2317072"><ele>739.0</ele><time>2026-03-25T17:17:44.978Z</time></trkpt><trkpt lat="43.8741886" lon="11.2317526"><ele>746.0</ele><time>2026-03-25T17:17:47.969Z</time></trkpt><trkpt lat="43.8742493" lon="11.2318098"><ele>746.5714285714286</ele><time>2026-03-25T17:17:50.972Z</time></trkpt><trkpt lat="43.8743262" lon="11.2318145"><ele>747.1428571428571</ele><time>2026-03-25T17:17:53.977Z</time></trkpt><trkpt lat="43.8743981" lon="11.231825"><ele>747.7142857142858</ele><time>2026-03-25T17:17:56.97Z</time></trkpt><trkpt lat="43.8744593" lon="11.2318473"><ele>748.2857142857142</ele><time>2026-03-25T17:17:58.969Z</time></trkpt><trkpt lat="43.8745345" lon="11.23189"><ele>748.8571428571428</ele><time>2026-03-25T17:18:01.964Z</time></trkpt><trkpt lat="43.8745969" lon="11.2319404"><ele>749.4285714285714</ele><time>2026-03-25T17:18:04.965Z</time></trkpt><trkpt lat="43.8746633" lon="11.232002"><ele>750.0</ele><time>2026-03-25T17:18:07.981Z</time></trkpt><trkpt lat="43.8747112" lon="11.2320604"><ele>750.0</ele><time>2026-03-25T17:18:10.971Z</time></trkpt><trkpt lat="43.874773" lon="11.2321089"><ele>750.0</ele><time>2026-03-25T17:18:13.969Z</time></trkpt><trkpt lat="43.8748422" lon="11.2321439"><ele>750.0</ele><time>2026-03-25T17:18:16.966Z</time></trkpt><trkpt lat="43.8748997" lon="11.2321795"><ele>750.0</ele><time>2026-03-25T17:18:18.973Z</time></trkpt><trkpt lat="43.8749649" lon="11.2322199"><ele>750.0</ele><time>2026-03-25T17:18:20.954Z</time></trkpt><trkpt lat="43.8750393" lon="11.2322581"><ele>750.0</ele><time>2026-03-25T17:18:22.971Z</time></trkpt><trkpt lat="43.87512" lon="11.2322972"><ele>750.0</ele><time>2026-03-25T17:18:24.977Z</time></trkpt><trkpt lat="43.8752153" lon="11.2323396"><ele>756.1666666666666</ele><time>2026-03-25T17:18:27.973Z</time></trkpt><trkpt lat="43.8752812" lon="11.2323768"><ele>762.3333333333333</ele><time>2026-03-25T17:18:29.957Z</time></trkpt><trkpt lat="43.8753475" lon="11.2324206"><ele>768.5</ele><time>2026-03-25T17:18:32.959Z</time></trkpt><trkpt lat="43.8754378" lon="11.2324558"><ele>774.6666666666666</ele><time>2026-03-25T17:18:35.973Z</time></trkpt><trkpt lat="43.8754988" lon="11.2324823"><ele>780.8333333333333</ele><time>2026-03-25T17:18:37.969Z</time></trkpt><trkpt lat="43.8755802" lon="11.2325256"><ele>787.0</ele><time>2026-03-25T17:18:40.974Z</time></trkpt><trkpt lat="43.8756562" lon="11.2325687"><ele>786.9999999999999</ele><time>2026-03-25T17:18:43.978Z</time></trkpt><trkpt lat="43.8757488" lon="11.2326185"><ele>787.0</ele><time>2026-03-25T17:18:46.967Z</time></trkpt><trkpt lat="43.8758148" lon="11.2326464"><ele>787.0</ele><time>2026-03-25T17:18:48.968Z</time></trkpt><trkpt lat="43.8758807" lon="11.2326556"><ele>787.0</ele><time>2026-03-25T17:18:50.973Z</time></trkpt><trkpt lat="43.8759471" lon="11.2326694"><ele>786.9999999999999</ele><time>2026-03-25T17:18:52.957Z</time></trkpt><trkpt lat="43.876011" lon="11.2326803"><ele>787.0</ele><time>2026-03-25T17:18:54.97Z</time></trkpt><trkpt lat="43.8760933" lon="11.2327055"><ele>787.0</ele><time>2026-03-25T17:18:57.966Z</time></trkpt><trkpt lat="43.8761573" lon="11.2327468"><ele>787.0</ele><time>2026-03-25T17:18:59.957Z</time></trkpt><trkpt lat="43.8762176" lon="11.2327941"><ele>787.0</ele><time>2026-03-25T17:19:01.974Z</time></trkpt><trkpt lat="43.8761705" lon="11.2328648"><ele>787.0</ele><time>2026-03-25T17:19:08.978Z</time></trkpt><trkpt lat="43.8761054" lon="11.2328498"><ele>787.0</ele><time>2026-03-25T17:23:37.971Z</time></trkpt><trkpt lat="43.8760219" lon="11.2328666"><ele>787.0</ele><time>2026-03-25T17:23:41.96Z</time></trkpt><trkpt lat="43.8759497" lon="11.2328932"><ele>787.0</ele><time>2026-03-25T17:23:43.971Z</time></trkpt><trkpt lat="43.8758455" lon="11.2329258"><ele>787.0</ele><time>2026-03-25T17:23:45.97Z</time></trkpt><trkpt lat="43.8757347" lon="11.2329655"><ele>787.0</ele><time>2026-03-25T17:23:47.976Z</time></trkpt><trkpt lat="43.8756246" lon="11.2329907"><ele>787.0</ele><time>2026-03-25T17:23:49.978Z</time></trkpt><trkpt lat="43.8755103" lon="11.2330189"><ele>787.0</ele><time>2026-03-25T17:23:51.976Z</time></trkpt><trkpt lat="43.8754035" lon="11.2330474"><ele>787.0</ele><time>2026-03-25T17:23:53.991Z</time></trkpt><trkpt lat="43.8753033" lon="11.2330787"><ele>787.0</ele><time>2026-03-25T17:23:55.978Z</time></trkpt><trkpt lat="43.8751865" lon="11.2331137"><ele>787.0</ele><time>2026-03-25T17:23:57.974Z</time></trkpt><trkpt lat="43.8751243" lon="11.233131"><ele>787.0</ele><time>2026-03-25T17:23:58.972Z</time></trkpt><trkpt lat="43.8750012" lon="11.2331391"><ele>787.0</ele><time>2026-03-25T17:24:00.99Z</time></trkpt><trkpt lat="43.8748832" lon="11.2331364"><ele>785.0</ele><time>2026-03-25T17:24:02.992Z</time></trkpt><trkpt lat="43.8747617" lon="11.2331204"><ele>783.0</ele><time>2026-03-25T17:24:04.972Z</time></trkpt><trkpt lat="43.8746482" lon="11.2330948"><ele>781.0</ele><time>2026-03-25T17:24:06.974Z</time></trkpt><trkpt lat="43.8745536" lon="11.2330775"><ele>779.0</ele><time>2026-03-25T17:24:08.974Z</time></trkpt><trkpt lat="43.8744632" lon="11.2330596"><ele>777.0</ele><time>2026-03-25T17:24:11.04Z</time></trkpt><trkpt lat="43.8743723" lon="11.2330482"><ele>777.0</ele><time>2026-03-25T17:24:12.984Z</time></trkpt><trkpt lat="43.8742728" lon="11.2330277"><ele>777.0</ele><time>2026-03-25T17:24:14.981Z</time></trkpt><trkpt lat="43.874173" lon="11.2329909"><ele>777.0</ele><time>2026-03-25T17:24:17.027Z</time></trkpt><trkpt lat="43.8740844" lon="11.2329403"><ele>777.0</ele><time>2026-03-25T17:24:18.979Z</time></trkpt><trkpt lat="43.8739932" lon="11.2328682"><ele>777.0</ele><time>2026-03-25T17:24:20.98Z</time></trkpt><trkpt lat="43.873893" lon="11.2328043"><ele>776.5</ele><time>2026-03-25T17:24:22.974Z</time></trkpt><trkpt lat="43.8737949" lon="11.2327402"><ele>776.0</ele><time>2026-03-25T17:24:24.99Z</time></trkpt><trkpt lat="43.8736945" lon="11.2326683"><ele>775.5</ele><time>2026-03-25T17:24:26.967Z</time></trkpt><trkpt lat="43.873585" lon="11.2325958"><ele>775.0</ele><time>2026-03-25T17:24:28.972Z</time></trkpt><trkpt lat="43.8734733" lon="11.2325276"><ele>775.1666666666666</ele><time>2026-03-25T17:24:30.973Z</time></trkpt><trkpt lat="43.8733473" lon="11.2324861"><ele>775.3333333333333</ele><time>2026-03-25T17:24:33.032Z</time></trkpt><trkpt lat="43.8732803" lon="11.2324754"><ele>775.5</ele><time>2026-03-25T17:24:33.969Z</time></trkpt><trkpt lat="43.8732143" lon="11.2324641"><ele>775.6666666666667</ele><time>2026-03-25T17:24:34.969Z</time></trkpt><trkpt lat="43.8731462" lon="11.2324522"><ele>775.8333333333334</ele><time>2026-03-25T17:24:35.995Z</time></trkpt><trkpt lat="43.8730748" lon="11.2324444"><ele>776.0</ele><time>2026-03-25T17:24:36.964Z</time></trkpt><trkpt lat="43.873011" lon="11.2324351"><ele>776.0000000000001</ele><time>2026-03-25T17:24:37.974Z</time></trkpt><trkpt lat="43.8729383" lon="11.2324335"><ele>776.0</ele><time>2026-03-25T17:24:38.969Z</time></trkpt><trkpt lat="43.8728656" lon="11.232428"><ele>776.0</ele><time>2026-03-25T17:24:40.037Z</time></trkpt><trkpt lat="43.8727934" lon="11.232415"><ele>776.0</ele><time>2026-03-25T17:24:41.027Z</time></trkpt><trkpt lat="43.8727292" lon="11.2324152"><ele>776.0000000000001</ele><time>2026-03-25T17:24:42.031Z</time></trkpt><trkpt lat="43.8726168" lon="11.232421"><ele>776.0</ele><time>2026-03-25T17:24:43.976Z</time></trkpt><trkpt lat="43.8724975" lon="11.2324133"><ele>774.5</ele><time>2026-03-25T17:24:45.971Z</time></trkpt><trkpt lat="43.8723834" lon="11.2324163"><ele>773.0</ele><time>2026-03-25T17:24:47.976Z</time></trkpt><trkpt lat="43.8722719" lon="11.2324395"><ele>771.5</ele><time>2026-03-25T17:24:49.962Z</time></trkpt><trkpt lat="43.8721602" lon="11.2324497"><ele>770.0</ele><time>2026-03-25T17:24:51.984Z</time></trkpt><trkpt lat="43.8720493" lon="11.2324788"><ele>770.0000000000001</ele><time>2026-03-25T17:24:53.966Z</time></trkpt><trkpt lat="43.8719324" lon="11.232527"><ele>770.0</ele><time>2026-03-25T17:24:55.964Z</time></trkpt><trkpt lat="43.8718686" lon="11.2325544"><ele>770.0</ele><time>2026-03-25T17:24:57.032Z</time></trkpt><trkpt lat="43.8718032" lon="11.2325793"><ele>770.0</ele><time>2026-03-25T17:24:58.031Z</time></trkpt><trkpt lat="43.8717419" lon="11.2326034"><ele>770.0000000000001</ele><time>2026-03-25T17:24:58.959Z</time></trkpt><trkpt lat="43.8716305" lon="11.2326399"><ele>770.0</ele><time>2026-03-25T17:25:00.969Z</time></trkpt><trkpt lat="43.8715187" lon="11.2326886"><ele>767.2</ele><time>2026-03-25T17:25:02.966Z</time></trkpt><trkpt lat="43.8714178" lon="11.2327254"><ele>764.4</ele><time>2026-03-25T17:25:04.966Z</time></trkpt><trkpt lat="43.8712955" lon="11.2327536"><ele>761.5999999999999</ele><time>2026-03-25T17:25:07.032Z</time></trkpt><trkpt lat="43.8712311" lon="11.2327637"><ele>758.8</ele><time>2026-03-25T17:25:08.032Z</time></trkpt><trkpt lat="43.8711193" lon="11.232767"><ele>756.0</ele><time>2026-03-25T17:25:09.959Z</time></trkpt><trkpt lat="43.870999" lon="11.2327395"><ele>752.25</ele><time>2026-03-25T17:25:11.961Z</time></trkpt><trkpt lat="43.8708851" lon="11.2327095"><ele>748.5</ele><time>2026-03-25T17:25:13.939Z</time></trkpt><trkpt lat="43.870767" lon="11.2326938"><ele>744.75</ele><time>2026-03-25T17:25:15.965Z</time></trkpt><trkpt lat="43.8706548" lon="11.2326896"><ele>741.0</ele><time>2026-03-25T17:25:17.961Z</time></trkpt><trkpt lat="43.8705356" lon="11.2326935"><ele>741.0</ele><time>2026-03-25T17:25:19.958Z</time></trkpt><trkpt lat="43.8704153" lon="11.232697"><ele>741.0</ele><time>2026-03-25T17:25:21.955Z</time></trkpt><trkpt lat="43.8703129" lon="11.2327363"><ele>741.0</ele><time>2026-03-25T17:25:23.955Z</time></trkpt><trkpt lat="43.8702332" lon="11.2327926"><ele>741.0</ele><time>2026-03-25T17:25:25.962Z</time></trkpt><trkpt lat="43.8701525" lon="11.2328702"><ele>741.0</ele><time>2026-03-25T17:25:28.034Z</time></trkpt><trkpt lat="43.870091" lon="11.2329583"><ele>738.5999999999999</ele><time>2026-03-25T17:25:29.991Z</time></trkpt><trkpt lat="43.870038" lon="11.2330468"><ele>736.2</ele><time>2026-03-25T17:25:31.995Z</time></trkpt><trkpt lat="43.8699946" lon="11.2331771"><ele>733.8</ele><time>2026-03-25T17:25:33.98Z</time></trkpt><trkpt lat="43.8699637" lon="11.2333293"><ele>731.4000000000001</ele><time>2026-03-25T17:25:35.967Z</time></trkpt><trkpt lat="43.8699263" lon="11.2334872"><ele>729.0</ele><time>2026-03-25T17:25:38.045Z</time></trkpt><trkpt lat="43.8698978" lon="11.2336432"><ele>729.0</ele><time>2026-03-25T17:25:39.981Z</time></trkpt><trkpt lat="43.8698843" lon="11.2337976"><ele>729.0</ele><time>2026-03-25T17:25:41.981Z</time></trkpt><trkpt lat="43.869874" lon="11.2339585"><ele>729.0</ele><time>2026-03-25T17:25:43.982Z</time></trkpt><trkpt lat="43.8698719" lon="11.2341037"><ele>729.0</ele><time>2026-03-25T17:25:46.025Z</time></trkpt><trkpt lat="43.8698788" lon="11.2343108"><ele>728.0</ele><time>2026-03-25T17:25:48.972Z</time></trkpt><trkpt lat="43.8698931" lon="11.2344512"><ele>727.0</ele><time>2026-03-25T17:25:50.961Z</time></trkpt><trkpt lat="43.8699032" lon="11.2346066"><ele>726.0</ele><time>2026-03-25T17:25:52.958Z</time></trkpt><trkpt lat="43.8699179" lon="11.2347345"><ele>725.0</ele><time>2026-03-25T17:25:54.967Z</time></trkpt><trkpt lat="43.869947" lon="11.2348732"><ele>724.0</ele><time>2026-03-25T17:25:56.971Z</time></trkpt><trkpt lat="43.8699744" lon="11.2350221"><ele>724.0</ele><time>2026-03-25T17:25:58.966Z</time></trkpt><trkpt lat="43.869997" lon="11.2351053"><ele>724.0</ele><time>2026-03-25T17:25:59.961Z</time></trkpt><trkpt lat="43.8700307" lon="11.235265"><ele>724.0</ele><time>2026-03-25T17:26:01.965Z</time></trkpt><trkpt lat="43.8700626" lon="11.2354237"><ele>724.0</ele><time>2026-03-25T17:26:03.961Z</time></trkpt><trkpt lat="43.8700984" lon="11.2355726"><ele>724.0</ele><time>2026-03-25T17:26:05.958Z</time></trkpt><trkpt lat="43.8701341" lon="11.2357139"><ele>734.6</ele><time>2026-03-25T17:26:07.966Z</time></trkpt><trkpt lat="43.8701471" lon="11.2358665"><ele>745.2</ele><time>2026-03-25T17:26:09.971Z</time></trkpt><trkpt lat="43.8701421" lon="11.2360156"><ele>755.8000000000001</ele><time>2026-03-25T17:26:11.962Z</time></trkpt><trkpt lat="43.8701521" lon="11.236148"><ele>766.4000000000001</ele><time>2026-03-25T17:26:13.963Z</time></trkpt><trkpt lat="43.870161" lon="11.2362923"><ele>777.0</ele><time>2026-03-25T17:26:15.956Z</time></trkpt><trkpt lat="43.870184" lon="11.2364336"><ele>775.1666666666666</ele><time>2026-03-25T17:26:17.936Z</time></trkpt><trkpt lat="43.8702042" lon="11.2365549"><ele>773.3333333333334</ele><time>2026-03-25T17:26:19.95Z</time></trkpt><trkpt lat="43.8702156" lon="11.2366817"><ele>771.5</ele><time>2026-03-25T17:26:21.938Z</time></trkpt><trkpt lat="43.8701993" lon="11.2367836"><ele>769.6666666666667</ele><time>2026-03-25T17:26:23.935Z</time></trkpt><trkpt lat="43.8701334" lon="11.2368448"><ele>767.8333333333334</ele><time>2026-03-25T17:26:25.939Z</time></trkpt><trkpt lat="43.8700743" lon="11.2368879"><ele>766.0</ele><time>2026-03-25T17:26:26.938Z</time></trkpt><trkpt lat="43.8699622" lon="11.2369583"><ele>750.0</ele><time>2026-03-25T17:26:28.974Z</time></trkpt><trkpt lat="43.8698635" lon="11.2370307"><ele>734.0</ele><time>2026-03-25T17:26:30.939Z</time></trkpt><trkpt lat="43.8697659" lon="11.2371091"><ele>718.0</ele><time>2026-03-25T17:26:32.966Z</time></trkpt><trkpt lat="43.8696559" lon="11.2371997"><ele>702.0</ele><time>2026-03-25T17:26:34.983Z</time></trkpt><trkpt lat="43.8695593" lon="11.2372787"><ele>699.0</ele><time>2026-03-25T17:26:36.951Z</time></trkpt><trkpt lat="43.8694629" lon="11.2373574"><ele>696.0</ele><time>2026-03-25T17:26:38.95Z</time></trkpt><trkpt lat="43.8693634" lon="11.2374396"><ele>693.0</ele><time>2026-03-25T17:26:40.977Z</time></trkpt><trkpt lat="43.8692845" lon="11.2375175"><ele>690.0</ele><time>2026-03-25T17:26:42.978Z</time></trkpt><trkpt lat="43.8691812" lon="11.2375965"><ele>687.0</ele><time>2026-03-25T17:26:44.96Z</time></trkpt><trkpt lat="43.8690902" lon="11.2376662"><ele>687.0</ele><time>2026-03-25T17:26:46.962Z</time></trkpt><trkpt lat="43.868999" lon="11.2377509"><ele>687.0</ele><time>2026-03-25T17:26:48.961Z</time></trkpt><trkpt lat="43.8689356" lon="11.2378463"><ele>687.0</ele><time>2026-03-25T17:26:50.943Z</time></trkpt><trkpt lat="43.8688839" lon="11.2379334"><ele>687.0</ele><time>2026-03-25T17:26:52.953Z</time></trkpt><trkpt lat="43.8688452" lon="11.238036"><ele>687.0</ele><time>2026-03-25T17:26:54.952Z</time></trkpt><trkpt lat="43.8688009" lon="11.2381597"><ele>685.8</ele><time>2026-03-25T17:26:56.967Z</time></trkpt><trkpt lat="43.8687571" lon="11.2382286"><ele>684.6</ele><time>2026-03-25T17:26:57.955Z</time></trkpt><trkpt lat="43.8686846" lon="11.2383417"><ele>683.4</ele><time>2026-03-25T17:26:59.967Z</time></trkpt><trkpt lat="43.8685922" lon="11.2384438"><ele>682.1999999999999</ele><time>2026-03-25T17:27:01.965Z</time></trkpt><trkpt lat="43.8685369" lon="11.2384926"><ele>681.0</ele><time>2026-03-25T17:27:02.959Z</time></trkpt><trkpt lat="43.8684328" lon="11.2385813"><ele>681.0</ele><time>2026-03-25T17:27:04.965Z</time></trkpt><trkpt lat="43.8683791" lon="11.238642"><ele>681.0</ele><time>2026-03-25T17:27:05.961Z</time></trkpt><trkpt lat="43.8683207" lon="11.2387033"><ele>681.0</ele><time>2026-03-25T17:27:06.96Z</time></trkpt><trkpt lat="43.8682641" lon="11.238746"><ele>681.0</ele><time>2026-03-25T17:27:07.95Z</time></trkpt><trkpt lat="43.8681536" lon="11.2388237"><ele>681.0</ele><time>2026-03-25T17:27:09.966Z</time></trkpt><trkpt lat="43.8680876" lon="11.238863"><ele>681.0</ele><time>2026-03-25T17:27:10.96Z</time></trkpt><trkpt lat="43.8680112" lon="11.2388994"><ele>681.0000000000001</ele><time>2026-03-25T17:27:11.966Z</time></trkpt><trkpt lat="43.8679283" lon="11.2389476"><ele>681.0</ele><time>2026-03-25T17:27:12.97Z</time></trkpt><trkpt lat="43.867863" lon="11.2389844"><ele>681.0</ele><time>2026-03-25T17:27:13.964Z</time></trkpt><trkpt lat="43.8677954" lon="11.2390201"><ele>681.0</ele><time>2026-03-25T17:27:14.964Z</time></trkpt><trkpt lat="43.8677305" lon="11.2390459"><ele>681.0</ele><time>2026-03-25T17:27:15.975Z</time></trkpt><trkpt lat="43.8676625" lon="11.2390751"><ele>681.0000000000001</ele><time>2026-03-25T17:27:16.969Z</time></trkpt><trkpt lat="43.867596" lon="11.2390956"><ele>681.0</ele><time>2026-03-25T17:27:17.967Z</time></trkpt><trkpt lat="43.8675302" lon="11.2391188"><ele>681.1999999999999</ele><time>2026-03-25T17:27:18.954Z</time></trkpt><trkpt lat="43.8674713" lon="11.239154"><ele>681.4</ele><time>2026-03-25T17:27:19.972Z</time></trkpt><trkpt lat="43.8673638" lon="11.2391941"><ele>681.6</ele><time>2026-03-25T17:27:21.96Z</time></trkpt><trkpt lat="43.8672418" lon="11.2392187"><ele>681.8</ele><time>2026-03-25T17:27:23.963Z</time></trkpt><trkpt lat="43.8671741" lon="11.2392194"><ele>682.0</ele><time>2026-03-25T17:27:24.961Z</time></trkpt><trkpt lat="43.867057" lon="11.2392281"><ele>682.0</ele><time>2026-03-25T17:27:26.966Z</time></trkpt><trkpt lat="43.8669519" lon="11.2392361"><ele>682.0</ele><time>2026-03-25T17:27:28.963Z</time></trkpt><trkpt lat="43.8668467" lon="11.2392481"><ele>682.0</ele><time>2026-03-25T17:27:30.969Z</time></trkpt><trkpt lat="43.8667636" lon="11.2392676"><ele>682.0</ele><time>2026-03-25T17:27:32.964Z</time></trkpt><trkpt lat="43.8666874" lon="11.2392944"><ele>682.0</ele><time>2026-03-25T17:27:34.963Z</time></trkpt><trkpt lat="43.8666074" lon="11.2393193"><ele>681.6</ele><time>2026-03-25T17:27:36.968Z</time></trkpt><trkpt lat="43.8665223" lon="11.2393764"><ele>681.2</ele><time>2026-03-25T17:27:38.962Z</time></trkpt><trkpt lat="43.8664555" lon="11.2394711"><ele>680.8</ele><time>2026-03-25T17:27:40.97Z</time></trkpt><trkpt lat="43.8663976" lon="11.2395686"><ele>680.4</ele><time>2026-03-25T17:27:42.973Z</time></trkpt><trkpt lat="43.8663363" lon="11.2396671"><ele>680.0</ele><time>2026-03-25T17:27:44.961Z</time></trkpt><trkpt lat="43.8662852" lon="11.2397703"><ele>680.4285714285714</ele><time>2026-03-25T17:27:46.953Z</time></trkpt><trkpt lat="43.8662523" lon="11.2398597"><ele>680.8571428571428</ele><time>2026-03-25T17:27:48.959Z</time></trkpt><trkpt lat="43.8662275" lon="11.2399452"><ele>681.2857142857142</ele><time>2026-03-25T17:27:50.962Z</time></trkpt><trkpt lat="43.8662269" lon="11.2400445"><ele>681.7142857142858</ele><time>2026-03-25T17:27:53.963Z</time></trkpt><trkpt lat="43.866267" lon="11.2401208"><ele>682.1428571428571</ele><time>2026-03-25T17:27:58.967Z</time></trkpt><trkpt lat="43.8663103" lon="11.2400419"><ele>682.5714285714286</ele><time>2026-03-25T17:32:17.96Z</time></trkpt><trkpt lat="43.8662212" lon="11.2400753"><ele>683.0</ele><time>2026-03-25T17:32:22.96Z</time></trkpt><trkpt lat="43.8661426" lon="11.2401379"><ele>683.0</ele><time>2026-03-25T17:32:24.967Z</time></trkpt><trkpt lat="43.8660762" lon="11.2402229"><ele>683.0</ele><time>2026-03-25T17:32:26.974Z</time></trkpt><trkpt lat="43.8659897" lon="11.2403066"><ele>683.0</ele><time>2026-03-25T17:32:28.97Z</time></trkpt><trkpt lat="43.8658959" lon="11.2403512"><ele>683.0</ele><time>2026-03-25T17:32:30.944Z</time></trkpt><trkpt lat="43.8657898" lon="11.2403544"><ele>683.0</ele><time>2026-03-25T17:32:32.96Z</time></trkpt><trkpt lat="43.8657261" lon="11.2403606"><ele>680.8</ele><time>2026-03-25T17:32:33.965Z</time></trkpt><trkpt lat="43.8656586" lon="11.2403648"><ele>678.5999999999999</ele><time>2026-03-25T17:32:34.962Z</time></trkpt><trkpt lat="43.8655451" lon="11.2403621"><ele>676.4000000000001</ele><time>2026-03-25T17:32:36.974Z</time></trkpt><trkpt lat="43.8654345" lon="11.2403537"><ele>674.2</ele><time>2026-03-25T17:32:38.965Z</time></trkpt><trkpt lat="43.8653152" lon="11.2403544"><ele>672.0</ele><time>2026-03-25T17:32:40.957Z</time></trkpt><trkpt lat="43.8652486" lon="11.2403575"><ele>672.0</ele><time>2026-03-25T17:32:41.966Z</time></trkpt><trkpt lat="43.8651391" lon="11.2403663"><ele>672.0</ele><time>2026-03-25T17:32:43.957Z</time></trkpt><trkpt lat="43.8650259" lon="11.2403692"><ele>672.0</ele><time>2026-03-25T17:32:45.962Z</time></trkpt><trkpt lat="43.8649619" lon="11.2403658"><ele>672.0</ele><time>2026-03-25T17:32:46.968Z</time></trkpt><trkpt lat="43.8648939" lon="11.2403737"><ele>672.0</ele><time>2026-03-25T17:32:47.968Z</time></trkpt><trkpt lat="43.8648271" lon="11.2403777"><ele>672.0</ele><time>2026-03-25T17:32:48.962Z</time></trkpt><trkpt lat="43.8647095" lon="11.2403781"><ele>669.6</ele><time>2026-03-25T17:32:51.013Z</time></trkpt><trkpt lat="43.8646015" lon="11.2403824"><ele>667.2</ele><time>2026-03-25T17:32:52.974Z</time></trkpt><trkpt lat="43.8644772" lon="11.240372"><ele>664.8</ele><time>2026-03-25T17:32:55.017Z</time></trkpt><trkpt lat="43.8643462" lon="11.2403514"><ele>662.4</ele><time>2026-03-25T17:32:56.971Z</time></trkpt><trkpt lat="43.8642801" lon="11.24033"><ele>660.0</ele><time>2026-03-25T17:32:57.964Z</time></trkpt><trkpt lat="43.8642087" lon="11.2402979"><ele>659.6666666666666</ele><time>2026-03-25T17:32:58.958Z</time></trkpt><trkpt lat="43.8641507" lon="11.2402604"><ele>659.3333333333334</ele><time>2026-03-25T17:32:59.952Z</time></trkpt><trkpt lat="43.8640873" lon="11.240228"><ele>659.0</ele><time>2026-03-25T17:33:00.943Z</time></trkpt><trkpt lat="43.8639682" lon="11.2401907"><ele>658.6666666666667</ele><time>2026-03-25T17:33:02.978Z</time></trkpt><trkpt lat="43.8638431" lon="11.240175"><ele>658.3333333333334</ele><time>2026-03-25T17:33:04.969Z</time></trkpt><trkpt lat="43.863778" lon="11.240178"><ele>658.0</ele><time>2026-03-25T17:33:06.011Z</time></trkpt><trkpt lat="43.8636597" lon="11.2401557"><ele>658.0</ele><time>2026-03-25T17:33:07.967Z</time></trkpt><trkpt lat="43.8635437" lon="11.2401383"><ele>658.0</ele><time>2026-03-25T17:33:10.011Z</time></trkpt><trkpt lat="43.8634286" lon="11.2401422"><ele>658.0</ele><time>2026-03-25T17:33:11.965Z</time></trkpt><trkpt lat="43.8633174" lon="11.2401538"><ele>658.0</ele><time>2026-03-25T17:33:13.958Z</time></trkpt><trkpt lat="43.8632066" lon="11.2401705"><ele>658.0</ele><time>2026-03-25T17:33:15.966Z</time></trkpt><trkpt lat="43.8630835" lon="11.2401769"><ele>658.0</ele><time>2026-03-25T17:33:17.962Z</time></trkpt><trkpt lat="43.862971" lon="11.2401695"><ele>658.0</ele><time>2026-03-25T17:33:19.966Z</time></trkpt><trkpt lat="43.8629052" lon="11.2401452"><ele>658.0</ele><time>2026-03-25T17:33:20.957Z</time></trkpt><trkpt lat="43.8628381" lon="11.2401159"><ele>658.0</ele><time>2026-03-25T17:33:21.953Z</time></trkpt><trkpt lat="43.8627699" lon="11.2400881"><ele>658.0</ele><time>2026-03-25T17:33:22.961Z</time></trkpt><trkpt lat="43.8627013" lon="11.2400685"><ele>658.0</ele><time>2026-03-25T17:33:23.957Z</time></trkpt><trkpt lat="43.8626345" lon="11.2400498"><ele>658.0</ele><time>2026-03-25T17:33:24.963Z</time></trkpt><trkpt lat="43.8625224" lon="11.2400085"><ele>658.0</ele><time>2026-03-25T17:33:26.972Z</time></trkpt><trkpt lat="43.8624126" lon="11.2399896"><ele>658.0</ele><time>2026-03-25T17:33:28.961Z</time></trkpt><trkpt lat="43.8622972" lon="11.2399679"><ele>658.0</ele><time>2026-03-25T17:33:30.957Z</time></trkpt><trkpt lat="43.8621763" lon="11.2399556"><ele>658.8</ele><time>2026-03-25T17:33:32.968Z</time></trkpt><trkpt lat="43.8620582" lon="11.2399436"><ele>659.5999999999999</ele><time>2026-03-25T17:33:35.016Z</time></trkpt><trkpt lat="43.8619882" lon="11.2399408"><ele>660.4000000000001</ele><time>2026-03-25T17:33:36.019Z</time></trkpt><trkpt lat="43.8618619" lon="11.2398908"><ele>661.2</ele><time>2026-03-25T17:33:37.97Z</time></trkpt><trkpt lat="43.8618" lon="11.2398501"><ele>662.0</ele><time>2026-03-25T17:33:38.956Z</time></trkpt><trkpt lat="43.8617419" lon="11.2398027"><ele>659.3333333333333</ele><time>2026-03-25T17:33:39.975Z</time></trkpt><trkpt lat="43.8616842" lon="11.2397605"><ele>656.6666666666666</ele><time>2026-03-25T17:33:40.964Z</time></trkpt><trkpt lat="43.8616273" lon="11.2397175"><ele>654.0</ele><time>2026-03-25T17:33:41.963Z</time></trkpt><trkpt lat="43.8615605" lon="11.2396727"><ele>651.3333333333334</ele><time>2026-03-25T17:33:42.969Z</time></trkpt><trkpt lat="43.8614965" lon="11.2396412"><ele>648.6666666666667</ele><time>2026-03-25T17:33:43.966Z</time></trkpt><trkpt lat="43.8614275" lon="11.2396178"><ele>646.0</ele><time>2026-03-25T17:33:44.965Z</time></trkpt><trkpt lat="43.8612999" lon="11.2395933"><ele>646.0000000000001</ele><time>2026-03-25T17:33:46.978Z</time></trkpt><trkpt lat="43.8612325" lon="11.2395919"><ele>646.0</ele><time>2026-03-25T17:33:47.96Z</time></trkpt><trkpt lat="43.8611571" lon="11.2395869"><ele>646.0</ele><time>2026-03-25T17:33:49.012Z</time></trkpt><trkpt lat="43.8610836" lon="11.2395963"><ele>646.0</ele><time>2026-03-25T17:33:50.02Z</time></trkpt><trkpt lat="43.8610175" lon="11.2395911"><ele>646.0</ele><time>2026-03-25T17:33:50.947Z</time></trkpt><trkpt lat="43.8609534" lon="11.2395944"><ele>646.0000000000001</ele><time>2026-03-25T17:33:51.957Z</time></trkpt><trkpt lat="43.8608854" lon="11.2396071"><ele>646.0</ele><time>2026-03-25T17:33:52.967Z</time></trkpt><trkpt lat="43.8608196" lon="11.2396211"><ele>646.0000000000001</ele><time>2026-03-25T17:33:53.943Z</time></trkpt><trkpt lat="43.8607542" lon="11.2396336"><ele>646.0</ele><time>2026-03-25T17:33:54.957Z</time></trkpt><trkpt lat="43.8606843" lon="11.2396366"><ele>646.0</ele><time>2026-03-25T17:33:55.966Z</time></trkpt><trkpt lat="43.8606173" lon="11.239642"><ele>646.0</ele><time>2026-03-25T17:33:56.966Z</time></trkpt><trkpt lat="43.8605477" lon="11.2396545"><ele>646.0</ele><time>2026-03-25T17:33:57.964Z</time></trkpt><trkpt lat="43.8604771" lon="11.2396671"><ele>646.0000000000001</ele><time>2026-03-25T17:33:58.942Z</time></trkpt><trkpt lat="43.8603926" lon="11.2396753"><ele>646.0</ele><time>2026-03-25T17:33:59.958Z</time></trkpt><trkpt lat="43.86031" lon="11.2396757"><ele>646.0</ele><time>2026-03-25T17:34:00.97Z</time></trkpt><trkpt lat="43.8602362" lon="11.2396729"><ele>646.0</ele><time>2026-03-25T17:34:01.974Z</time></trkpt><trkpt lat="43.8601651" lon="11.2396645"><ele>646.0</ele><time>2026-03-25T17:34:02.965Z</time></trkpt><trkpt lat="43.8600447" lon="11.2395958"><ele>646.0</ele><time>2026-03-25T17:34:04.941Z</time></trkpt><trkpt lat="43.8599473" lon="11.2395353"><ele>646.0</ele><time>2026-03-25T17:34:06.973Z</time></trkpt><trkpt lat="43.8598372" lon="11.2395266"><ele>646.1428571428572</ele><time>2026-03-25T17:34:08.967Z</time></trkpt><trkpt lat="43.8597716" lon="11.2395325"><ele>646.2857142857143</ele><time>2026-03-25T17:34:09.975Z</time></trkpt><trkpt lat="43.8597024" lon="11.2395307"><ele>646.4285714285714</ele><time>2026-03-25T17:34:10.961Z</time></trkpt><trkpt lat="43.8596324" lon="11.2395375"><ele>646.5714285714287</ele><time>2026-03-25T17:34:11.978Z</time></trkpt><trkpt lat="43.8595606" lon="11.2395556"><ele>646.7142857142858</ele><time>2026-03-25T17:34:12.962Z</time></trkpt><trkpt lat="43.8594882" lon="11.2395613"><ele>646.8571428571429</ele><time>2026-03-25T17:34:13.966Z</time></trkpt><trkpt lat="43.8594077" lon="11.2395579"><ele>647.0</ele><time>2026-03-25T17:34:14.949Z</time></trkpt><trkpt lat="43.8593394" lon="11.2395386"><ele>649.0</ele><time>2026-03-25T17:34:15.96Z</time></trkpt><trkpt lat="43.8592708" lon="11.2395384"><ele>651.0</ele><time>2026-03-25T17:34:16.962Z</time></trkpt><trkpt lat="43.8591535" lon="11.2395499"><ele>653.0</ele><time>2026-03-25T17:34:18.971Z</time></trkpt><trkpt lat="43.8590488" lon="11.2395837"><ele>655.0</ele><time>2026-03-25T17:34:20.963Z</time></trkpt><trkpt lat="43.8589408" lon="11.239625"><ele>657.0</ele><time>2026-03-25T17:34:22.963Z</time></trkpt><trkpt lat="43.8588372" lon="11.2396451"><ele>657.0</ele><time>2026-03-25T17:34:24.968Z</time></trkpt><trkpt lat="43.8587177" lon="11.2396468"><ele>657.0</ele><time>2026-03-25T17:34:26.978Z</time></trkpt><trkpt lat="43.8586541" lon="11.2396505"><ele>657.0</ele><time>2026-03-25T17:34:27.978Z</time></trkpt><trkpt lat="43.8585489" lon="11.2396455"><ele>657.0</ele><time>2026-03-25T17:34:29.966Z</time></trkpt><trkpt lat="43.8584428" lon="11.239646"><ele>657.0</ele><time>2026-03-25T17:34:31.972Z</time></trkpt><trkpt lat="43.8583446" lon="11.2396442"><ele>656.2</ele><time>2026-03-25T17:34:33.965Z</time></trkpt><trkpt lat="43.858263" lon="11.2396737"><ele>655.4000000000001</ele><time>2026-03-25T17:34:35.973Z</time></trkpt><trkpt lat="43.8581837" lon="11.2397225"><ele>654.5999999999999</ele><time>2026-03-25T17:34:37.977Z</time></trkpt><trkpt lat="43.8581001" lon="11.2397874"><ele>653.8</ele><time>2026-03-25T17:34:39.971Z</time></trkpt><trkpt lat="43.857984" lon="11.2398513"><ele>653.0</ele><time>2026-03-25T17:34:41.95Z</time></trkpt><trkpt lat="43.8579187" lon="11.2398799"><ele>653.3333333333333</ele><time>2026-03-25T17:34:42.961Z</time></trkpt><trkpt lat="43.8578557" lon="11.2399249"><ele>653.6666666666666</ele><time>2026-03-25T17:34:43.965Z</time></trkpt><trkpt lat="43.857789" lon="11.2399612"><ele>654.0</ele><time>2026-03-25T17:34:44.97Z</time></trkpt><trkpt lat="43.8577286" lon="11.239992"><ele>654.3333333333334</ele><time>2026-03-25T17:34:45.957Z</time></trkpt><trkpt lat="43.8576164" lon="11.2400277"><ele>654.6666666666667</ele><time>2026-03-25T17:34:47.962Z</time></trkpt><trkpt lat="43.8575264" lon="11.2400025"><ele>655.0</ele><time>2026-03-25T17:34:49.976Z</time></trkpt><trkpt lat="43.857423" lon="11.2399514"><ele>655.0</ele><time>2026-03-25T17:34:51.953Z</time></trkpt><trkpt lat="43.8573258" lon="11.2399168"><ele>655.0</ele><time>2026-03-25T17:34:53.961Z</time></trkpt><trkpt lat="43.8572579" lon="11.2398864"><ele>655.0</ele><time>2026-03-25T17:34:55.971Z</time></trkpt><trkpt lat="43.8571859" lon="11.2398527"><ele>655.0</ele><time>2026-03-25T17:34:57.964Z</time></trkpt><trkpt lat="43.8570817" lon="11.2398143"><ele>655.0</ele><time>2026-03-25T17:34:59.971Z</time></trkpt><trkpt lat="43.8569885" lon="11.2398053"><ele>655.0</ele><time>2026-03-25T17:35:01.955Z</time></trkpt><trkpt lat="43.8569031" lon="11.2397975"><ele>654.6</ele><time>2026-03-25T17:35:03.961Z</time></trkpt><trkpt lat="43.8568144" lon="11.2397725"><ele>654.2</ele><time>2026-03-25T17:35:05.956Z</time></trkpt><trkpt lat="43.8566934" lon="11.2397255"><ele>653.8</ele><time>2026-03-25T17:35:07.951Z</time></trkpt><trkpt lat="43.8566293" lon="11.2397002"><ele>653.4</ele><time>2026-03-25T17:35:08.968Z</time></trkpt><trkpt lat="43.8565157" lon="11.2396561"><ele>653.0</ele><time>2026-03-25T17:35:10.964Z</time></trkpt><trkpt lat="43.8564257" lon="11.2396386"><ele>652.8</ele><time>2026-03-25T17:35:12.964Z</time></trkpt><trkpt lat="43.856341" lon="11.2396147"><ele>652.5999999999999</ele><time>2026-03-25T17:35:14.948Z</time></trkpt><trkpt lat="43.8562427" lon="11.2395887"><ele>652.4000000000001</ele><time>2026-03-25T17:35:16.958Z</time></trkpt><trkpt lat="43.8561332" lon="11.2395934"><ele>652.2</ele><time>2026-03-25T17:35:18.962Z</time></trkpt><trkpt lat="43.8560037" lon="11.2395821"><ele>652.0</ele><time>2026-03-25T17:35:20.973Z</time></trkpt><trkpt lat="43.8559342" lon="11.2395744"><ele>650.4285714285714</ele><time>2026-03-25T17:35:21.962Z</time></trkpt><trkpt lat="43.8558672" lon="11.2395528"><ele>648.8571428571428</ele><time>2026-03-25T17:35:22.965Z</time></trkpt><trkpt lat="43.8557926" lon="11.2395228"><ele>647.2857142857142</ele><time>2026-03-25T17:35:23.967Z</time></trkpt><trkpt lat="43.8557279" lon="11.2394969"><ele>645.7142857142858</ele><time>2026-03-25T17:35:24.972Z</time></trkpt><trkpt lat="43.8556675" lon="11.2394528"><ele>644.1428571428571</ele><time>2026-03-25T17:35:25.977Z</time></trkpt><trkpt lat="43.8555996" lon="11.2394014"><ele>642.5714285714286</ele><time>2026-03-25T17:35:26.969Z</time></trkpt><trkpt lat="43.8555356" lon="11.2393529"><ele>641.0</ele><time>2026-03-25T17:35:27.966Z</time></trkpt><trkpt lat="43.8554711" lon="11.2393"><ele>641.0</ele><time>2026-03-25T17:35:28.97Z</time></trkpt><trkpt lat="43.8554163" lon="11.2392478"><ele>641.0</ele><time>2026-03-25T17:35:29.963Z</time></trkpt><trkpt lat="43.8553607" lon="11.2391947"><ele>641.0</ele><time>2026-03-25T17:35:30.993Z</time></trkpt><trkpt lat="43.8553008" lon="11.2391457"><ele>641.0</ele><time>2026-03-25T17:35:31.956Z</time></trkpt><trkpt lat="43.8552333" lon="11.2390948"><ele>641.0</ele><time>2026-03-25T17:35:32.947Z</time></trkpt><trkpt lat="43.8551709" lon="11.2390497"><ele>641.0</ele><time>2026-03-25T17:35:33.963Z</time></trkpt><trkpt lat="43.8551145" lon="11.2390055"><ele>641.0</ele><time>2026-03-25T17:35:34.944Z</time></trkpt><trkpt lat="43.8550561" lon="11.2389649"><ele>637.1999999999999</ele><time>2026-03-25T17:35:35.961Z</time></trkpt><trkpt lat="43.8549395" lon="11.2389028"><ele>633.4</ele><time>2026-03-25T17:35:37.962Z</time></trkpt><trkpt lat="43.8548487" lon="11.2388266"><ele>629.6</ele><time>2026-03-25T17:35:39.951Z</time></trkpt><trkpt lat="43.8547646" lon="11.2387727"><ele>625.8</ele><time>2026-03-25T17:35:41.96Z</time></trkpt><trkpt lat="43.8546573" lon="11.2386911"><ele>622.0</ele><time>2026-03-25T17:35:43.964Z</time></trkpt><trkpt lat="43.8545939" lon="11.238648"><ele>622.0</ele><time>2026-03-25T17:35:44.96Z</time></trkpt><trkpt lat="43.8545301" lon="11.2385957"><ele>622.0</ele><time>2026-03-25T17:35:45.964Z</time></trkpt><trkpt lat="43.8544613" lon="11.2385378"><ele>622.0</ele><time>2026-03-25T17:35:46.952Z</time></trkpt><trkpt lat="43.8543952" lon="11.2384813"><ele>622.0</ele><time>2026-03-25T17:35:47.963Z</time></trkpt><trkpt lat="43.8543279" lon="11.2384283"><ele>622.0</ele><time>2026-03-25T17:35:48.97Z</time></trkpt><trkpt lat="43.8542568" lon="11.2383839"><ele>622.0</ele><time>2026-03-25T17:35:49.964Z</time></trkpt><trkpt lat="43.8541883" lon="11.2383351"><ele>622.7142857142857</ele><time>2026-03-25T17:35:51.016Z</time></trkpt><trkpt lat="43.8541284" lon="11.2382848"><ele>623.4285714285714</ele><time>2026-03-25T17:35:51.965Z</time></trkpt><trkpt lat="43.8540607" lon="11.2382414"><ele>624.1428571428571</ele><time>2026-03-25T17:35:52.97Z</time></trkpt><trkpt lat="43.8539878" lon="11.2381978"><ele>624.8571428571429</ele><time>2026-03-25T17:35:53.974Z</time></trkpt><trkpt lat="43.8539126" lon="11.2381681"><ele>625.5714285714286</ele><time>2026-03-25T17:35:54.987Z</time></trkpt><trkpt lat="43.8538438" lon="11.2381524"><ele>626.2857142857143</ele><time>2026-03-25T17:35:55.966Z</time></trkpt><trkpt lat="43.8537818" lon="11.2381332"><ele>627.0</ele><time>2026-03-25T17:35:56.965Z</time></trkpt><trkpt lat="43.8537075" lon="11.2381192"><ele>627.0</ele><time>2026-03-25T17:35:57.967Z</time></trkpt><trkpt lat="43.8536305" lon="11.238101"><ele>627.0</ele><time>2026-03-25T17:35:58.975Z</time></trkpt><trkpt lat="43.8535613" lon="11.2380835"><ele>627.0</ele><time>2026-03-25T17:35:59.967Z</time></trkpt><trkpt lat="43.8534415" lon="11.2380987"><ele>627.0</ele><time>2026-03-25T17:36:01.978Z</time></trkpt><trkpt lat="43.8533435" lon="11.2381344"><ele>627.0</ele><time>2026-03-25T17:36:04.012Z</time></trkpt><trkpt lat="43.8532302" lon="11.2381832"><ele>627.0</ele><time>2026-03-25T17:36:05.951Z</time></trkpt><trkpt lat="43.8531688" lon="11.2382152"><ele>627.0</ele><time>2026-03-25T17:36:06.968Z</time></trkpt><trkpt lat="43.8530649" lon="11.238287"><ele>627.0</ele><time>2026-03-25T17:36:08.976Z</time></trkpt><trkpt lat="43.8529897" lon="11.2383173"><ele>627.0</ele><time>2026-03-25T17:36:09.968Z</time></trkpt><trkpt lat="43.8529224" lon="11.2383522"><ele>627.0</ele><time>2026-03-25T17:36:10.965Z</time></trkpt><trkpt lat="43.8528617" lon="11.2383859"><ele>627.0</ele><time>2026-03-25T17:36:11.967Z</time></trkpt><trkpt lat="43.8527986" lon="11.2384159"><ele>627.0</ele><time>2026-03-25T17:36:12.963Z</time></trkpt><trkpt lat="43.8527329" lon="11.2384353"><ele>627.0</ele><time>2026-03-25T17:36:13.959Z</time></trkpt><trkpt lat="43.8526231" lon="11.2384765"><ele>627.0</ele><time>2026-03-25T17:36:15.959Z</time></trkpt><trkpt lat="43.8524986" lon="11.2385222"><ele>627.0</ele><time>2026-03-25T17:36:17.948Z</time></trkpt><trkpt lat="43.8524199" lon="11.2385532"><ele>627.0</ele><time>2026-03-25T17:36:20.014Z</time></trkpt><trkpt lat="43.8523481" lon="11.2385657"><ele>623.8000000000001</ele><time>2026-03-25T17:36:21.972Z</time></trkpt><trkpt lat="43.8522818" lon="11.2386034"><ele>620.6</ele><time>2026-03-25T17:36:23.967Z</time></trkpt><trkpt lat="43.8521746" lon="11.2386339"><ele>617.4000000000001</ele><time>2026-03-25T17:36:25.965Z</time></trkpt><trkpt lat="43.8520807" lon="11.2386565"><ele>614.2</ele><time>2026-03-25T17:36:27.966Z</time></trkpt><trkpt lat="43.8519763" lon="11.2386634"><ele>611.0</ele><time>2026-03-25T17:36:30.04Z</time></trkpt><trkpt lat="43.8518825" lon="11.2386733"><ele>611.0</ele><time>2026-03-25T17:36:31.965Z</time></trkpt><trkpt lat="43.8517908" lon="11.2386877"><ele>611.0</ele><time>2026-03-25T17:36:33.966Z</time></trkpt><trkpt lat="43.8516839" lon="11.2386937"><ele>611.0</ele><time>2026-03-25T17:36:35.966Z</time></trkpt><trkpt lat="43.8515763" lon="11.2386597"><ele>611.0</ele><time>2026-03-25T17:36:37.962Z</time></trkpt><trkpt lat="43.8515204" lon="11.2386165"><ele>611.0</ele><time>2026-03-25T17:36:38.975Z</time></trkpt><trkpt lat="43.8514626" lon="11.2385799"><ele>611.0</ele><time>2026-03-25T17:36:39.953Z</time></trkpt><trkpt lat="43.8513424" lon="11.2385263"><ele>607.4</ele><time>2026-03-25T17:36:41.96Z</time></trkpt><trkpt lat="43.851245" lon="11.238486"><ele>603.8</ele><time>2026-03-25T17:36:43.967Z</time></trkpt><trkpt lat="43.8511666" lon="11.2384393"><ele>600.1999999999999</ele><time>2026-03-25T17:36:45.964Z</time></trkpt><trkpt lat="43.851207" lon="11.2383325"><ele>596.6</ele><time>2026-03-25T17:38:42.951Z</time></trkpt><trkpt lat="43.8511972" lon="11.2382325"><ele>593.0</ele><time>2026-03-25T17:38:44.97Z</time></trkpt><trkpt lat="43.8511341" lon="11.2381057"><ele>592.3333333333333</ele><time>2026-03-25T17:38:46.958Z</time></trkpt><trkpt lat="43.8510803" lon="11.2379991"><ele>591.6666666666666</ele><time>2026-03-25T17:38:48.973Z</time></trkpt><trkpt lat="43.8510356" lon="11.237914"><ele>591.0</ele><time>2026-03-25T17:38:50.971Z</time></trkpt><trkpt lat="43.850997" lon="11.2378379"><ele>590.3333333333334</ele><time>2026-03-25T17:38:53.971Z</time></trkpt><trkpt lat="43.8509526" lon="11.2377627"><ele>589.6666666666667</ele><time>2026-03-25T17:38:55.961Z</time></trkpt><trkpt lat="43.8508926" lon="11.2376909"><ele>589.0</ele><time>2026-03-25T17:38:57.973Z</time></trkpt><trkpt lat="43.8508064" lon="11.2376164"><ele>589.0</ele><time>2026-03-25T17:38:59.967Z</time></trkpt><trkpt lat="43.8507456" lon="11.237539"><ele>589.0</ele><time>2026-03-25T17:39:01.973Z</time></trkpt><trkpt lat="43.8506726" lon="11.2374636"><ele>589.0</ele><time>2026-03-25T17:39:04.952Z</time></trkpt><trkpt lat="43.8506422" lon="11.2373861"><ele>589.0</ele><time>2026-03-25T17:39:06.966Z</time></trkpt><trkpt lat="43.8506215" lon="11.237276"><ele>589.0</ele><time>2026-03-25T17:39:08.968Z</time></trkpt><trkpt lat="43.8505829" lon="11.237198"><ele>589.0</ele><time>2026-03-25T17:39:10.969Z</time></trkpt><trkpt lat="43.8505376" lon="11.2371245"><ele>589.1666666666667</ele><time>2026-03-25T17:39:12.952Z</time></trkpt><trkpt lat="43.8504717" lon="11.2370476"><ele>589.3333333333334</ele><time>2026-03-25T17:39:15.974Z</time></trkpt><trkpt lat="43.8504304" lon="11.2369434"><ele>589.5</ele><time>2026-03-25T17:39:18.955Z</time></trkpt><trkpt lat="43.8503683" lon="11.2368936"><ele>589.6666666666666</ele><time>2026-03-25T17:39:22.97Z</time></trkpt><trkpt lat="43.8504293" lon="11.2369361"><ele>589.8333333333333</ele><time>2026-03-25T17:39:32.964Z</time></trkpt><trkpt lat="43.8504884" lon="11.2370332"><ele>590.0</ele><time>2026-03-25T17:39:35.96Z</time></trkpt><trkpt lat="43.8505465" lon="11.2370795"><ele>590.0</ele><time>2026-03-25T17:39:37.966Z</time></trkpt><trkpt lat="43.8506011" lon="11.2371524"><ele>590.0</ele><time>2026-03-25T17:39:39.97Z</time></trkpt><trkpt lat="43.850611" lon="11.237255"><ele>590.0</ele><time>2026-03-25T17:39:41.963Z</time></trkpt><trkpt lat="43.8506405" lon="11.2373691"><ele>590.0</ele><time>2026-03-25T17:39:43.958Z</time></trkpt><trkpt lat="43.8507008" lon="11.2374396"><ele>590.0</ele><time>2026-03-25T17:39:45.96Z</time></trkpt><trkpt lat="43.8507677" lon="11.237509"><ele>590.0</ele><time>2026-03-25T17:39:47.964Z</time></trkpt><trkpt lat="43.8508313" lon="11.2375598"><ele>589.8571428571429</ele><time>2026-03-25T17:39:49.964Z</time></trkpt><trkpt lat="43.8508915" lon="11.2376184"><ele>589.7142857142858</ele><time>2026-03-25T17:39:51.974Z</time></trkpt><trkpt lat="43.8509423" lon="11.2376737"><ele>589.5714285714286</ele><time>2026-03-25T17:39:53.968Z</time></trkpt><trkpt lat="43.8509868" lon="11.2377386"><ele>589.4285714285714</ele><time>2026-03-25T17:39:55.968Z</time></trkpt><trkpt lat="43.8510111" lon="11.2378332"><ele>589.2857142857142</ele><time>2026-03-25T17:39:58.952Z</time></trkpt><trkpt lat="43.8510396" lon="11.237914"><ele>589.1428571428571</ele><time>2026-03-25T17:40:04.964Z</time></trkpt><trkpt lat="43.8510989" lon="11.2379813"><ele>589.0</ele><time>2026-03-25T17:40:09.969Z</time></trkpt><trkpt lat="43.8511329" lon="11.2380777"><ele>589.8</ele><time>2026-03-25T17:40:11.967Z</time></trkpt><trkpt lat="43.8511728" lon="11.238209"><ele>590.5999999999999</ele><time>2026-03-25T17:40:14.029Z</time></trkpt><trkpt lat="43.8511815" lon="11.238337"><ele>591.4</ele><time>2026-03-25T17:40:15.957Z</time></trkpt><trkpt lat="43.8511534" lon="11.238441"><ele>592.1999999999999</ele><time>2026-03-25T17:40:18.963Z</time></trkpt><trkpt lat="43.8511009" lon="11.2383381"><ele>593.0</ele><time>2026-03-25T17:40:22.964Z</time></trkpt><trkpt lat="43.8510474" lon="11.2381932"><ele>592.3333333333333</ele><time>2026-03-25T17:40:24.965Z</time></trkpt><trkpt lat="43.8510102" lon="11.2381187"><ele>591.6666666666666</ele><time>2026-03-25T17:40:25.959Z</time></trkpt><trkpt lat="43.8509677" lon="11.2380507"><ele>591.0</ele><time>2026-03-25T17:40:26.967Z</time></trkpt><trkpt lat="43.8509069" lon="11.2379839"><ele>590.3333333333334</ele><time>2026-03-25T17:40:28.012Z</time></trkpt><trkpt lat="43.850842" lon="11.2379199"><ele>589.6666666666667</ele><time>2026-03-25T17:40:29.027Z</time></trkpt><trkpt lat="43.8507728" lon="11.2378638"><ele>589.0</ele><time>2026-03-25T17:40:30.025Z</time></trkpt><trkpt lat="43.8507024" lon="11.2378039"><ele>589.0</ele><time>2026-03-25T17:40:31.021Z</time></trkpt><trkpt lat="43.8506275" lon="11.2377444"><ele>589.0</ele><time>2026-03-25T17:40:31.97Z</time></trkpt><trkpt lat="43.8505564" lon="11.2376856"><ele>589.0</ele><time>2026-03-25T17:40:32.983Z</time></trkpt><trkpt lat="43.8504763" lon="11.2376352"><ele>589.0</ele><time>2026-03-25T17:40:33.986Z</time></trkpt><trkpt lat="43.8503966" lon="11.2375766"><ele>589.0</ele><time>2026-03-25T17:40:35.051Z</time></trkpt><trkpt lat="43.8503172" lon="11.2375144"><ele>589.0</ele><time>2026-03-25T17:40:36.034Z</time></trkpt><trkpt lat="43.8502356" lon="11.2374499"><ele>589.0</ele><time>2026-03-25T17:40:36.969Z</time></trkpt><trkpt lat="43.8501635" lon="11.2373784"><ele>589.0</ele><time>2026-03-25T17:40:37.963Z</time></trkpt><trkpt lat="43.8500942" lon="11.2372915"><ele>589.0</ele><time>2026-03-25T17:40:38.975Z</time></trkpt><trkpt lat="43.8500272" lon="11.237207"><ele>589.0</ele><time>2026-03-25T17:40:40.017Z</time></trkpt><trkpt lat="43.8499663" lon="11.2371043"><ele>589.0</ele><time>2026-03-25T17:40:41.015Z</time></trkpt><trkpt lat="43.8499163" lon="11.2369896"><ele>589.8</ele><time>2026-03-25T17:40:41.954Z</time></trkpt><trkpt lat="43.8498678" lon="11.2368636"><ele>590.5999999999999</ele><time>2026-03-25T17:40:42.95Z</time></trkpt><trkpt lat="43.8498195" lon="11.2367434"><ele>591.4</ele><time>2026-03-25T17:40:43.986Z</time></trkpt><trkpt lat="43.8497663" lon="11.2366155"><ele>592.1999999999999</ele><time>2026-03-25T17:40:45.044Z</time></trkpt><trkpt lat="43.8497135" lon="11.2364947"><ele>593.0</ele><time>2026-03-25T17:40:46.022Z</time></trkpt><trkpt lat="43.8496521" lon="11.2363658"><ele>594.75</ele><time>2026-03-25T17:40:46.96Z</time></trkpt><trkpt lat="43.8495979" lon="11.2362356"><ele>596.5</ele><time>2026-03-25T17:40:47.968Z</time></trkpt><trkpt lat="43.849542" lon="11.2360909"><ele>598.25</ele><time>2026-03-25T17:40:48.974Z</time></trkpt><trkpt lat="43.8494816" lon="11.2359514"><ele>600.0</ele><time>2026-03-25T17:40:50.004Z</time></trkpt><trkpt lat="43.8494306" lon="11.2358135"><ele>600.0</ele><time>2026-03-25T17:40:51.012Z</time></trkpt><trkpt lat="43.8493803" lon="11.2356741"><ele>600.0</ele><time>2026-03-25T17:40:51.956Z</time></trkpt><trkpt lat="43.8493252" lon="11.2355369"><ele>600.0</ele><time>2026-03-25T17:40:53.033Z</time></trkpt><trkpt lat="43.8492655" lon="11.2354001"><ele>600.0</ele><time>2026-03-25T17:40:54.031Z</time></trkpt><trkpt lat="43.8492089" lon="11.2352719"><ele>600.0</ele><time>2026-03-25T17:40:54.975Z</time></trkpt><trkpt lat="43.8491553" lon="11.2351427"><ele>599.6</ele><time>2026-03-25T17:40:55.959Z</time></trkpt><trkpt lat="43.8491012" lon="11.2350051"><ele>599.2</ele><time>2026-03-25T17:40:56.976Z</time></trkpt><trkpt lat="43.8490478" lon="11.2348733"><ele>598.8</ele><time>2026-03-25T17:40:57.975Z</time></trkpt><trkpt lat="43.8489958" lon="11.2347414"><ele>598.4</ele><time>2026-03-25T17:40:58.973Z</time></trkpt><trkpt lat="43.8489408" lon="11.2346102"><ele>598.0</ele><time>2026-03-25T17:40:59.969Z</time></trkpt><trkpt lat="43.848886" lon="11.2344771"><ele>598.0</ele><time>2026-03-25T17:41:00.969Z</time></trkpt><trkpt lat="43.8488335" lon="11.2343394"><ele>598.0</ele><time>2026-03-25T17:41:01.963Z</time></trkpt><trkpt lat="43.8487814" lon="11.2342074"><ele>598.0</ele><time>2026-03-25T17:41:02.972Z</time></trkpt><trkpt lat="43.8487265" lon="11.2340704"><ele>598.0</ele><time>2026-03-25T17:41:03.962Z</time></trkpt><trkpt lat="43.8486658" lon="11.2339378"><ele>598.0</ele><time>2026-03-25T17:41:04.953Z</time></trkpt><trkpt lat="43.848602" lon="11.2338037"><ele>599.1999999999999</ele><time>2026-03-25T17:41:05.977Z</time></trkpt><trkpt lat="43.8485386" lon="11.2336723"><ele>600.4</ele><time>2026-03-25T17:41:06.972Z</time></trkpt><trkpt lat="43.8484771" lon="11.2335422"><ele>601.5999999999999</ele><time>2026-03-25T17:41:07.962Z</time></trkpt><trkpt lat="43.8484198" lon="11.2334189"><ele>602.8</ele><time>2026-03-25T17:41:09.054Z</time></trkpt><trkpt lat="43.84836" lon="11.2332957"><ele>604.0</ele><time>2026-03-25T17:41:10.03Z</time></trkpt><trkpt lat="43.8483032" lon="11.2331705"><ele>601.0</ele><time>2026-03-25T17:41:11.033Z</time></trkpt><trkpt lat="43.8482428" lon="11.2330427"><ele>598.0</ele><time>2026-03-25T17:41:11.969Z</time></trkpt><trkpt lat="43.8481739" lon="11.2329042"><ele>595.0</ele><time>2026-03-25T17:41:13.034Z</time></trkpt><trkpt lat="43.8481046" lon="11.2327688"><ele>592.0</ele><time>2026-03-25T17:41:14.03Z</time></trkpt><trkpt lat="43.8480428" lon="11.2326325"><ele>592.0</ele><time>2026-03-25T17:41:14.957Z</time></trkpt><trkpt lat="43.847981" lon="11.2324883"><ele>592.0</ele><time>2026-03-25T17:41:16.034Z</time></trkpt><trkpt lat="43.8479307" lon="11.232345"><ele>592.0</ele><time>2026-03-25T17:41:16.965Z</time></trkpt><trkpt lat="43.8478987" lon="11.2321875"><ele>592.0</ele><time>2026-03-25T17:41:17.97Z</time></trkpt><trkpt lat="43.8478831" lon="11.2320228"><ele>591.4</ele><time>2026-03-25T17:41:18.986Z</time></trkpt><trkpt lat="43.847887" lon="11.231866"><ele>590.8000000000001</ele><time>2026-03-25T17:41:20.028Z</time></trkpt><trkpt lat="43.8479172" lon="11.2317155"><ele>590.2</ele><time>2026-03-25T17:41:20.978Z</time></trkpt><trkpt lat="43.8479693" lon="11.231582"><ele>589.6</ele><time>2026-03-25T17:41:21.979Z</time></trkpt><trkpt lat="43.8480351" lon="11.2314674"><ele>589.0</ele><time>2026-03-25T17:41:22.969Z</time></trkpt><trkpt lat="43.8481267" lon="11.2313704"><ele>585.25</ele><time>2026-03-25T17:41:24.045Z</time></trkpt><trkpt lat="43.8482229" lon="11.231284"><ele>581.5</ele><time>2026-03-25T17:41:25.016Z</time></trkpt><trkpt lat="43.8483297" lon="11.2312096"><ele>577.75</ele><time>2026-03-25T17:41:25.971Z</time></trkpt><trkpt lat="43.8484499" lon="11.231166"><ele>574.0</ele><time>2026-03-25T17:41:26.979Z</time></trkpt><trkpt lat="43.8485744" lon="11.2311576"><ele>573.75</ele><time>2026-03-25T17:41:27.96Z</time></trkpt><trkpt lat="43.8486999" lon="11.2311539"><ele>573.5</ele><time>2026-03-25T17:41:28.988Z</time></trkpt><trkpt lat="43.8488254" lon="11.231153"><ele>573.25</ele><time>2026-03-25T17:41:29.985Z</time></trkpt><trkpt lat="43.8489461" lon="11.2311582"><ele>573.0</ele><time>2026-03-25T17:41:30.98Z</time></trkpt><trkpt lat="43.849066" lon="11.2311852"><ele>573.0</ele><time>2026-03-25T17:41:31.982Z</time></trkpt><trkpt lat="43.8491811" lon="11.2312479"><ele>573.0</ele><time>2026-03-25T17:41:32.961Z</time></trkpt><trkpt lat="43.8492872" lon="11.2313312"><ele>573.0</ele><time>2026-03-25T17:41:33.97Z</time></trkpt><trkpt lat="43.8493827" lon="11.2314265"><ele>573.0</ele><time>2026-03-25T17:41:34.978Z</time></trkpt><trkpt lat="43.8494693" lon="11.2315461"><ele>572.25</ele><time>2026-03-25T17:41:35.986Z</time></trkpt><trkpt lat="43.84954" lon="11.231668"><ele>571.5</ele><time>2026-03-25T17:41:36.979Z</time></trkpt><trkpt lat="43.8496108" lon="11.2318035"><ele>570.75</ele><time>2026-03-25T17:41:37.954Z</time></trkpt><trkpt lat="43.8496822" lon="11.2319476"><ele>570.0</ele><time>2026-03-25T17:41:38.963Z</time></trkpt><trkpt lat="43.8497609" lon="11.2320944"><ele>570.0</ele><time>2026-03-25T17:41:39.973Z</time></trkpt><trkpt lat="43.8498401" lon="11.2322486"><ele>570.0</ele><time>2026-03-25T17:41:40.951Z</time></trkpt><trkpt lat="43.8499254" lon="11.232406"><ele>570.0</ele><time>2026-03-25T17:41:41.957Z</time></trkpt><trkpt lat="43.8500116" lon="11.2325666"><ele>570.0</ele><time>2026-03-25T17:41:42.949Z</time></trkpt><trkpt lat="43.8500951" lon="11.2327338"><ele>565.6666666666666</ele><time>2026-03-25T17:41:43.958Z</time></trkpt><trkpt lat="43.8501837" lon="11.2329142"><ele>561.3333333333333</ele><time>2026-03-25T17:41:44.959Z</time></trkpt><trkpt lat="43.8502707" lon="11.2330955"><ele>557.0</ele><time>2026-03-25T17:41:45.949Z</time></trkpt><trkpt lat="43.8503583" lon="11.2332887"><ele>557.0</ele><time>2026-03-25T17:41:46.95Z</time></trkpt><trkpt lat="43.850435" lon="11.2334939"><ele>557.0</ele><time>2026-03-25T17:41:47.946Z</time></trkpt><trkpt lat="43.850506" lon="11.233711"><ele>557.0</ele><time>2026-03-25T17:41:48.97Z</time></trkpt><trkpt lat="43.8505735" lon="11.2339342"><ele>560.6666666666666</ele><time>2026-03-25T17:41:49.953Z</time></trkpt><trkpt lat="43.8506336" lon="11.2341716"><ele>564.3333333333334</ele><time>2026-03-25T17:41:50.948Z</time></trkpt><trkpt lat="43.8506875" lon="11.2344241"><ele>568.0</ele><time>2026-03-25T17:41:51.954Z</time></trkpt><trkpt lat="43.8507396" lon="11.2346872"><ele>570.3333333333334</ele><time>2026-03-25T17:41:52.958Z</time></trkpt><trkpt lat="43.8507876" lon="11.234954"><ele>572.6666666666666</ele><time>2026-03-25T17:41:53.973Z</time></trkpt><trkpt lat="43.8508294" lon="11.235202"><ele>575.0</ele><time>2026-03-25T17:41:54.972Z</time></trkpt><trkpt lat="43.8508713" lon="11.2354298"><ele>578.0</ele><time>2026-03-25T17:41:55.951Z</time></trkpt><trkpt lat="43.850914" lon="11.2356397"><ele>581.0</ele><time>2026-03-25T17:41:56.978Z</time></trkpt><trkpt lat="43.8509664" lon="11.2358524"><ele>584.0</ele><time>2026-03-25T17:41:57.953Z</time></trkpt><trkpt lat="43.8510088" lon="11.2360586"><ele>578.5</ele><time>2026-03-25T17:41:58.954Z</time></trkpt><trkpt lat="43.8510499" lon="11.2362559"><ele>573.0</ele><time>2026-03-25T17:41:59.959Z</time></trkpt><trkpt lat="43.8510922" lon="11.236457"><ele>567.5</ele><time>2026-03-25T17:42:00.972Z</time></trkpt><trkpt lat="43.8511448" lon="11.2366363"><ele>562.0</ele><time>2026-03-25T17:42:01.975Z</time></trkpt><trkpt lat="43.8512126" lon="11.2367942"><ele>562.0</ele><time>2026-03-25T17:42:02.976Z</time></trkpt><trkpt lat="43.8512918" lon="11.2369242"><ele>562.0</ele><time>2026-03-25T17:42:03.973Z</time></trkpt><trkpt lat="43.8513886" lon="11.2370323"><ele>562.0</ele><time>2026-03-25T17:42:04.973Z</time></trkpt><trkpt lat="43.8514936" lon="11.2370935"><ele>562.0</ele><time>2026-03-25T17:42:05.977Z</time></trkpt><trkpt lat="43.8515915" lon="11.2371061"><ele>562.0</ele><time>2026-03-25T17:42:06.965Z</time></trkpt><trkpt lat="43.8517006" lon="11.237075"><ele>562.0</ele><time>2026-03-25T17:42:07.981Z</time></trkpt><trkpt lat="43.8518041" lon="11.2369928"><ele>562.0</ele><time>2026-03-25T17:42:08.97Z</time></trkpt><trkpt lat="43.85189" lon="11.2368584"><ele>562.0</ele><time>2026-03-25T17:42:09.974Z</time></trkpt><trkpt lat="43.8519735" lon="11.2366962"><ele>565.0</ele><time>2026-03-25T17:42:10.978Z</time></trkpt><trkpt lat="43.8520822" lon="11.2365625"><ele>568.0</ele><time>2026-03-25T17:42:11.984Z</time></trkpt><trkpt lat="43.8522145" lon="11.236438"><ele>571.0</ele><time>2026-03-25T17:42:12.972Z</time></trkpt><trkpt lat="43.8523632" lon="11.2363207"><ele>562.6666666666667</ele><time>2026-03-25T17:42:13.969Z</time></trkpt><trkpt lat="43.8525208" lon="11.2362155"><ele>554.3333333333334</ele><time>2026-03-25T17:42:14.967Z</time></trkpt><trkpt lat="43.8526906" lon="11.2361312"><ele>546.0</ele><time>2026-03-25T17:42:15.975Z</time></trkpt><trkpt lat="43.8528793" lon="11.2360501"><ele>546.0</ele><time>2026-03-25T17:42:16.979Z</time></trkpt><trkpt lat="43.8530905" lon="11.2359806"><ele>546.0</ele><time>2026-03-25T17:42:17.967Z</time></trkpt><trkpt lat="43.8533138" lon="11.2359232"><ele>546.0</ele><time>2026-03-25T17:42:18.98Z</time></trkpt><trkpt lat="43.8535345" lon="11.2358703"><ele>547.6666666666666</ele><time>2026-03-25T17:42:19.972Z</time></trkpt><trkpt lat="43.8537336" lon="11.2358291"><ele>549.3333333333333</ele><time>2026-03-25T17:42:20.967Z</time></trkpt><trkpt lat="43.8539036" lon="11.23579"><ele>551.0</ele><time>2026-03-25T17:42:21.964Z</time></trkpt><trkpt lat="43.8540639" lon="11.2357669"><ele>551.0</ele><time>2026-03-25T17:42:22.968Z</time></trkpt><trkpt lat="43.8542159" lon="11.2357635"><ele>551.0</ele><time>2026-03-25T17:42:23.973Z</time></trkpt><trkpt lat="43.8543656" lon="11.2358113"><ele>551.0</ele><time>2026-03-25T17:42:24.954Z</time></trkpt><trkpt lat="43.8545219" lon="11.2358904"><ele>548.6666666666666</ele><time>2026-03-25T17:42:25.968Z</time></trkpt><trkpt lat="43.8546967" lon="11.2359556"><ele>546.3333333333334</ele><time>2026-03-25T17:42:26.971Z</time></trkpt><trkpt lat="43.8548798" lon="11.2359639"><ele>544.0</ele><time>2026-03-25T17:42:27.976Z</time></trkpt><trkpt lat="43.8550673" lon="11.2359451"><ele>544.0</ele><time>2026-03-25T17:42:28.972Z</time></trkpt><trkpt lat="43.8552527" lon="11.2359055"><ele>544.0</ele><time>2026-03-25T17:42:29.974Z</time></trkpt><trkpt lat="43.8554291" lon="11.235868"><ele>544.0</ele><time>2026-03-25T17:42:30.966Z</time></trkpt><trkpt lat="43.8556092" lon="11.2358273"><ele>544.0</ele><time>2026-03-25T17:42:31.97Z</time></trkpt><trkpt lat="43.8557945" lon="11.2357779"><ele>544.0</ele><time>2026-03-25T17:42:32.975Z</time></trkpt><trkpt lat="43.8559833" lon="11.2357171"><ele>544.0</ele><time>2026-03-25T17:42:33.975Z</time></trkpt><trkpt lat="43.8561643" lon="11.2356448"><ele>538.6666666666667</ele><time>2026-03-25T17:42:34.973Z</time></trkpt><trkpt lat="43.8563493" lon="11.2355555"><ele>533.3333333333334</ele><time>2026-03-25T17:42:35.969Z</time></trkpt><trkpt lat="43.8565248" lon="11.2354644"><ele>528.0</ele><time>2026-03-25T17:42:36.971Z</time></trkpt><trkpt lat="43.8567017" lon="11.2353704"><ele>533.0</ele><time>2026-03-25T17:42:37.975Z</time></trkpt><trkpt lat="43.8568761" lon="11.2352792"><ele>538.0</ele><time>2026-03-25T17:42:38.957Z</time></trkpt><trkpt lat="43.8570515" lon="11.2351853"><ele>543.0</ele><time>2026-03-25T17:42:39.977Z</time></trkpt><trkpt lat="43.8572244" lon="11.2350882"><ele>543.0</ele><time>2026-03-25T17:42:40.979Z</time></trkpt><trkpt lat="43.8574008" lon="11.2349875"><ele>543.0</ele><time>2026-03-25T17:42:41.973Z</time></trkpt><trkpt lat="43.8575694" lon="11.2348734"><ele>543.0</ele><time>2026-03-25T17:42:42.975Z</time></trkpt><trkpt lat="43.8577318" lon="11.2347298"><ele>542.6666666666666</ele><time>2026-03-25T17:42:43.966Z</time></trkpt><trkpt lat="43.8578921" lon="11.2345781"><ele>542.3333333333333</ele><time>2026-03-25T17:42:44.977Z</time></trkpt><trkpt lat="43.8580421" lon="11.2344182"><ele>542.0</ele><time>2026-03-25T17:42:45.973Z</time></trkpt><trkpt lat="43.8581829" lon="11.2342705"><ele>542.0</ele><time>2026-03-25T17:42:46.955Z</time></trkpt><trkpt lat="43.8583255" lon="11.2341196"><ele>542.0</ele><time>2026-03-25T17:42:47.959Z</time></trkpt><trkpt lat="43.8584688" lon="11.233986"><ele>542.0</ele><time>2026-03-25T17:42:48.97Z</time></trkpt><trkpt lat="43.8586113" lon="11.2338697"><ele>537.3333333333333</ele><time>2026-03-25T17:42:49.97Z</time></trkpt><trkpt lat="43.8587621" lon="11.2337715"><ele>532.6666666666666</ele><time>2026-03-25T17:42:50.974Z</time></trkpt><trkpt lat="43.8589255" lon="11.23371"><ele>528.0</ele><time>2026-03-25T17:42:51.972Z</time></trkpt><trkpt lat="43.8590878" lon="11.2336679"><ele>528.0</ele><time>2026-03-25T17:42:52.959Z</time></trkpt><trkpt lat="43.8592623" lon="11.2336554"><ele>528.0</ele><time>2026-03-25T17:42:53.984Z</time></trkpt><trkpt lat="43.8594436" lon="11.2336544"><ele>528.0</ele><time>2026-03-25T17:42:54.974Z</time></trkpt><trkpt lat="43.8596367" lon="11.2336684"><ele>526.0</ele><time>2026-03-25T17:42:55.966Z</time></trkpt><trkpt lat="43.8598182" lon="11.233699"><ele>524.0</ele><time>2026-03-25T17:42:56.964Z</time></trkpt><trkpt lat="43.8599995" lon="11.2337174"><ele>522.0</ele><time>2026-03-25T17:42:57.968Z</time></trkpt><trkpt lat="43.8601844" lon="11.2337468"><ele>519.0</ele><time>2026-03-25T17:42:58.97Z</time></trkpt><trkpt lat="43.8603762" lon="11.233782"><ele>516.0</ele><time>2026-03-25T17:42:59.977Z</time></trkpt><trkpt lat="43.8605579" lon="11.2338352"><ele>513.0</ele><time>2026-03-25T17:43:00.967Z</time></trkpt><trkpt lat="43.8607185" lon="11.2339073"><ele>512.6666666666666</ele><time>2026-03-25T17:43:01.972Z</time></trkpt><trkpt lat="43.8608679" lon="11.2340035"><ele>512.3333333333333</ele><time>2026-03-25T17:43:02.972Z</time></trkpt><trkpt lat="43.8610133" lon="11.234151"><ele>512.0</ele><time>2026-03-25T17:43:03.979Z</time></trkpt><trkpt lat="43.8611341" lon="11.234319"><ele>512.0</ele><time>2026-03-25T17:43:04.97Z</time></trkpt><trkpt lat="43.8612483" lon="11.2344847"><ele>512.0</ele><time>2026-03-25T17:43:05.972Z</time></trkpt><trkpt lat="43.8613807" lon="11.2346218"><ele>512.0</ele><time>2026-03-25T17:43:06.983Z</time></trkpt><trkpt lat="43.8615047" lon="11.2347377"><ele>514.0</ele><time>2026-03-25T17:43:07.97Z</time></trkpt><trkpt lat="43.8616328" lon="11.234826"><ele>516.0</ele><time>2026-03-25T17:43:08.967Z</time></trkpt><trkpt lat="43.8617813" lon="11.2348934"><ele>518.0</ele><time>2026-03-25T17:43:09.97Z</time></trkpt><trkpt lat="43.8619384" lon="11.2349287"><ele>518.0</ele><time>2026-03-25T17:43:10.975Z</time></trkpt><trkpt lat="43.8621012" lon="11.234923"><ele>518.0</ele><time>2026-03-25T17:43:11.979Z</time></trkpt><trkpt lat="43.8622625" lon="11.2349"><ele>518.0</ele><time>2026-03-25T17:43:12.977Z</time></trkpt><trkpt lat="43.8624301" lon="11.2348363"><ele>511.66666666666663</ele><time>2026-03-25T17:43:13.97Z</time></trkpt><trkpt lat="43.862591" lon="11.2347609"><ele>505.33333333333337</ele><time>2026-03-25T17:43:14.973Z</time></trkpt><trkpt lat="43.8627411" lon="11.2346743"><ele>499.0</ele><time>2026-03-25T17:43:15.972Z</time></trkpt><trkpt lat="43.8628977" lon="11.2345713"><ele>498.0</ele><time>2026-03-25T17:43:16.968Z</time></trkpt><trkpt lat="43.8630611" lon="11.2344565"><ele>497.0</ele><time>2026-03-25T17:43:17.949Z</time></trkpt><trkpt lat="43.8632311" lon="11.2343552"><ele>496.0</ele><time>2026-03-25T17:43:18.973Z</time></trkpt><trkpt lat="43.8633939" lon="11.2342279"><ele>498.0</ele><time>2026-03-25T17:43:19.968Z</time></trkpt><trkpt lat="43.8635445" lon="11.2341041"><ele>500.0</ele><time>2026-03-25T17:43:20.951Z</time></trkpt><trkpt lat="43.8636941" lon="11.2339742"><ele>502.0</ele><time>2026-03-25T17:43:21.964Z</time></trkpt><trkpt lat="43.8638393" lon="11.2338524"><ele>496.0</ele><time>2026-03-25T17:43:22.979Z</time></trkpt><trkpt lat="43.8639682" lon="11.2337476"><ele>490.0</ele><time>2026-03-25T17:43:23.977Z</time></trkpt><trkpt lat="43.8641086" lon="11.2336528"><ele>484.0</ele><time>2026-03-25T17:43:24.98Z</time></trkpt><trkpt lat="43.8642563" lon="11.2335835"><ele>484.0</ele><time>2026-03-25T17:43:25.978Z</time></trkpt><trkpt lat="43.8644158" lon="11.2335332"><ele>484.0</ele><time>2026-03-25T17:43:26.974Z</time></trkpt><trkpt lat="43.8645728" lon="11.233499"><ele>484.0</ele><time>2026-03-25T17:43:27.976Z</time></trkpt><trkpt lat="43.8647268" lon="11.2334901"><ele>484.0</ele><time>2026-03-25T17:43:28.974Z</time></trkpt><trkpt lat="43.864877" lon="11.2334648"><ele>484.0</ele><time>2026-03-25T17:43:29.973Z</time></trkpt><trkpt lat="43.8650231" lon="11.233434"><ele>484.0</ele><time>2026-03-25T17:43:30.975Z</time></trkpt><trkpt lat="43.8651573" lon="11.2334115"><ele>484.0</ele><time>2026-03-25T17:43:31.982Z</time></trkpt><trkpt lat="43.8652861" lon="11.2333939"><ele>484.0</ele><time>2026-03-25T17:43:32.981Z</time></trkpt><trkpt lat="43.8654081" lon="11.2333741"><ele>484.0</ele><time>2026-03-25T17:43:33.978Z</time></trkpt><trkpt lat="43.8655291" lon="11.2333545"><ele>484.0</ele><time>2026-03-25T17:43:34.977Z</time></trkpt><trkpt lat="43.8656462" lon="11.2333315"><ele>484.0</ele><time>2026-03-25T17:43:35.973Z</time></trkpt><trkpt lat="43.8657633" lon="11.2333062"><ele>484.0</ele><time>2026-03-25T17:43:36.978Z</time></trkpt><trkpt lat="43.8658762" lon="11.2332719"><ele>484.0</ele><time>2026-03-25T17:43:37.979Z</time></trkpt><trkpt lat="43.8659762" lon="11.2332268"><ele>484.0</ele><time>2026-03-25T17:43:38.977Z</time></trkpt><trkpt lat="43.8660753" lon="11.233156"><ele>484.0</ele><time>2026-03-25T17:43:39.962Z</time></trkpt><trkpt lat="43.8661678" lon="11.2330704"><ele>484.0</ele><time>2026-03-25T17:43:40.977Z</time></trkpt><trkpt lat="43.866237" lon="11.2329887"><ele>486.33333333333337</ele><time>2026-03-25T17:43:41.98Z</time></trkpt><trkpt lat="43.8662952" lon="11.2329002"><ele>488.6666666666667</ele><time>2026-03-25T17:43:42.978Z</time></trkpt><trkpt lat="43.8663434" lon="11.2327969"><ele>491.0</ele><time>2026-03-25T17:43:43.954Z</time></trkpt><trkpt lat="43.8663794" lon="11.2326937"><ele>493.33333333333337</ele><time>2026-03-25T17:43:44.973Z</time></trkpt><trkpt lat="43.8664064" lon="11.232581"><ele>495.6666666666667</ele><time>2026-03-25T17:43:45.978Z</time></trkpt><trkpt lat="43.8664235" lon="11.2324755"><ele>498.0</ele><time>2026-03-25T17:43:46.975Z</time></trkpt><trkpt lat="43.8664219" lon="11.2323624"><ele>497.8333333333333</ele><time>2026-03-25T17:43:47.964Z</time></trkpt><trkpt lat="43.8664068" lon="11.2322535"><ele>497.66666666666663</ele><time>2026-03-25T17:43:48.986Z</time></trkpt><trkpt lat="43.8663813" lon="11.2321433"><ele>497.5</ele><time>2026-03-25T17:43:49.983Z</time></trkpt><trkpt lat="43.8663579" lon="11.2320233"><ele>497.3333333333333</ele><time>2026-03-25T17:43:50.957Z</time></trkpt><trkpt lat="43.8663302" lon="11.2319038"><ele>497.16666666666663</ele><time>2026-03-25T17:43:51.975Z</time></trkpt><trkpt lat="43.8663045" lon="11.2317792"><ele>497.0</ele><time>2026-03-25T17:43:52.973Z</time></trkpt><trkpt lat="43.8662745" lon="11.2316555"><ele>497.0</ele><time>2026-03-25T17:43:53.979Z</time></trkpt><trkpt lat="43.8662481" lon="11.2315177"><ele>497.0</ele><time>2026-03-25T17:43:54.97Z</time></trkpt><trkpt lat="43.8662408" lon="11.2313675"><ele>497.0</ele><time>2026-03-25T17:43:55.971Z</time></trkpt><trkpt lat="43.8662429" lon="11.2312058"><ele>497.0</ele><time>2026-03-25T17:43:56.988Z</time></trkpt><trkpt lat="43.8662489" lon="11.2310369"><ele>497.0</ele><time>2026-03-25T17:43:57.966Z</time></trkpt><trkpt lat="43.8662639" lon="11.230874"><ele>497.0</ele><time>2026-03-25T17:43:58.963Z</time></trkpt><trkpt lat="43.8662725" lon="11.2307085"><ele>497.0</ele><time>2026-03-25T17:43:59.971Z</time></trkpt><trkpt lat="43.8662641" lon="11.2305482"><ele>497.0</ele><time>2026-03-25T17:44:00.977Z</time></trkpt><trkpt lat="43.8662414" lon="11.2303874"><ele>496.25</ele><time>2026-03-25T17:44:01.974Z</time></trkpt><trkpt lat="43.8662182" lon="11.2302126"><ele>495.5</ele><time>2026-03-25T17:44:02.977Z</time></trkpt><trkpt lat="43.8661905" lon="11.2300303"><ele>494.75</ele><time>2026-03-25T17:44:03.979Z</time></trkpt><trkpt lat="43.8661598" lon="11.2298351"><ele>494.0</ele><time>2026-03-25T17:44:04.977Z</time></trkpt><trkpt lat="43.8661362" lon="11.2296407"><ele>496.5</ele><time>2026-03-25T17:44:05.976Z</time></trkpt><trkpt lat="43.8661051" lon="11.2294504"><ele>499.0</ele><time>2026-03-25T17:44:06.971Z</time></trkpt><trkpt lat="43.8660724" lon="11.2292565"><ele>501.5</ele><time>2026-03-25T17:44:07.968Z</time></trkpt><trkpt lat="43.8660409" lon="11.229064"><ele>504.0</ele><time>2026-03-25T17:44:08.965Z</time></trkpt><trkpt lat="43.8660059" lon="11.2288642"><ele>509.0</ele><time>2026-03-25T17:44:09.975Z</time></trkpt><trkpt lat="43.8659679" lon="11.2286597"><ele>514.0</ele><time>2026-03-25T17:44:10.977Z</time></trkpt><trkpt lat="43.8659262" lon="11.2284602"><ele>519.0</ele><time>2026-03-25T17:44:11.97Z</time></trkpt><trkpt lat="43.8658819" lon="11.2282534"><ele>499.33333333333337</ele><time>2026-03-25T17:44:12.97Z</time></trkpt><trkpt lat="43.8658321" lon="11.2280556"><ele>479.6666666666667</ele><time>2026-03-25T17:44:13.977Z</time></trkpt><trkpt lat="43.8657789" lon="11.2278591"><ele>460.0</ele><time>2026-03-25T17:44:14.97Z</time></trkpt><trkpt lat="43.86572" lon="11.2276654"><ele>460.0</ele><time>2026-03-25T17:44:15.976Z</time></trkpt><trkpt lat="43.8656593" lon="11.227475"><ele>460.0</ele><time>2026-03-25T17:44:16.967Z</time></trkpt><trkpt lat="43.8656032" lon="11.2272833"><ele>460.0</ele><time>2026-03-25T17:44:17.974Z</time></trkpt><trkpt lat="43.8655436" lon="11.2270915"><ele>463.0</ele><time>2026-03-25T17:44:18.984Z</time></trkpt><trkpt lat="43.8654859" lon="11.2269016"><ele>466.0</ele><time>2026-03-25T17:44:19.969Z</time></trkpt><trkpt lat="43.865427" lon="11.2267137"><ele>469.0</ele><time>2026-03-25T17:44:20.958Z</time></trkpt><trkpt lat="43.8653665" lon="11.2265227"><ele>472.0</ele><time>2026-03-25T17:44:21.971Z</time></trkpt><trkpt lat="43.8653044" lon="11.2263333"><ele>472.25</ele><time>2026-03-25T17:44:22.973Z</time></trkpt><trkpt lat="43.8652348" lon="11.2261449"><ele>472.5</ele><time>2026-03-25T17:44:24.001Z</time></trkpt><trkpt lat="43.8651534" lon="11.2259716"><ele>472.75</ele><time>2026-03-25T17:44:24.963Z</time></trkpt><trkpt lat="43.8650619" lon="11.2258132"><ele>473.0</ele><time>2026-03-25T17:44:25.964Z</time></trkpt><trkpt lat="43.8649611" lon="11.2256631"><ele>461.0</ele><time>2026-03-25T17:44:26.972Z</time></trkpt><trkpt lat="43.8648559" lon="11.2255227"><ele>449.0</ele><time>2026-03-25T17:44:27.963Z</time></trkpt><trkpt lat="43.8647342" lon="11.2253906"><ele>437.0</ele><time>2026-03-25T17:44:28.968Z</time></trkpt><trkpt lat="43.8646042" lon="11.2252824"><ele>437.0</ele><time>2026-03-25T17:44:29.963Z</time></trkpt><trkpt lat="43.8644594" lon="11.2251847"><ele>437.0</ele><time>2026-03-25T17:44:30.975Z</time></trkpt><trkpt lat="43.864316" lon="11.2251243"><ele>437.0</ele><time>2026-03-25T17:44:31.958Z</time></trkpt><trkpt lat="43.8641652" lon="11.2250788"><ele>431.3333333333333</ele><time>2026-03-25T17:44:32.975Z</time></trkpt><trkpt lat="43.8640172" lon="11.2250142"><ele>425.66666666666663</ele><time>2026-03-25T17:44:33.972Z</time></trkpt><trkpt lat="43.8638766" lon="11.2249317"><ele>420.0</ele><time>2026-03-25T17:44:34.974Z</time></trkpt><trkpt lat="43.8637462" lon="11.224842"><ele>417.75</ele><time>2026-03-25T17:44:35.981Z</time></trkpt><trkpt lat="43.8636295" lon="11.2247406"><ele>415.5</ele><time>2026-03-25T17:44:36.979Z</time></trkpt><trkpt lat="43.8635221" lon="11.2246209"><ele>413.25</ele><time>2026-03-25T17:44:37.979Z</time></trkpt><trkpt lat="43.8634136" lon="11.2245055"><ele>411.0</ele><time>2026-03-25T17:44:38.962Z</time></trkpt><trkpt lat="43.8633048" lon="11.224394"><ele>410.5</ele><time>2026-03-25T17:44:39.972Z</time></trkpt><trkpt lat="43.8632087" lon="11.2242695"><ele>410.0</ele><time>2026-03-25T17:44:40.975Z</time></trkpt><trkpt lat="43.8631224" lon="11.2241272"><ele>409.5</ele><time>2026-03-25T17:44:41.972Z</time></trkpt><trkpt lat="43.8630496" lon="11.2239847"><ele>409.0</ele><time>2026-03-25T17:44:42.979Z</time></trkpt><trkpt lat="43.8629988" lon="11.2238304"><ele>405.75</ele><time>2026-03-25T17:44:43.98Z</time></trkpt><trkpt lat="43.862969" lon="11.2236603"><ele>402.5</ele><time>2026-03-25T17:44:44.98Z</time></trkpt><trkpt lat="43.8629479" lon="11.2234897"><ele>399.25</ele><time>2026-03-25T17:44:45.986Z</time></trkpt><trkpt lat="43.8629334" lon="11.2233107"><ele>396.0</ele><time>2026-03-25T17:44:46.97Z</time></trkpt><trkpt lat="43.8629142" lon="11.2231261"><ele>392.0</ele><time>2026-03-25T17:44:47.982Z</time></trkpt><trkpt lat="43.8628908" lon="11.2229372"><ele>388.0</ele><time>2026-03-25T17:44:48.974Z</time></trkpt><trkpt lat="43.8628593" lon="11.2227488"><ele>384.0</ele><time>2026-03-25T17:44:49.982Z</time></trkpt><trkpt lat="43.8628155" lon="11.2225615"><ele>380.0</ele><time>2026-03-25T17:44:50.979Z</time></trkpt><trkpt lat="43.8627441" lon="11.2223852"><ele>377.25</ele><time>2026-03-25T17:44:51.958Z</time></trkpt><trkpt lat="43.8626725" lon="11.2222175"><ele>374.5</ele><time>2026-03-25T17:44:52.984Z</time></trkpt><trkpt lat="43.8625995" lon="11.2220428"><ele>371.75</ele><time>2026-03-25T17:44:53.984Z</time></trkpt><trkpt lat="43.8625358" lon="11.2218521"><ele>369.0</ele><time>2026-03-25T17:44:54.986Z</time></trkpt><trkpt lat="43.8624754" lon="11.2216337"><ele>364.6666666666667</ele><time>2026-03-25T17:44:55.966Z</time></trkpt><trkpt lat="43.8624262" lon="11.2214278"><ele>360.33333333333337</ele><time>2026-03-25T17:44:56.983Z</time></trkpt><trkpt lat="43.8623799" lon="11.2212159"><ele>356.0</ele><time>2026-03-25T17:44:57.984Z</time></trkpt><trkpt lat="43.8623293" lon="11.2210174"><ele>356.0</ele><time>2026-03-25T17:44:58.975Z</time></trkpt><trkpt lat="43.862256" lon="11.2208298"><ele>356.0</ele><time>2026-03-25T17:44:59.973Z</time></trkpt><trkpt lat="43.8621717" lon="11.2206478"><ele>356.0</ele><time>2026-03-25T17:45:00.972Z</time></trkpt><trkpt lat="43.8620745" lon="11.2204763"><ele>352.33333333333337</ele><time>2026-03-25T17:45:01.982Z</time></trkpt><trkpt lat="43.8619766" lon="11.2203011"><ele>348.6666666666667</ele><time>2026-03-25T17:45:02.969Z</time></trkpt><trkpt lat="43.8618845" lon="11.2201386"><ele>345.0</ele><time>2026-03-25T17:45:03.976Z</time></trkpt><trkpt lat="43.8617906" lon="11.2199631"><ele>342.3333333333333</ele><time>2026-03-25T17:45:04.983Z</time></trkpt><trkpt lat="43.8617017" lon="11.2197982"><ele>339.66666666666663</ele><time>2026-03-25T17:45:05.971Z</time></trkpt><trkpt lat="43.8616069" lon="11.2196303"><ele>337.0</ele><time>2026-03-25T17:45:06.975Z</time></trkpt><trkpt lat="43.8615202" lon="11.2194592"><ele>337.0</ele><time>2026-03-25T17:45:07.974Z</time></trkpt><trkpt lat="43.8614414" lon="11.2192889"><ele>337.0</ele><time>2026-03-25T17:45:08.975Z</time></trkpt><trkpt lat="43.8613793" lon="11.219098"><ele>337.0</ele><time>2026-03-25T17:45:09.956Z</time></trkpt><trkpt lat="43.8613441" lon="11.2188872"><ele>335.0</ele><time>2026-03-25T17:45:10.971Z</time></trkpt><trkpt lat="43.8613241" lon="11.2186727"><ele>333.0</ele><time>2026-03-25T17:45:11.971Z</time></trkpt><trkpt lat="43.8613082" lon="11.2184607"><ele>331.0</ele><time>2026-03-25T17:45:12.973Z</time></trkpt><trkpt lat="43.8612849" lon="11.2182466"><ele>330.0</ele><time>2026-03-25T17:45:13.982Z</time></trkpt><trkpt lat="43.8612609" lon="11.2180525"><ele>329.0</ele><time>2026-03-25T17:45:14.971Z</time></trkpt><trkpt lat="43.8612334" lon="11.2178781"><ele>328.0</ele><time>2026-03-25T17:45:15.967Z</time></trkpt><trkpt lat="43.8612073" lon="11.2177241"><ele>327.0</ele><time>2026-03-25T17:45:16.974Z</time></trkpt><trkpt lat="43.8611854" lon="11.2176089"><ele>327.0</ele><time>2026-03-25T17:45:17.973Z</time></trkpt><trkpt lat="43.8611529" lon="11.2175202"><ele>327.0</ele><time>2026-03-25T17:45:18.972Z</time></trkpt><trkpt lat="43.8610246" lon="11.2174909"><ele>327.0</ele><time>2026-03-25T17:45:20.97Z</time></trkpt><trkpt lat="43.8609306" lon="11.2175144"><ele>327.0</ele><time>2026-03-25T17:45:21.972Z</time></trkpt><trkpt lat="43.8608448" lon="11.217499"><ele>327.0</ele><time>2026-03-25T17:45:22.975Z</time></trkpt><trkpt lat="43.860773" lon="11.2174328"><ele>326.75</ele><time>2026-03-25T17:45:23.987Z</time></trkpt><trkpt lat="43.8607044" lon="11.2173242"><ele>326.5</ele><time>2026-03-25T17:45:24.977Z</time></trkpt><trkpt lat="43.8606285" lon="11.2172161"><ele>326.25</ele><time>2026-03-25T17:45:25.978Z</time></trkpt><trkpt lat="43.8605316" lon="11.2171018"><ele>326.0</ele><time>2026-03-25T17:45:26.982Z</time></trkpt><trkpt lat="43.8604072" lon="11.2170305"><ele>326.75</ele><time>2026-03-25T17:45:27.98Z</time></trkpt><trkpt lat="43.8602755" lon="11.2169605"><ele>327.5</ele><time>2026-03-25T17:45:28.965Z</time></trkpt><trkpt lat="43.8601374" lon="11.2168809"><ele>328.25</ele><time>2026-03-25T17:45:29.975Z</time></trkpt><trkpt lat="43.8599958" lon="11.2167984"><ele>329.0</ele><time>2026-03-25T17:45:30.971Z</time></trkpt><trkpt lat="43.8598548" lon="11.2167131"><ele>327.6666666666667</ele><time>2026-03-25T17:45:31.966Z</time></trkpt><trkpt lat="43.8597069" lon="11.2166302"><ele>326.3333333333333</ele><time>2026-03-25T17:45:32.981Z</time></trkpt><trkpt lat="43.859558" lon="11.2165323"><ele>325.0</ele><time>2026-03-25T17:45:33.967Z</time></trkpt><trkpt lat="43.8594155" lon="11.2164301"><ele>320.0</ele><time>2026-03-25T17:45:34.97Z</time></trkpt><trkpt lat="43.8592827" lon="11.2163208"><ele>315.0</ele><time>2026-03-25T17:45:35.979Z</time></trkpt><trkpt lat="43.8591502" lon="11.2162025"><ele>310.0</ele><time>2026-03-25T17:45:36.969Z</time></trkpt><trkpt lat="43.859012" lon="11.2160852"><ele>310.0</ele><time>2026-03-25T17:45:37.971Z</time></trkpt><trkpt lat="43.8588689" lon="11.2159732"><ele>310.0</ele><time>2026-03-25T17:45:38.949Z</time></trkpt><trkpt lat="43.8587289" lon="11.215872"><ele>310.0</ele><time>2026-03-25T17:45:39.971Z</time></trkpt><trkpt lat="43.8586026" lon="11.2157619"><ele>308.75</ele><time>2026-03-25T17:45:40.976Z</time></trkpt><trkpt lat="43.8584843" lon="11.2156505"><ele>307.5</ele><time>2026-03-25T17:45:41.969Z</time></trkpt><trkpt lat="43.8583655" lon="11.2155417"><ele>306.25</ele><time>2026-03-25T17:45:42.973Z</time></trkpt><trkpt lat="43.8582527" lon="11.2154359"><ele>305.0</ele><time>2026-03-25T17:45:43.957Z</time></trkpt><trkpt lat="43.8581443" lon="11.2153397"><ele>305.0</ele><time>2026-03-25T17:45:44.98Z</time></trkpt><trkpt lat="43.8580335" lon="11.2152392"><ele>305.0</ele><time>2026-03-25T17:45:45.966Z</time></trkpt><trkpt lat="43.8579149" lon="11.2151478"><ele>305.0</ele><time>2026-03-25T17:45:46.969Z</time></trkpt><trkpt lat="43.8577886" lon="11.2150662"><ele>305.0</ele><time>2026-03-25T17:45:47.983Z</time></trkpt><trkpt lat="43.8576631" lon="11.2149867"><ele>304.0</ele><time>2026-03-25T17:45:48.982Z</time></trkpt><trkpt lat="43.8575381" lon="11.214918"><ele>303.0</ele><time>2026-03-25T17:45:49.971Z</time></trkpt><trkpt lat="43.857415" lon="11.2148316"><ele>302.0</ele><time>2026-03-25T17:45:50.968Z</time></trkpt><trkpt lat="43.8573005" lon="11.2147404"><ele>301.0</ele><time>2026-03-25T17:45:51.974Z</time></trkpt><trkpt lat="43.8571899" lon="11.2146342"><ele>301.0</ele><time>2026-03-25T17:45:52.97Z</time></trkpt><trkpt lat="43.8570879" lon="11.2145259"><ele>301.0</ele><time>2026-03-25T17:45:53.973Z</time></trkpt><trkpt lat="43.8569928" lon="11.2144196"><ele>301.0</ele><time>2026-03-25T17:45:54.974Z</time></trkpt><trkpt lat="43.8569081" lon="11.2143111"><ele>301.0</ele><time>2026-03-25T17:45:55.967Z</time></trkpt><trkpt lat="43.8568285" lon="11.214186"><ele>296.5</ele><time>2026-03-25T17:45:56.979Z</time></trkpt><trkpt lat="43.8567552" lon="11.2140488"><ele>292.0</ele><time>2026-03-25T17:45:57.964Z</time></trkpt><trkpt lat="43.8566869" lon="11.2139106"><ele>287.5</ele><time>2026-03-25T17:45:58.966Z</time></trkpt><trkpt lat="43.8566078" lon="11.2138014"><ele>283.0</ele><time>2026-03-25T17:45:59.978Z</time></trkpt><trkpt lat="43.8565284" lon="11.2137119"><ele>283.0</ele><time>2026-03-25T17:46:00.964Z</time></trkpt><trkpt lat="43.856439" lon="11.2136197"><ele>283.0</ele><time>2026-03-25T17:46:01.971Z</time></trkpt><trkpt lat="43.856357" lon="11.2135419"><ele>283.0</ele><time>2026-03-25T17:46:02.973Z</time></trkpt><trkpt lat="43.8562794" lon="11.2134718"><ele>283.0</ele><time>2026-03-25T17:46:03.971Z</time></trkpt><trkpt lat="43.8562156" lon="11.213458"><ele>283.0</ele><time>2026-03-25T17:46:04.973Z</time></trkpt><trkpt lat="43.8561824" lon="11.2135792"><ele>283.0</ele><time>2026-03-25T17:46:06.982Z</time></trkpt><trkpt lat="43.8562143" lon="11.2136736"><ele>283.0</ele><time>2026-03-25T17:46:07.971Z</time></trkpt><trkpt lat="43.8562782" lon="11.2137401"><ele>283.0</ele><time>2026-03-25T17:46:08.989Z</time></trkpt><trkpt lat="43.8563458" lon="11.2137946"><ele>283.0</ele><time>2026-03-25T17:46:09.974Z</time></trkpt><trkpt lat="43.8564054" lon="11.2138662"><ele>283.0</ele><time>2026-03-25T17:46:10.973Z</time></trkpt><trkpt lat="43.8564518" lon="11.2139524"><ele>283.0</ele><time>2026-03-25T17:46:11.982Z</time></trkpt><trkpt lat="43.8564793" lon="11.2140404"><ele>283.0</ele><time>2026-03-25T17:46:12.978Z</time></trkpt><trkpt lat="43.8564296" lon="11.2141169"><ele>283.0</ele><time>2026-03-25T17:46:14.975Z</time></trkpt><trkpt lat="43.8563325" lon="11.2141576"><ele>283.0</ele><time>2026-03-25T17:46:16.973Z</time></trkpt><trkpt lat="43.8562428" lon="11.2141581"><ele>283.0</ele><time>2026-03-25T17:46:18.986Z</time></trkpt><trkpt lat="43.8561675" lon="11.2141212"><ele>283.0</ele><time>2026-03-25T17:46:19.976Z</time></trkpt><trkpt lat="43.8560854" lon="11.2140411"><ele>283.0</ele><time>2026-03-25T17:46:20.976Z</time></trkpt><trkpt lat="43.8559934" lon="11.2139468"><ele>278.4</ele><time>2026-03-25T17:46:21.979Z</time></trkpt><trkpt lat="43.8559033" lon="11.2138732"><ele>273.8</ele><time>2026-03-25T17:46:22.964Z</time></trkpt><trkpt lat="43.855821" lon="11.2138317"><ele>269.2</ele><time>2026-03-25T17:46:23.982Z</time></trkpt><trkpt lat="43.8557792" lon="11.2139172"><ele>264.6</ele><time>2026-03-25T17:46:25.977Z</time></trkpt><trkpt lat="43.8558521" lon="11.2140526"><ele>260.0</ele><time>2026-03-25T17:46:27.966Z</time></trkpt><trkpt lat="43.8559056" lon="11.21414"><ele>260.0</ele><time>2026-03-25T17:46:28.951Z</time></trkpt><trkpt lat="43.8559503" lon="11.2142347"><ele>260.0</ele><time>2026-03-25T17:46:29.974Z</time></trkpt><trkpt lat="43.8559774" lon="11.2143439"><ele>260.0</ele><time>2026-03-25T17:46:30.982Z</time></trkpt><trkpt lat="43.8559379" lon="11.2144593"><ele>260.0</ele><time>2026-03-25T17:46:32.976Z</time></trkpt><trkpt lat="43.8558413" lon="11.2144874"><ele>260.0</ele><time>2026-03-25T17:46:33.955Z</time></trkpt><trkpt lat="43.8557344" lon="11.214535"><ele>260.0</ele><time>2026-03-25T17:46:34.965Z</time></trkpt><trkpt lat="43.8556354" lon="11.2145822"><ele>260.0</ele><time>2026-03-25T17:46:35.968Z</time></trkpt><trkpt lat="43.8555082" lon="11.2146228"><ele>260.0</ele><time>2026-03-25T17:46:36.951Z</time></trkpt><trkpt lat="43.8553784" lon="11.2146874"><ele>260.0</ele><time>2026-03-25T17:46:37.969Z</time></trkpt><trkpt lat="43.8552549" lon="11.2147522"><ele>262.25</ele><time>2026-03-25T17:46:38.966Z</time></trkpt><trkpt lat="43.8551386" lon="11.2148382"><ele>264.5</ele><time>2026-03-25T17:46:39.967Z</time></trkpt><trkpt lat="43.8550438" lon="11.2149344"><ele>266.75</ele><time>2026-03-25T17:46:40.971Z</time></trkpt><trkpt lat="43.8549565" lon="11.2150541"><ele>269.0</ele><time>2026-03-25T17:46:41.956Z</time></trkpt><trkpt lat="43.8548999" lon="11.2151941"><ele>262.75</ele><time>2026-03-25T17:46:42.966Z</time></trkpt><trkpt lat="43.8548516" lon="11.2153303"><ele>256.5</ele><time>2026-03-25T17:46:43.975Z</time></trkpt><trkpt lat="43.8548217" lon="11.2154876"><ele>250.25</ele><time>2026-03-25T17:46:44.97Z</time></trkpt><trkpt lat="43.8547976" lon="11.2156582"><ele>244.0</ele><time>2026-03-25T17:46:45.974Z</time></trkpt><trkpt lat="43.8547763" lon="11.2158311"><ele>244.0</ele><time>2026-03-25T17:46:46.97Z</time></trkpt><trkpt lat="43.8547669" lon="11.2159884"><ele>243.99999999999997</ele><time>2026-03-25T17:46:47.971Z</time></trkpt><trkpt lat="43.8547711" lon="11.2161214"><ele>243.99999999999997</ele><time>2026-03-25T17:46:48.977Z</time></trkpt><trkpt lat="43.8548032" lon="11.2162393"><ele>244.0</ele><time>2026-03-25T17:46:49.97Z</time></trkpt><trkpt lat="43.8548104" lon="11.2163877"><ele>244.0</ele><time>2026-03-25T17:46:51.971Z</time></trkpt><trkpt lat="43.8547765" lon="11.2162843"><ele>244.0</ele><time>2026-03-25T17:46:55.967Z</time></trkpt><trkpt lat="43.8547215" lon="11.2161575"><ele>243.99999999999997</ele><time>2026-03-25T17:46:57.978Z</time></trkpt><trkpt lat="43.8546711" lon="11.2160408"><ele>243.99999999999997</ele><time>2026-03-25T17:46:58.957Z</time></trkpt><trkpt lat="43.8546196" lon="11.2159127"><ele>244.0</ele><time>2026-03-25T17:46:59.967Z</time></trkpt><trkpt lat="43.8545686" lon="11.2157803"><ele>244.0</ele><time>2026-03-25T17:47:00.975Z</time></trkpt><trkpt lat="43.8545423" lon="11.2156474"><ele>243.39999999999998</ele><time>2026-03-25T17:47:01.974Z</time></trkpt><trkpt lat="43.8545252" lon="11.215503"><ele>242.79999999999998</ele><time>2026-03-25T17:47:02.964Z</time></trkpt><trkpt lat="43.8545029" lon="11.2153421"><ele>242.20000000000002</ele><time>2026-03-25T17:47:03.955Z</time></trkpt><trkpt lat="43.8544774" lon="11.2151933"><ele>241.60000000000002</ele><time>2026-03-25T17:47:04.952Z</time></trkpt><trkpt lat="43.8544292" lon="11.2150559"><ele>241.0</ele><time>2026-03-25T17:47:05.96Z</time></trkpt><trkpt lat="43.8543756" lon="11.2149326"><ele>239.8</ele><time>2026-03-25T17:47:06.979Z</time></trkpt><trkpt lat="43.8543277" lon="11.2148105"><ele>238.60000000000002</ele><time>2026-03-25T17:47:07.976Z</time></trkpt><trkpt lat="43.8542814" lon="11.2146818"><ele>237.4</ele><time>2026-03-25T17:47:08.975Z</time></trkpt><trkpt lat="43.8542546" lon="11.2145553"><ele>236.2</ele><time>2026-03-25T17:47:09.981Z</time></trkpt><trkpt lat="43.8542456" lon="11.2144415"><ele>235.0</ele><time>2026-03-25T17:47:10.978Z</time></trkpt><trkpt lat="43.8542125" lon="11.2143437"><ele>230.83333333333331</ele><time>2026-03-25T17:47:11.974Z</time></trkpt><trkpt lat="43.8541621" lon="11.2142508"><ele>226.66666666666666</ele><time>2026-03-25T17:47:12.953Z</time></trkpt><trkpt lat="43.8540983" lon="11.2142413"><ele>222.5</ele><time>2026-03-25T17:47:13.965Z</time></trkpt><trkpt lat="43.8540403" lon="11.214314"><ele>218.33333333333331</ele><time>2026-03-25T17:47:14.966Z</time></trkpt><trkpt lat="43.8539834" lon="11.2143902"><ele>214.16666666666666</ele><time>2026-03-25T17:47:15.973Z</time></trkpt><trkpt lat="43.8539342" lon="11.2144781"><ele>210.0</ele><time>2026-03-25T17:47:16.948Z</time></trkpt><trkpt lat="43.8538568" lon="11.2145383"><ele>210.0</ele><time>2026-03-25T17:47:17.97Z</time></trkpt><trkpt lat="43.8537693" lon="11.2145865"><ele>210.0</ele><time>2026-03-25T17:47:18.967Z</time></trkpt><trkpt lat="43.8536651" lon="11.214631"><ele>210.0</ele><time>2026-03-25T17:47:19.972Z</time></trkpt><trkpt lat="43.8535359" lon="11.2146718"><ele>210.0</ele><time>2026-03-25T17:47:20.974Z</time></trkpt><trkpt lat="43.8533994" lon="11.2147229"><ele>205.75</ele><time>2026-03-25T17:47:21.976Z</time></trkpt><trkpt lat="43.8532628" lon="11.2147699"><ele>201.5</ele><time>2026-03-25T17:47:22.966Z</time></trkpt><trkpt lat="43.8531284" lon="11.2148217"><ele>197.25</ele><time>2026-03-25T17:47:23.977Z</time></trkpt><trkpt lat="43.8529954" lon="11.2148757"><ele>193.0</ele><time>2026-03-25T17:47:24.973Z</time></trkpt><trkpt lat="43.8528683" lon="11.2149316"><ele>191.25</ele><time>2026-03-25T17:47:25.978Z</time></trkpt><trkpt lat="43.852751" lon="11.214975"><ele>189.5</ele><time>2026-03-25T17:47:26.964Z</time></trkpt><trkpt lat="43.8526321" lon="11.2150253"><ele>187.75</ele><time>2026-03-25T17:47:27.965Z</time></trkpt><trkpt lat="43.8525186" lon="11.2150688"><ele>186.0</ele><time>2026-03-25T17:47:28.973Z</time></trkpt><trkpt lat="43.8523937" lon="11.2150942"><ele>183.0</ele><time>2026-03-25T17:47:29.976Z</time></trkpt><trkpt lat="43.8522611" lon="11.2151013"><ele>180.0</ele><time>2026-03-25T17:47:30.976Z</time></trkpt><trkpt lat="43.8521172" lon="11.2150909"><ele>177.0</ele><time>2026-03-25T17:47:31.98Z</time></trkpt><trkpt lat="43.8519736" lon="11.215075"><ele>174.0</ele><time>2026-03-25T17:47:32.966Z</time></trkpt><trkpt lat="43.8518171" lon="11.2150605"><ele>169.33333333333334</ele><time>2026-03-25T17:47:33.977Z</time></trkpt><trkpt lat="43.8516589" lon="11.2150411"><ele>164.66666666666669</ele><time>2026-03-25T17:47:34.98Z</time></trkpt><trkpt lat="43.8514936" lon="11.2150268"><ele>160.0</ele><time>2026-03-25T17:47:35.976Z</time></trkpt><trkpt lat="43.8513235" lon="11.2150011"><ele>160.0</ele><time>2026-03-25T17:47:36.972Z</time></trkpt><trkpt lat="43.8511556" lon="11.2149694"><ele>160.0</ele><time>2026-03-25T17:47:37.984Z</time></trkpt><trkpt lat="43.8509864" lon="11.2149388"><ele>160.0</ele><time>2026-03-25T17:47:38.98Z</time></trkpt><trkpt lat="43.8508114" lon="11.2149125"><ele>157.66666666666669</ele><time>2026-03-25T17:47:39.976Z</time></trkpt><trkpt lat="43.850642" lon="11.2148952"><ele>155.33333333333334</ele><time>2026-03-25T17:47:40.969Z</time></trkpt><trkpt lat="43.8504745" lon="11.2148833"><ele>153.0</ele><time>2026-03-25T17:47:41.978Z</time></trkpt><trkpt lat="43.8503025" lon="11.2148651"><ele>153.0</ele><time>2026-03-25T17:47:42.975Z</time></trkpt><trkpt lat="43.8501363" lon="11.2148449"><ele>153.0</ele><time>2026-03-25T17:47:43.979Z</time></trkpt><trkpt lat="43.8499795" lon="11.2148276"><ele>153.0</ele><time>2026-03-25T17:47:44.975Z</time></trkpt><trkpt lat="43.849828" lon="11.2148114"><ele>151.25</ele><time>2026-03-25T17:47:45.975Z</time></trkpt><trkpt lat="43.8496834" lon="11.2147979"><ele>149.5</ele><time>2026-03-25T17:47:46.982Z</time></trkpt><trkpt lat="43.8495426" lon="11.2147825"><ele>147.75</ele><time>2026-03-25T17:47:47.97Z</time></trkpt><trkpt lat="43.8494074" lon="11.2147729"><ele>146.0</ele><time>2026-03-25T17:47:48.969Z</time></trkpt><trkpt lat="43.8492685" lon="11.2147642"><ele>146.0</ele><time>2026-03-25T17:47:49.975Z</time></trkpt><trkpt lat="43.8491332" lon="11.2147518"><ele>146.0</ele><time>2026-03-25T17:47:50.976Z</time></trkpt><trkpt lat="43.8490052" lon="11.2147332"><ele>146.0</ele><time>2026-03-25T17:47:51.978Z</time></trkpt><trkpt lat="43.8488756" lon="11.2147066"><ele>146.0</ele><time>2026-03-25T17:47:52.979Z</time></trkpt><trkpt lat="43.84874" lon="11.2146599"><ele>146.0</ele><time>2026-03-25T17:47:53.946Z</time></trkpt><trkpt lat="43.8486119" lon="11.2145896"><ele>146.0</ele><time>2026-03-25T17:47:54.961Z</time></trkpt><trkpt lat="43.8484876" lon="11.214503"><ele>146.0</ele><time>2026-03-25T17:47:55.977Z</time></trkpt><trkpt lat="43.848365" lon="11.214404"><ele>146.0</ele><time>2026-03-25T17:47:56.972Z</time></trkpt><trkpt lat="43.8482422" lon="11.2143092"><ele>146.75</ele><time>2026-03-25T17:47:57.97Z</time></trkpt><trkpt lat="43.8481126" lon="11.2142157"><ele>147.5</ele><time>2026-03-25T17:47:58.977Z</time></trkpt><trkpt lat="43.8479824" lon="11.2141399"><ele>148.25</ele><time>2026-03-25T17:47:59.971Z</time></trkpt><trkpt lat="43.8478466" lon="11.2140727"><ele>149.0</ele><time>2026-03-25T17:48:00.979Z</time></trkpt><trkpt lat="43.8477078" lon="11.2140157"><ele>145.25</ele><time>2026-03-25T17:48:01.98Z</time></trkpt><trkpt lat="43.8475648" lon="11.2139494"><ele>141.5</ele><time>2026-03-25T17:48:02.973Z</time></trkpt><trkpt lat="43.8474227" lon="11.2138982"><ele>137.75</ele><time>2026-03-25T17:48:03.972Z</time></trkpt><trkpt lat="43.8472779" lon="11.2138551"><ele>134.0</ele><time>2026-03-25T17:48:04.966Z</time></trkpt><trkpt lat="43.8471341" lon="11.2138121"><ele>134.0</ele><time>2026-03-25T17:48:05.951Z</time></trkpt><trkpt lat="43.8469903" lon="11.213767"><ele>134.0</ele><time>2026-03-25T17:48:06.969Z</time></trkpt><trkpt lat="43.8468453" lon="11.2137204"><ele>134.0</ele><time>2026-03-25T17:48:07.973Z</time></trkpt><trkpt lat="43.8467094" lon="11.2136912"><ele>134.0</ele><time>2026-03-25T17:48:08.977Z</time></trkpt><trkpt lat="43.8465676" lon="11.2136541"><ele>134.25</ele><time>2026-03-25T17:48:09.982Z</time></trkpt><trkpt lat="43.846423" lon="11.2136064"><ele>134.5</ele><time>2026-03-25T17:48:10.976Z</time></trkpt><trkpt lat="43.8462783" lon="11.2135641"><ele>134.75</ele><time>2026-03-25T17:48:11.982Z</time></trkpt><trkpt lat="43.846133" lon="11.2135259"><ele>135.0</ele><time>2026-03-25T17:48:12.985Z</time></trkpt><trkpt lat="43.8459865" lon="11.2134849"><ele>135.5</ele><time>2026-03-25T17:48:13.982Z</time></trkpt><trkpt lat="43.8458386" lon="11.2134712"><ele>136.0</ele><time>2026-03-25T17:48:14.976Z</time></trkpt><trkpt lat="43.84569" lon="11.2134694"><ele>136.5</ele><time>2026-03-25T17:48:15.974Z</time></trkpt><trkpt lat="43.8455403" lon="11.2134844"><ele>137.0</ele><time>2026-03-25T17:48:16.981Z</time></trkpt><trkpt lat="43.845388" lon="11.2135015"><ele>137.0</ele><time>2026-03-25T17:48:17.973Z</time></trkpt><trkpt lat="43.8452385" lon="11.2135148"><ele>137.0</ele><time>2026-03-25T17:48:18.983Z</time></trkpt><trkpt lat="43.8450818" lon="11.2135141"><ele>137.0</ele><time>2026-03-25T17:48:19.982Z</time></trkpt><trkpt lat="43.8449297" lon="11.2134846"><ele>135.66666666666666</ele><time>2026-03-25T17:48:20.972Z</time></trkpt><trkpt lat="43.8447838" lon="11.2134176"><ele>134.33333333333334</ele><time>2026-03-25T17:48:21.976Z</time></trkpt><trkpt lat="43.8446412" lon="11.2133562"><ele>133.0</ele><time>2026-03-25T17:48:22.98Z</time></trkpt><trkpt lat="43.8444964" lon="11.2133101"><ele>133.0</ele><time>2026-03-25T17:48:23.981Z</time></trkpt><trkpt lat="43.8443485" lon="11.2132782"><ele>133.0</ele><time>2026-03-25T17:48:24.974Z</time></trkpt><trkpt lat="43.8442014" lon="11.2132734"><ele>133.0</ele><time>2026-03-25T17:48:25.989Z</time></trkpt><trkpt lat="43.8440579" lon="11.2132853"><ele>133.0</ele><time>2026-03-25T17:48:26.992Z</time></trkpt><trkpt lat="43.843913" lon="11.2132972"><ele>132.5</ele><time>2026-03-25T17:48:27.971Z</time></trkpt><trkpt lat="43.8437716" lon="11.2133154"><ele>132.0</ele><time>2026-03-25T17:48:28.961Z</time></trkpt><trkpt lat="43.8436357" lon="11.2133486"><ele>131.5</ele><time>2026-03-25T17:48:29.973Z</time></trkpt><trkpt lat="43.8435156" lon="11.213394"><ele>131.0</ele><time>2026-03-25T17:48:30.974Z</time></trkpt><trkpt lat="43.8434046" lon="11.2134495"><ele>129.6</ele><time>2026-03-25T17:48:31.958Z</time></trkpt><trkpt lat="43.8433274" lon="11.2135085"><ele>128.2</ele><time>2026-03-25T17:48:32.964Z</time></trkpt><trkpt lat="43.8432504" lon="11.2134757"><ele>126.80000000000001</ele><time>2026-03-25T17:48:35.979Z</time></trkpt><trkpt lat="43.8431883" lon="11.2133932"><ele>125.4</ele><time>2026-03-25T17:48:37.959Z</time></trkpt><trkpt lat="43.8431043" lon="11.2132634"><ele>124.0</ele><time>2026-03-25T17:48:39.97Z</time></trkpt><trkpt lat="43.8430559" lon="11.2131754"><ele>122.85714285714286</ele><time>2026-03-25T17:48:40.971Z</time></trkpt><trkpt lat="43.8430133" lon="11.2130963"><ele>121.71428571428572</ele><time>2026-03-25T17:48:41.978Z</time></trkpt><trkpt lat="43.8429721" lon="11.2130216"><ele>120.57142857142858</ele><time>2026-03-25T17:48:42.982Z</time></trkpt><trkpt lat="43.8429285" lon="11.2129426"><ele>119.42857142857144</ele><time>2026-03-25T17:48:43.971Z</time></trkpt><trkpt lat="43.8428816" lon="11.2128621"><ele>118.28571428571429</ele><time>2026-03-25T17:48:44.972Z</time></trkpt><trkpt lat="43.8428346" lon="11.2127767"><ele>117.14285714285717</ele><time>2026-03-25T17:48:45.978Z</time></trkpt><trkpt lat="43.842788" lon="11.2126928"><ele>116.00000000000001</ele><time>2026-03-25T17:48:46.98Z</time></trkpt><trkpt lat="43.8427464" lon="11.21261"><ele>116.00000000000001</ele><time>2026-03-25T17:48:47.984Z</time></trkpt><trkpt lat="43.842696" lon="11.21253"><ele>116.0</ele><time>2026-03-25T17:48:48.989Z</time></trkpt><trkpt lat="43.8426401" lon="11.2124572"><ele>116.00000000000001</ele><time>2026-03-25T17:48:49.971Z</time></trkpt><trkpt lat="43.842592" lon="11.2123774"><ele>116.00000000000001</ele><time>2026-03-25T17:48:50.977Z</time></trkpt><trkpt lat="43.8425484" lon="11.2122981"><ele>116.0</ele><time>2026-03-25T17:48:51.976Z</time></trkpt><trkpt lat="43.8425066" lon="11.212228"><ele>116.00000000000001</ele><time>2026-03-25T17:48:52.975Z</time></trkpt><trkpt lat="43.8424666" lon="11.2121539"><ele>116.00000000000001</ele><time>2026-03-25T17:48:53.979Z</time></trkpt><trkpt lat="43.842422" lon="11.2120836"><ele>114.66666666666666</ele><time>2026-03-25T17:48:54.975Z</time></trkpt><trkpt lat="43.842377" lon="11.2120076"><ele>113.33333333333333</ele><time>2026-03-25T17:48:55.99Z</time></trkpt><trkpt lat="43.842335" lon="11.2119376"><ele>112.0</ele><time>2026-03-25T17:48:56.977Z</time></trkpt><trkpt lat="43.8422521" lon="11.2118103"><ele>110.66666666666666</ele><time>2026-03-25T17:48:58.97Z</time></trkpt><trkpt lat="43.8421741" lon="11.2116876"><ele>109.33333333333333</ele><time>2026-03-25T17:49:00.975Z</time></trkpt><trkpt lat="43.8421255" lon="11.2116155"><ele>108.0</ele><time>2026-03-25T17:49:01.984Z</time></trkpt><trkpt lat="43.8420852" lon="11.2115401"><ele>107.2</ele><time>2026-03-25T17:49:02.97Z</time></trkpt><trkpt lat="43.8420495" lon="11.2114681"><ele>106.4</ele><time>2026-03-25T17:49:03.973Z</time></trkpt><trkpt lat="43.8420089" lon="11.2113997"><ele>105.60000000000001</ele><time>2026-03-25T17:49:04.976Z</time></trkpt><trkpt lat="43.8419325" lon="11.2112594"><ele>104.80000000000001</ele><time>2026-03-25T17:49:06.982Z</time></trkpt><trkpt lat="43.8418549" lon="11.2111281"><ele>104.0</ele><time>2026-03-25T17:49:08.982Z</time></trkpt><trkpt lat="43.8417689" lon="11.2109986"><ele>103.0</ele><time>2026-03-25T17:49:10.985Z</time></trkpt><trkpt lat="43.8416859" lon="11.210875"><ele>102.0</ele><time>2026-03-25T17:49:12.983Z</time></trkpt><trkpt lat="43.8416141" lon="11.2107602"><ele>101.0</ele><time>2026-03-25T17:49:14.978Z</time></trkpt><trkpt lat="43.8415523" lon="11.2106543"><ele>100.0</ele><time>2026-03-25T17:49:16.979Z</time></trkpt><trkpt lat="43.8414878" lon="11.2105358"><ele>99.0</ele><time>2026-03-25T17:49:18.971Z</time></trkpt><trkpt lat="43.841433" lon="11.2104298"><ele>98.4</ele><time>2026-03-25T17:49:20.976Z</time></trkpt><trkpt lat="43.8414259" lon="11.2102953"><ele>97.80000000000001</ele><time>2026-03-25T17:49:22.981Z</time></trkpt><trkpt lat="43.8414339" lon="11.2101399"><ele>97.19999999999999</ele><time>2026-03-25T17:49:24.968Z</time></trkpt><trkpt lat="43.8414271" lon="11.2099926"><ele>96.6</ele><time>2026-03-25T17:49:26.974Z</time></trkpt><trkpt lat="43.8414589" lon="11.2098793"><ele>96.0</ele><time>2026-03-25T17:49:29.982Z</time></trkpt><trkpt lat="43.8415121" lon="11.2098236"><ele>95.6</ele><time>2026-03-25T17:49:31.965Z</time></trkpt><trkpt lat="43.8416013" lon="11.2097448"><ele>95.19999999999999</ele><time>2026-03-25T17:49:33.978Z</time></trkpt><trkpt lat="43.8416578" lon="11.2096922"><ele>94.80000000000001</ele><time>2026-03-25T17:49:34.973Z</time></trkpt><trkpt lat="43.8417134" lon="11.2096445"><ele>94.4</ele><time>2026-03-25T17:49:35.99Z</time></trkpt><trkpt lat="43.8418046" lon="11.2095364"><ele>94.0</ele><time>2026-03-25T17:49:37.98Z</time></trkpt><trkpt lat="43.8418488" lon="11.2094035"><ele>94.16666666666666</ele><time>2026-03-25T17:49:39.962Z</time></trkpt><trkpt lat="43.84185" lon="11.209252"><ele>94.33333333333333</ele><time>2026-03-25T17:49:41.99Z</time></trkpt><trkpt lat="43.8418506" lon="11.2091235"><ele>94.5</ele><time>2026-03-25T17:49:43.973Z</time></trkpt><trkpt lat="43.8418426" lon="11.2090315"><ele>94.66666666666667</ele><time>2026-03-25T17:49:46.98Z</time></trkpt><trkpt lat="43.8418281" lon="11.2089454"><ele>94.83333333333334</ele><time>2026-03-25T17:49:48.979Z</time></trkpt><trkpt lat="43.841853" lon="11.208802"><ele>95.0</ele><time>2026-03-25T17:49:50.986Z</time></trkpt><trkpt lat="43.8418804" lon="11.2086379"><ele>95.0</ele><time>2026-03-25T17:49:52.971Z</time></trkpt><trkpt lat="43.8419007" lon="11.2084827"><ele>95.0</ele><time>2026-03-25T17:49:54.983Z</time></trkpt><trkpt lat="43.8419143" lon="11.2083186"><ele>95.0</ele><time>2026-03-25T17:49:56.983Z</time></trkpt><trkpt lat="43.8419146" lon="11.2082202"><ele>95.0</ele><time>2026-03-25T17:49:57.984Z</time></trkpt><trkpt lat="43.8419143" lon="11.2081309"><ele>95.0</ele><time>2026-03-25T17:49:58.98Z</time></trkpt><trkpt lat="43.8419051" lon="11.20799"><ele>94.6</ele><time>2026-03-25T17:50:00.956Z</time></trkpt><trkpt lat="43.8419053" lon="11.2078737"><ele>94.2</ele><time>2026-03-25T17:50:02.979Z</time></trkpt><trkpt lat="43.8419553" lon="11.2077586"><ele>93.80000000000001</ele><time>2026-03-25T17:50:05.973Z</time></trkpt><trkpt lat="43.8420739" lon="11.2076787"><ele>93.4</ele><time>2026-03-25T17:50:08.037Z</time></trkpt><trkpt lat="43.8421298" lon="11.2076328"><ele>93.0</ele><time>2026-03-25T17:50:09.035Z</time></trkpt><trkpt lat="43.8421803" lon="11.2075535"><ele>93.0</ele><time>2026-03-25T17:50:09.964Z</time></trkpt><trkpt lat="43.8422449" lon="11.2074851"><ele>93.0</ele><time>2026-03-25T17:50:10.967Z</time></trkpt><trkpt lat="43.8423127" lon="11.2074179"><ele>93.0</ele><time>2026-03-25T17:50:11.963Z</time></trkpt><trkpt lat="43.8423799" lon="11.2073329"><ele>93.0</ele><time>2026-03-25T17:50:12.956Z</time></trkpt><trkpt lat="43.8424446" lon="11.2072406"><ele>93.0</ele><time>2026-03-25T17:50:13.971Z</time></trkpt><trkpt lat="43.8425134" lon="11.207152"><ele>93.0</ele><time>2026-03-25T17:50:14.954Z</time></trkpt><trkpt lat="43.8425864" lon="11.2070567"><ele>93.16666666666667</ele><time>2026-03-25T17:50:16.033Z</time></trkpt><trkpt lat="43.8426534" lon="11.2069628"><ele>93.33333333333333</ele><time>2026-03-25T17:50:16.962Z</time></trkpt><trkpt lat="43.8427137" lon="11.206874"><ele>93.5</ele><time>2026-03-25T17:50:17.961Z</time></trkpt><trkpt lat="43.8427679" lon="11.2067912"><ele>93.66666666666666</ele><time>2026-03-25T17:50:18.997Z</time></trkpt><trkpt lat="43.8428198" lon="11.206703"><ele>93.83333333333333</ele><time>2026-03-25T17:50:19.968Z</time></trkpt><trkpt lat="43.8428627" lon="11.2066042"><ele>94.0</ele><time>2026-03-25T17:50:20.965Z</time></trkpt><trkpt lat="43.8429063" lon="11.2064997"><ele>94.2</ele><time>2026-03-25T17:50:21.962Z</time></trkpt><trkpt lat="43.8429436" lon="11.2063887"><ele>94.4</ele><time>2026-03-25T17:50:22.957Z</time></trkpt><trkpt lat="43.8429838" lon="11.2062719"><ele>94.6</ele><time>2026-03-25T17:50:24.021Z</time></trkpt><trkpt lat="43.843026" lon="11.206146"><ele>94.8</ele><time>2026-03-25T17:50:25.031Z</time></trkpt><trkpt lat="43.8430676" lon="11.2060202"><ele>95.0</ele><time>2026-03-25T17:50:26.018Z</time></trkpt><trkpt lat="43.8431056" lon="11.2058969"><ele>95.0</ele><time>2026-03-25T17:50:26.965Z</time></trkpt><trkpt lat="43.843142" lon="11.2057845"><ele>95.0</ele><time>2026-03-25T17:50:27.965Z</time></trkpt><trkpt lat="43.8431774" lon="11.2056814"><ele>95.0</ele><time>2026-03-25T17:50:28.979Z</time></trkpt><trkpt lat="43.8432187" lon="11.205582"><ele>95.0</ele><time>2026-03-25T17:50:30.038Z</time></trkpt><trkpt lat="43.84326" lon="11.2054965"><ele>95.0</ele><time>2026-03-25T17:50:31.033Z</time></trkpt><trkpt lat="43.8433093" lon="11.2054222"><ele>95.0</ele><time>2026-03-25T17:50:31.954Z</time></trkpt><trkpt lat="43.8433595" lon="11.205352"><ele>95.0</ele><time>2026-03-25T17:50:32.962Z</time></trkpt><trkpt lat="43.8434088" lon="11.2052804"><ele>95.0</ele><time>2026-03-25T17:50:33.982Z</time></trkpt><trkpt lat="43.8434632" lon="11.205192"><ele>95.0</ele><time>2026-03-25T17:50:34.961Z</time></trkpt><trkpt lat="43.8435193" lon="11.2050962"><ele>95.0</ele><time>2026-03-25T17:50:36.04Z</time></trkpt><trkpt lat="43.8435779" lon="11.2049961"><ele>95.0</ele><time>2026-03-25T17:50:36.947Z</time></trkpt><trkpt lat="43.8436356" lon="11.204894"><ele>95.0</ele><time>2026-03-25T17:50:38.031Z</time></trkpt><trkpt lat="43.8436853" lon="11.2047961"><ele>95.2</ele><time>2026-03-25T17:50:39.031Z</time></trkpt><trkpt lat="43.8437407" lon="11.2047023"><ele>95.4</ele><time>2026-03-25T17:50:40.034Z</time></trkpt><trkpt lat="43.8438028" lon="11.2046092"><ele>95.6</ele><time>2026-03-25T17:50:41.028Z</time></trkpt><trkpt lat="43.8438684" lon="11.2045164"><ele>95.8</ele><time>2026-03-25T17:50:41.957Z</time></trkpt><trkpt lat="43.8439346" lon="11.2044232"><ele>96.0</ele><time>2026-03-25T17:50:42.939Z</time></trkpt><trkpt lat="43.8439888" lon="11.2043267"><ele>96.0</ele><time>2026-03-25T17:50:44.007Z</time></trkpt><trkpt lat="43.844041" lon="11.204233"><ele>96.0</ele><time>2026-03-25T17:50:45.001Z</time></trkpt><trkpt lat="43.8440967" lon="11.2041393"><ele>96.0</ele><time>2026-03-25T17:50:45.956Z</time></trkpt><trkpt lat="43.844153" lon="11.204055"><ele>96.0</ele><time>2026-03-25T17:50:46.972Z</time></trkpt><trkpt lat="43.844192" lon="11.2039713"><ele>96.0</ele><time>2026-03-25T17:50:48.039Z</time></trkpt><trkpt lat="43.8442196" lon="11.2038802"><ele>96.0</ele><time>2026-03-25T17:50:49.029Z</time></trkpt><trkpt lat="43.844212" lon="11.2037862"><ele>95.6</ele><time>2026-03-25T17:50:50.017Z</time></trkpt><trkpt lat="43.8441819" lon="11.2036987"><ele>95.19999999999999</ele><time>2026-03-25T17:50:50.95Z</time></trkpt><trkpt lat="43.8440785" lon="11.2035397"><ele>94.80000000000001</ele><time>2026-03-25T17:50:53.939Z</time></trkpt><trkpt lat="43.84398" lon="11.2034708"><ele>94.4</ele><time>2026-03-25T17:50:54.97Z</time></trkpt><trkpt lat="43.8438885" lon="11.2033914"><ele>94.0</ele><time>2026-03-25T17:50:56.007Z</time></trkpt><trkpt lat="43.8437901" lon="11.2033139"><ele>94.0</ele><time>2026-03-25T17:50:56.965Z</time></trkpt><trkpt lat="43.8436949" lon="11.2032411"><ele>94.0</ele><time>2026-03-25T17:50:57.968Z</time></trkpt><trkpt lat="43.8436162" lon="11.2031737"><ele>94.0</ele><time>2026-03-25T17:50:58.989Z</time></trkpt><trkpt lat="43.8435466" lon="11.2030921"><ele>94.0</ele><time>2026-03-25T17:50:59.959Z</time></trkpt><trkpt lat="43.8434878" lon="11.2030152"><ele>94.0</ele><time>2026-03-25T17:51:00.944Z</time></trkpt><trkpt lat="43.8434231" lon="11.2029458"><ele>92.4</ele><time>2026-03-25T17:51:01.956Z</time></trkpt><trkpt lat="43.8433681" lon="11.2028831"><ele>90.80000000000001</ele><time>2026-03-25T17:51:02.965Z</time></trkpt><trkpt lat="43.8433204" lon="11.2028223"><ele>89.19999999999999</ele><time>2026-03-25T17:51:03.952Z</time></trkpt><trkpt lat="43.8432304" lon="11.2027367"><ele>87.6</ele><time>2026-03-25T17:51:06.03Z</time></trkpt><trkpt lat="43.8431345" lon="11.2026544"><ele>86.0</ele><time>2026-03-25T17:51:07.978Z</time></trkpt><trkpt lat="43.8430367" lon="11.2025935"><ele>86.0</ele><time>2026-03-25T17:51:10.05Z</time></trkpt><trkpt lat="43.8429775" lon="11.2025535"><ele>86.0</ele><time>2026-03-25T17:51:11.03Z</time></trkpt><trkpt lat="43.8429185" lon="11.2025059"><ele>86.0</ele><time>2026-03-25T17:51:11.966Z</time></trkpt><trkpt lat="43.8428608" lon="11.2024667"><ele>86.0</ele><time>2026-03-25T17:51:12.971Z</time></trkpt><trkpt lat="43.8427634" lon="11.2024086"><ele>86.0</ele><time>2026-03-25T17:51:15.014Z</time></trkpt><trkpt lat="43.8427064" lon="11.2023335"><ele>86.0</ele><time>2026-03-25T17:51:17.977Z</time></trkpt><trkpt lat="43.8427617" lon="11.20223"><ele>85.5</ele><time>2026-03-25T17:51:20.982Z</time></trkpt><trkpt lat="43.8428551" lon="11.2021245"><ele>85.0</ele><time>2026-03-25T17:51:22.966Z</time></trkpt><trkpt lat="43.8429071" lon="11.2020678"><ele>84.5</ele><time>2026-03-25T17:51:23.965Z</time></trkpt><trkpt lat="43.8429658" lon="11.2020121"><ele>84.0</ele><time>2026-03-25T17:51:24.957Z</time></trkpt><trkpt lat="43.8430298" lon="11.2019556"><ele>83.5</ele><time>2026-03-25T17:51:25.962Z</time></trkpt><trkpt lat="43.843086" lon="11.2018926"><ele>83.0</ele><time>2026-03-25T17:51:26.969Z</time></trkpt><trkpt lat="43.8431418" lon="11.2018297"><ele>83.0</ele><time>2026-03-25T17:51:28.016Z</time></trkpt><trkpt lat="43.8431973" lon="11.2017691"><ele>83.0</ele><time>2026-03-25T17:51:29.035Z</time></trkpt><trkpt lat="43.8432484" lon="11.2017123"><ele>83.0</ele><time>2026-03-25T17:51:30.007Z</time></trkpt><trkpt lat="43.8433448" lon="11.2016026"><ele>83.0</ele><time>2026-03-25T17:51:31.967Z</time></trkpt><trkpt lat="43.8433907" lon="11.2015425"><ele>83.0</ele><time>2026-03-25T17:51:32.957Z</time></trkpt><trkpt lat="43.8434398" lon="11.2014807"><ele>83.0</ele><time>2026-03-25T17:51:33.968Z</time></trkpt><trkpt lat="43.8434888" lon="11.2014192"><ele>83.16666666666667</ele><time>2026-03-25T17:51:34.958Z</time></trkpt><trkpt lat="43.8435456" lon="11.2013626"><ele>83.33333333333334</ele><time>2026-03-25T17:51:36.028Z</time></trkpt><trkpt lat="43.8436309" lon="11.201272"><ele>83.5</ele><time>2026-03-25T17:51:37.976Z</time></trkpt><trkpt lat="43.8436471" lon="11.2011561"><ele>83.66666666666667</ele><time>2026-03-25T17:51:39.981Z</time></trkpt><trkpt lat="43.8436086" lon="11.2010552"><ele>83.83333333333333</ele><time>2026-03-25T17:51:41.957Z</time></trkpt><trkpt lat="43.8435484" lon="11.2009421"><ele>84.0</ele><time>2026-03-25T17:51:43.965Z</time></trkpt><trkpt lat="43.8434843" lon="11.2008016"><ele>83.33333333333333</ele><time>2026-03-25T17:51:46.037Z</time></trkpt><trkpt lat="43.843447" lon="11.2007304"><ele>82.66666666666667</ele><time>2026-03-25T17:51:46.97Z</time></trkpt><trkpt lat="43.8433995" lon="11.2006527"><ele>82.0</ele><time>2026-03-25T17:51:47.971Z</time></trkpt><trkpt lat="43.843358" lon="11.2005692"><ele>81.33333333333334</ele><time>2026-03-25T17:51:48.988Z</time></trkpt><trkpt lat="43.8433176" lon="11.2004933"><ele>80.66666666666667</ele><time>2026-03-25T17:51:49.955Z</time></trkpt><trkpt lat="43.843241" lon="11.200393"><ele>80.0</ele><time>2026-03-25T17:51:51.967Z</time></trkpt><trkpt lat="43.8431664" lon="11.2004284"><ele>80.0</ele><time>2026-03-25T17:51:53.978Z</time></trkpt><trkpt lat="43.8431038" lon="11.2005574"><ele>80.0</ele><time>2026-03-25T17:51:55.97Z</time></trkpt><trkpt lat="43.8430358" lon="11.2006705"><ele>80.0</ele><time>2026-03-25T17:51:57.976Z</time></trkpt><trkpt lat="43.842952" lon="11.2007244"><ele>80.0</ele><time>2026-03-25T17:52:00Z</time></trkpt><trkpt lat="43.8428559" lon="11.2005936"><ele>80.0</ele><time>2026-03-25T17:52:01.989Z</time></trkpt><trkpt lat="43.8428074" lon="11.2005291"><ele>79.66666666666667</ele><time>2026-03-25T17:52:02.974Z</time></trkpt><trkpt lat="43.8427532" lon="11.2004566"><ele>79.33333333333334</ele><time>2026-03-25T17:52:03.973Z</time></trkpt><trkpt lat="43.8427009" lon="11.2003827"><ele>79.0</ele><time>2026-03-25T17:52:04.958Z</time></trkpt><trkpt lat="43.8426494" lon="11.2003205"><ele>78.66666666666667</ele><time>2026-03-25T17:52:05.983Z</time></trkpt><trkpt lat="43.8426033" lon="11.2002522"><ele>78.33333333333333</ele><time>2026-03-25T17:52:06.966Z</time></trkpt><trkpt lat="43.8425545" lon="11.2001886"><ele>78.0</ele><time>2026-03-25T17:52:07.961Z</time></trkpt><trkpt lat="43.8424812" lon="11.2000667"><ele>77.2</ele><time>2026-03-25T17:52:09.981Z</time></trkpt><trkpt lat="43.8424758" lon="11.1999293"><ele>76.4</ele><time>2026-03-25T17:52:11.971Z</time></trkpt><trkpt lat="43.8425019" lon="11.1997709"><ele>75.60000000000001</ele><time>2026-03-25T17:52:13.971Z</time></trkpt><trkpt lat="43.8425169" lon="11.1996761"><ele>74.8</ele><time>2026-03-25T17:52:14.974Z</time></trkpt><trkpt lat="43.8425262" lon="11.1995499"><ele>74.0</ele><time>2026-03-25T17:52:16.968Z</time></trkpt><trkpt lat="43.842481" lon="11.1994596"><ele>74.0</ele><time>2026-03-25T17:52:18.972Z</time></trkpt><trkpt lat="43.8423833" lon="11.1994429"><ele>74.0</ele><time>2026-03-25T17:52:21.027Z</time></trkpt><trkpt lat="43.8423417" lon="11.1993259"><ele>74.0</ele><time>2026-03-25T17:52:23.984Z</time></trkpt><trkpt lat="43.8423401" lon="11.1992368"><ele>74.0</ele><time>2026-03-25T17:52:24.979Z</time></trkpt><trkpt lat="43.842355" lon="11.1991437"><ele>74.0</ele><time>2026-03-25T17:52:25.969Z</time></trkpt><trkpt lat="43.8423738" lon="11.1990345"><ele>74.0</ele><time>2026-03-25T17:52:26.971Z</time></trkpt><trkpt lat="43.8423957" lon="11.1989216"><ele>74.0</ele><time>2026-03-25T17:52:27.964Z</time></trkpt><trkpt lat="43.8424173" lon="11.1988031"><ele>74.0</ele><time>2026-03-25T17:52:28.96Z</time></trkpt><trkpt lat="43.8424455" lon="11.1986714"><ele>74.0</ele><time>2026-03-25T17:52:30.018Z</time></trkpt><trkpt lat="43.8424718" lon="11.1985367"><ele>74.0</ele><time>2026-03-25T17:52:30.969Z</time></trkpt><trkpt lat="43.8424889" lon="11.1983959"><ele>74.0</ele><time>2026-03-25T17:52:31.967Z</time></trkpt><trkpt lat="43.8425139" lon="11.198257"><ele>73.8</ele><time>2026-03-25T17:52:32.963Z</time></trkpt><trkpt lat="43.8425426" lon="11.1981185"><ele>73.60000000000001</ele><time>2026-03-25T17:52:33.965Z</time></trkpt><trkpt lat="43.8425669" lon="11.1979927"><ele>73.4</ele><time>2026-03-25T17:52:34.97Z</time></trkpt><trkpt lat="43.8425912" lon="11.1978708"><ele>73.2</ele><time>2026-03-25T17:52:35.98Z</time></trkpt><trkpt lat="43.8426179" lon="11.1977458"><ele>73.0</ele><time>2026-03-25T17:52:36.965Z</time></trkpt><trkpt lat="43.842642" lon="11.1976162"><ele>73.16666666666666</ele><time>2026-03-25T17:52:37.963Z</time></trkpt><trkpt lat="43.8426624" lon="11.1974928"><ele>73.33333333333333</ele><time>2026-03-25T17:52:38.948Z</time></trkpt><trkpt lat="43.8426857" lon="11.1973798"><ele>73.5</ele><time>2026-03-25T17:52:40.031Z</time></trkpt><trkpt lat="43.8427152" lon="11.1972676"><ele>73.66666666666667</ele><time>2026-03-25T17:52:41.039Z</time></trkpt><trkpt lat="43.8427388" lon="11.197168"><ele>73.83333333333334</ele><time>2026-03-25T17:52:41.961Z</time></trkpt><trkpt lat="43.842759" lon="11.1970778"><ele>74.0</ele><time>2026-03-25T17:52:42.989Z</time></trkpt><trkpt lat="43.8427927" lon="11.1969326"><ele>74.0</ele><time>2026-03-25T17:52:45.029Z</time></trkpt><trkpt lat="43.8428249" lon="11.1968326"><ele>74.0</ele><time>2026-03-25T17:52:46.987Z</time></trkpt><trkpt lat="43.8428348" lon="11.1967218"><ele>74.0</ele><time>2026-03-25T17:52:48.982Z</time></trkpt><trkpt lat="43.8428612" lon="11.196621"><ele>74.0</ele><time>2026-03-25T17:52:51.985Z</time></trkpt><trkpt lat="43.8428411" lon="11.1965153"><ele>74.0</ele><time>2026-03-25T17:53:37.973Z</time></trkpt><trkpt lat="43.8427932" lon="11.1963847"><ele>74.0</ele><time>2026-03-25T17:53:39.983Z</time></trkpt><trkpt lat="43.8427253" lon="11.196248"><ele>73.85714285714286</ele><time>2026-03-25T17:53:41.973Z</time></trkpt><trkpt lat="43.842685" lon="11.1961704"><ele>73.71428571428571</ele><time>2026-03-25T17:53:42.973Z</time></trkpt><trkpt lat="43.8426497" lon="11.1960873"><ele>73.57142857142857</ele><time>2026-03-25T17:53:44.053Z</time></trkpt><trkpt lat="43.8426056" lon="11.1960058"><ele>73.42857142857143</ele><time>2026-03-25T17:53:45.032Z</time></trkpt><trkpt lat="43.8425625" lon="11.1959214"><ele>73.28571428571429</ele><time>2026-03-25T17:53:46.042Z</time></trkpt><trkpt lat="43.8425222" lon="11.1958378"><ele>73.14285714285714</ele><time>2026-03-25T17:53:46.96Z</time></trkpt><trkpt lat="43.8424862" lon="11.1957551"><ele>73.0</ele><time>2026-03-25T17:53:47.971Z</time></trkpt><trkpt lat="43.8424737" lon="11.1955795"><ele>71.66666666666666</ele><time>2026-03-25T17:53:49.969Z</time></trkpt><trkpt lat="43.8424974" lon="11.1954745"><ele>70.33333333333333</ele><time>2026-03-25T17:53:50.959Z</time></trkpt><trkpt lat="43.8425249" lon="11.1953697"><ele>69.0</ele><time>2026-03-25T17:53:51.973Z</time></trkpt><trkpt lat="43.8425442" lon="11.1952561"><ele>67.66666666666667</ele><time>2026-03-25T17:53:53.031Z</time></trkpt><trkpt lat="43.8425653" lon="11.1951424"><ele>66.33333333333334</ele><time>2026-03-25T17:53:53.955Z</time></trkpt><trkpt lat="43.84258" lon="11.195014"><ele>65.0</ele><time>2026-03-25T17:53:55.028Z</time></trkpt><trkpt lat="43.8426044" lon="11.1948965"><ele>64.6</ele><time>2026-03-25T17:53:55.953Z</time></trkpt><trkpt lat="43.8426292" lon="11.1947722"><ele>64.2</ele><time>2026-03-25T17:53:56.957Z</time></trkpt><trkpt lat="43.8426563" lon="11.1946469"><ele>63.8</ele><time>2026-03-25T17:53:57.954Z</time></trkpt><trkpt lat="43.8426789" lon="11.1945186"><ele>63.4</ele><time>2026-03-25T17:53:58.987Z</time></trkpt><trkpt lat="43.842701" lon="11.1943925"><ele>63.0</ele><time>2026-03-25T17:53:59.981Z</time></trkpt><trkpt lat="43.8427283" lon="11.1942618"><ele>63.2</ele><time>2026-03-25T17:54:01.033Z</time></trkpt><trkpt lat="43.8427534" lon="11.1941274"><ele>63.4</ele><time>2026-03-25T17:54:01.954Z</time></trkpt><trkpt lat="43.8427709" lon="11.1939954"><ele>63.60000000000001</ele><time>2026-03-25T17:54:02.96Z</time></trkpt><trkpt lat="43.8427872" lon="11.1938542"><ele>63.800000000000004</ele><time>2026-03-25T17:54:03.966Z</time></trkpt><trkpt lat="43.8428069" lon="11.1937157"><ele>64.0</ele><time>2026-03-25T17:54:04.962Z</time></trkpt><trkpt lat="43.8428281" lon="11.1935624"><ele>64.0</ele><time>2026-03-25T17:54:05.979Z</time></trkpt><trkpt lat="43.8428511" lon="11.1934092"><ele>64.0</ele><time>2026-03-25T17:54:06.98Z</time></trkpt><trkpt lat="43.842878" lon="11.1932585"><ele>64.0</ele><time>2026-03-25T17:54:07.989Z</time></trkpt><trkpt lat="43.8429117" lon="11.1931086"><ele>64.0</ele><time>2026-03-25T17:54:08.988Z</time></trkpt><trkpt lat="43.8429523" lon="11.1929736"><ele>64.0</ele><time>2026-03-25T17:54:09.963Z</time></trkpt><trkpt lat="43.8430027" lon="11.1928389"><ele>63.800000000000004</ele><time>2026-03-25T17:54:10.994Z</time></trkpt><trkpt lat="43.8430558" lon="11.1927138"><ele>63.60000000000001</ele><time>2026-03-25T17:54:11.975Z</time></trkpt><trkpt lat="43.843112" lon="11.1925923"><ele>63.4</ele><time>2026-03-25T17:54:12.977Z</time></trkpt><trkpt lat="43.8431649" lon="11.1924744"><ele>63.2</ele><time>2026-03-25T17:54:13.961Z</time></trkpt><trkpt lat="43.8432196" lon="11.192352"><ele>63.0</ele><time>2026-03-25T17:54:15.041Z</time></trkpt><trkpt lat="43.8432683" lon="11.1922285"><ele>62.599999999999994</ele><time>2026-03-25T17:54:16.03Z</time></trkpt><trkpt lat="43.8433228" lon="11.1921013"><ele>62.199999999999996</ele><time>2026-03-25T17:54:16.956Z</time></trkpt><trkpt lat="43.8433764" lon="11.1919849"><ele>61.8</ele><time>2026-03-25T17:54:17.977Z</time></trkpt><trkpt lat="43.8434302" lon="11.1918643"><ele>61.4</ele><time>2026-03-25T17:54:19Z</time></trkpt><trkpt lat="43.8434849" lon="11.1917387"><ele>61.0</ele><time>2026-03-25T17:54:19.956Z</time></trkpt><trkpt lat="43.84354" lon="11.1916158"><ele>61.599999999999994</ele><time>2026-03-25T17:54:20.965Z</time></trkpt><trkpt lat="43.8435899" lon="11.1914882"><ele>62.199999999999996</ele><time>2026-03-25T17:54:21.968Z</time></trkpt><trkpt lat="43.8436406" lon="11.1913549"><ele>62.800000000000004</ele><time>2026-03-25T17:54:22.963Z</time></trkpt><trkpt lat="43.8436806" lon="11.1912206"><ele>63.400000000000006</ele><time>2026-03-25T17:54:23.962Z</time></trkpt><trkpt lat="43.8437164" lon="11.1910813"><ele>64.0</ele><time>2026-03-25T17:54:24.955Z</time></trkpt><trkpt lat="43.8437472" lon="11.1909404"><ele>64.0</ele><time>2026-03-25T17:54:25.965Z</time></trkpt><trkpt lat="43.8437585" lon="11.1908077"><ele>64.0</ele><time>2026-03-25T17:54:26.968Z</time></trkpt><trkpt lat="43.8437653" lon="11.1906723"><ele>64.0</ele><time>2026-03-25T17:54:27.964Z</time></trkpt><trkpt lat="43.8437595" lon="11.1905434"><ele>64.0</ele><time>2026-03-25T17:54:28.943Z</time></trkpt><trkpt lat="43.843749" lon="11.1904277"><ele>64.0</ele><time>2026-03-25T17:54:29.959Z</time></trkpt><trkpt lat="43.843734" lon="11.1903109"><ele>63.71428571428571</ele><time>2026-03-25T17:54:30.974Z</time></trkpt><trkpt lat="43.8437176" lon="11.1902058"><ele>63.42857142857142</ele><time>2026-03-25T17:54:31.967Z</time></trkpt><trkpt lat="43.8437012" lon="11.1900967"><ele>63.14285714285714</ele><time>2026-03-25T17:54:32.977Z</time></trkpt><trkpt lat="43.8436857" lon="11.1899977"><ele>62.85714285714286</ele><time>2026-03-25T17:54:34.041Z</time></trkpt><trkpt lat="43.8436683" lon="11.1899007"><ele>62.57142857142858</ele><time>2026-03-25T17:54:34.972Z</time></trkpt><trkpt lat="43.8436556" lon="11.1898059"><ele>62.28571428571429</ele><time>2026-03-25T17:54:36.034Z</time></trkpt><trkpt lat="43.8436446" lon="11.1897134"><ele>62.0</ele><time>2026-03-25T17:54:36.962Z</time></trkpt><trkpt lat="43.8436235" lon="11.1895733"><ele>60.0</ele><time>2026-03-25T17:54:38.964Z</time></trkpt><trkpt lat="43.8436157" lon="11.1894717"><ele>60.0</ele><time>2026-03-25T17:54:40.964Z</time></trkpt><trkpt lat="43.8436049" lon="11.189374"><ele>60.0</ele><time>2026-03-25T17:54:42.949Z</time></trkpt><trkpt lat="43.8435897" lon="11.1892611"><ele>60.0</ele><time>2026-03-25T17:54:45.975Z</time></trkpt></trkseg></trk></gpx>